<?xml version="1.0" encoding="UTF-8" standalone="no" ?>
<gpx xmlns="http://www.topografix.com/GPX/1/1" xmlns:xsi="http://www.w3.org/2001/XMLSchema-instance" xsi:schemaLocation="http://www.topografix.com/GPX/1/1 http://www.topografix.com/GPX/1/1/gpx.xsd" version="1.1" creator="VisuGPX - https://www.visugpx.com">
  <metadata>
    <name>30032014 SEANCE 5</name>
    <desc><![CDATA[Pas de eau]]></desc>
  </metadata>
  <trk>
    <name><![CDATA[30032014 SEANCE 5_1]]></name>
    <trkseg>
      <trkpt lat="44.83955" lon="0.67411">
        <ele>92</ele>
        <time>2014-03-29T17:02:05.000Z</time>
      </trkpt>
      <trkpt lat="44.83944" lon="0.67414">
        <ele>93</ele>
        <time>2014-03-29T17:02:11.000Z</time>
      </trkpt>
      <trkpt lat="44.83936" lon="0.67433">
        <ele>94</ele>
        <time>2014-03-29T17:02:18.000Z</time>
      </trkpt>
      <trkpt lat="44.83936" lon="0.67433">
        <ele>94</ele>
        <time>2014-03-29T17:02:26.000Z</time>
      </trkpt>
      <trkpt lat="44.83926" lon="0.67472">
        <ele>91</ele>
        <time>2014-03-29T17:02:34.000Z</time>
      </trkpt>
      <trkpt lat="44.83921" lon="0.67486">
        <ele>93</ele>
        <time>2014-03-29T17:02:40.000Z</time>
      </trkpt>
      <trkpt lat="44.83917" lon="0.67502">
        <ele>93</ele>
        <time>2014-03-29T17:02:46.000Z</time>
      </trkpt>
      <trkpt lat="44.83912" lon="0.67517">
        <ele>96</ele>
        <time>2014-03-29T17:02:52.000Z</time>
      </trkpt>
      <trkpt lat="44.83912" lon="0.67517">
        <ele>96</ele>
        <time>2014-03-29T17:02:54.000Z</time>
      </trkpt>
      <trkpt lat="44.83912" lon="0.67517">
        <ele>96</ele>
        <time>2014-03-29T17:02:56.000Z</time>
      </trkpt>
      <trkpt lat="44.83912" lon="0.67517">
        <ele>96</ele>
        <time>2014-03-29T17:02:58.000Z</time>
      </trkpt>
      <trkpt lat="44.83904" lon="0.6754">
        <ele>94</ele>
        <time>2014-03-29T17:03:00.000Z</time>
      </trkpt>
      <trkpt lat="44.83899" lon="0.67556">
        <ele>93</ele>
        <time>2014-03-29T17:03:06.000Z</time>
      </trkpt>
      <trkpt lat="44.83899" lon="0.67556">
        <ele>93</ele>
        <time>2014-03-29T17:03:12.000Z</time>
      </trkpt>
      <trkpt lat="44.83899" lon="0.67556">
        <ele>93</ele>
        <time>2014-03-29T17:03:14.000Z</time>
      </trkpt>
      <trkpt lat="44.83899" lon="0.67556">
        <ele>93</ele>
        <time>2014-03-29T17:03:16.000Z</time>
      </trkpt>
      <trkpt lat="44.83899" lon="0.67556">
        <ele>93</ele>
        <time>2014-03-29T17:03:18.000Z</time>
      </trkpt>
      <trkpt lat="44.83899" lon="0.67556">
        <ele>93</ele>
        <time>2014-03-29T17:03:20.000Z</time>
      </trkpt>
      <trkpt lat="44.83884" lon="0.67605">
        <ele>93</ele>
        <time>2014-03-29T17:03:24.000Z</time>
      </trkpt>
      <trkpt lat="44.83884" lon="0.67605">
        <ele>93</ele>
        <time>2014-03-29T17:03:28.000Z</time>
      </trkpt>
      <trkpt lat="44.83878" lon="0.67623">
        <ele>95</ele>
        <time>2014-03-29T17:03:30.000Z</time>
      </trkpt>
      <trkpt lat="44.83874" lon="0.67641">
        <ele>98</ele>
        <time>2014-03-29T17:03:36.000Z</time>
      </trkpt>
      <trkpt lat="44.83874" lon="0.67641">
        <ele>98</ele>
        <time>2014-03-29T17:03:38.000Z</time>
      </trkpt>
      <trkpt lat="44.83874" lon="0.67641">
        <ele>98</ele>
        <time>2014-03-29T17:03:40.000Z</time>
      </trkpt>
      <trkpt lat="44.83868" lon="0.67657">
        <ele>97</ele>
        <time>2014-03-29T17:03:42.000Z</time>
      </trkpt>
      <trkpt lat="44.83868" lon="0.67657">
        <ele>97</ele>
        <time>2014-03-29T17:03:44.000Z</time>
      </trkpt>
      <trkpt lat="44.83868" lon="0.67657">
        <ele>97</ele>
        <time>2014-03-29T17:03:48.000Z</time>
      </trkpt>
      <trkpt lat="44.83868" lon="0.67657">
        <ele>97</ele>
        <time>2014-03-29T17:03:50.000Z</time>
      </trkpt>
      <trkpt lat="44.83868" lon="0.67657">
        <ele>97</ele>
        <time>2014-03-29T17:03:52.000Z</time>
      </trkpt>
      <trkpt lat="44.83868" lon="0.67657">
        <ele>97</ele>
        <time>2014-03-29T17:03:54.000Z</time>
      </trkpt>
      <trkpt lat="44.83868" lon="0.67657">
        <ele>97</ele>
        <time>2014-03-29T17:03:58.000Z</time>
      </trkpt>
      <trkpt lat="44.83863" lon="0.67677">
        <ele>92</ele>
        <time>2014-03-29T17:04:00.000Z</time>
      </trkpt>
      <trkpt lat="44.83859" lon="0.67691">
        <ele>92</ele>
        <time>2014-03-29T17:04:02.000Z</time>
      </trkpt>
      <trkpt lat="44.83857" lon="0.677">
        <ele>92</ele>
        <time>2014-03-29T17:04:04.000Z</time>
      </trkpt>
      <trkpt lat="44.83854" lon="0.67707">
        <ele>92</ele>
        <time>2014-03-29T17:04:06.000Z</time>
      </trkpt>
      <trkpt lat="44.83852" lon="0.67713">
        <ele>92</ele>
        <time>2014-03-29T17:04:08.000Z</time>
      </trkpt>
      <trkpt lat="44.83852" lon="0.67713">
        <ele>92</ele>
        <time>2014-03-29T17:04:10.000Z</time>
      </trkpt>
      <trkpt lat="44.83852" lon="0.67713">
        <ele>92</ele>
        <time>2014-03-29T17:04:12.000Z</time>
      </trkpt>
      <trkpt lat="44.83852" lon="0.67713">
        <ele>92</ele>
        <time>2014-03-29T17:04:14.000Z</time>
      </trkpt>
      <trkpt lat="44.83842" lon="0.67752">
        <ele>93</ele>
        <time>2014-03-29T17:04:20.000Z</time>
      </trkpt>
      <trkpt lat="44.83838" lon="0.67764">
        <ele>93</ele>
        <time>2014-03-29T17:04:24.000Z</time>
      </trkpt>
      <trkpt lat="44.83838" lon="0.67764">
        <ele>93</ele>
        <time>2014-03-29T17:04:28.000Z</time>
      </trkpt>
      <trkpt lat="44.83838" lon="0.67764">
        <ele>93</ele>
        <time>2014-03-29T17:04:30.000Z</time>
      </trkpt>
      <trkpt lat="44.83838" lon="0.67764">
        <ele>93</ele>
        <time>2014-03-29T17:04:32.000Z</time>
      </trkpt>
      <trkpt lat="44.83824" lon="0.67789">
        <ele>91</ele>
        <time>2014-03-29T17:04:36.000Z</time>
      </trkpt>
      <trkpt lat="44.83818" lon="0.67804">
        <ele>90</ele>
        <time>2014-03-29T17:04:42.000Z</time>
      </trkpt>
      <trkpt lat="44.83818" lon="0.67804">
        <ele>90</ele>
        <time>2014-03-29T17:04:44.000Z</time>
      </trkpt>
      <trkpt lat="44.83818" lon="0.67804">
        <ele>90</ele>
        <time>2014-03-29T17:04:46.000Z</time>
      </trkpt>
      <trkpt lat="44.83818" lon="0.67804">
        <ele>90</ele>
        <time>2014-03-29T17:04:48.000Z</time>
      </trkpt>
      <trkpt lat="44.83811" lon="0.67835">
        <ele>88</ele>
        <time>2014-03-29T17:04:54.000Z</time>
      </trkpt>
      <trkpt lat="44.83807" lon="0.67852">
        <ele>87</ele>
        <time>2014-03-29T17:05:00.000Z</time>
      </trkpt>
      <trkpt lat="44.83807" lon="0.67852">
        <ele>87</ele>
        <time>2014-03-29T17:05:04.000Z</time>
      </trkpt>
      <trkpt lat="44.83807" lon="0.67852">
        <ele>87</ele>
        <time>2014-03-29T17:05:06.000Z</time>
      </trkpt>
      <trkpt lat="44.83807" lon="0.67852">
        <ele>87</ele>
        <time>2014-03-29T17:05:08.000Z</time>
      </trkpt>
      <trkpt lat="44.83807" lon="0.67852">
        <ele>87</ele>
        <time>2014-03-29T17:05:10.000Z</time>
      </trkpt>
      <trkpt lat="44.83807" lon="0.67852">
        <ele>87</ele>
        <time>2014-03-29T17:05:12.000Z</time>
      </trkpt>
      <trkpt lat="44.83807" lon="0.67852">
        <ele>87</ele>
        <time>2014-03-29T17:05:14.000Z</time>
      </trkpt>
      <trkpt lat="44.83807" lon="0.67852">
        <ele>87</ele>
        <time>2014-03-29T17:05:16.000Z</time>
      </trkpt>
      <trkpt lat="44.83794" lon="0.67906">
        <ele>90</ele>
        <time>2014-03-29T17:05:20.000Z</time>
      </trkpt>
      <trkpt lat="44.83792" lon="0.67915">
        <ele>90</ele>
        <time>2014-03-29T17:05:26.000Z</time>
      </trkpt>
      <trkpt lat="44.83792" lon="0.67915">
        <ele>90</ele>
        <time>2014-03-29T17:05:28.000Z</time>
      </trkpt>
      <trkpt lat="44.8379" lon="0.67926">
        <ele>91</ele>
        <time>2014-03-29T17:05:30.000Z</time>
      </trkpt>
      <trkpt lat="44.83788" lon="0.67934">
        <ele>91</ele>
        <time>2014-03-29T17:05:32.000Z</time>
      </trkpt>
      <trkpt lat="44.83788" lon="0.67934">
        <ele>91</ele>
        <time>2014-03-29T17:05:34.000Z</time>
      </trkpt>
      <trkpt lat="44.83788" lon="0.67934">
        <ele>91</ele>
        <time>2014-03-29T17:05:36.000Z</time>
      </trkpt>
      <trkpt lat="44.83788" lon="0.67934">
        <ele>91</ele>
        <time>2014-03-29T17:05:38.000Z</time>
      </trkpt>
      <trkpt lat="44.83784" lon="0.67953">
        <ele>93</ele>
        <time>2014-03-29T17:05:42.000Z</time>
      </trkpt>
      <trkpt lat="44.83782" lon="0.67965">
        <ele>91</ele>
        <time>2014-03-29T17:05:44.000Z</time>
      </trkpt>
      <trkpt lat="44.83781" lon="0.67974">
        <ele>92</ele>
        <time>2014-03-29T17:05:46.000Z</time>
      </trkpt>
      <trkpt lat="44.8378" lon="0.67981">
        <ele>92</ele>
        <time>2014-03-29T17:05:48.000Z</time>
      </trkpt>
      <trkpt lat="44.83778" lon="0.67988">
        <ele>94</ele>
        <time>2014-03-29T17:05:50.000Z</time>
      </trkpt>
      <trkpt lat="44.83767" lon="0.67996">
        <ele>95</ele>
        <time>2014-03-29T17:05:54.000Z</time>
      </trkpt>
      <trkpt lat="44.83767" lon="0.67996">
        <ele>95</ele>
        <time>2014-03-29T17:05:56.000Z</time>
      </trkpt>
      <trkpt lat="44.83767" lon="0.67996">
        <ele>95</ele>
        <time>2014-03-29T17:05:58.000Z</time>
      </trkpt>
      <trkpt lat="44.83767" lon="0.67996">
        <ele>95</ele>
        <time>2014-03-29T17:06:00.000Z</time>
      </trkpt>
      <trkpt lat="44.83749" lon="0.67991">
        <ele>97</ele>
        <time>2014-03-29T17:06:04.000Z</time>
      </trkpt>
      <trkpt lat="44.83749" lon="0.67991">
        <ele>97</ele>
        <time>2014-03-29T17:06:06.000Z</time>
      </trkpt>
      <trkpt lat="44.83749" lon="0.67991">
        <ele>97</ele>
        <time>2014-03-29T17:06:08.000Z</time>
      </trkpt>
      <trkpt lat="44.83749" lon="0.67991">
        <ele>97</ele>
        <time>2014-03-29T17:06:10.000Z</time>
      </trkpt>
      <trkpt lat="44.83749" lon="0.67991">
        <ele>97</ele>
        <time>2014-03-29T17:06:12.000Z</time>
      </trkpt>
      <trkpt lat="44.83749" lon="0.67991">
        <ele>97</ele>
        <time>2014-03-29T17:06:14.000Z</time>
      </trkpt>
      <trkpt lat="44.83741" lon="0.68029">
        <ele>94</ele>
        <time>2014-03-29T17:06:20.000Z</time>
      </trkpt>
      <trkpt lat="44.83741" lon="0.68029">
        <ele>94</ele>
        <time>2014-03-29T17:06:22.000Z</time>
      </trkpt>
      <trkpt lat="44.83739" lon="0.68046">
        <ele>94</ele>
        <time>2014-03-29T17:06:26.000Z</time>
      </trkpt>
      <trkpt lat="44.83739" lon="0.68046">
        <ele>94</ele>
        <time>2014-03-29T17:06:28.000Z</time>
      </trkpt>
      <trkpt lat="44.83739" lon="0.68046">
        <ele>94</ele>
        <time>2014-03-29T17:06:30.000Z</time>
      </trkpt>
      <trkpt lat="44.83739" lon="0.68046">
        <ele>94</ele>
        <time>2014-03-29T17:06:32.000Z</time>
      </trkpt>
      <trkpt lat="44.83739" lon="0.68046">
        <ele>94</ele>
        <time>2014-03-29T17:06:34.000Z</time>
      </trkpt>
      <trkpt lat="44.83739" lon="0.68046">
        <ele>94</ele>
        <time>2014-03-29T17:06:36.000Z</time>
      </trkpt>
      <trkpt lat="44.83739" lon="0.68046">
        <ele>94</ele>
        <time>2014-03-29T17:06:38.000Z</time>
      </trkpt>
      <trkpt lat="44.83739" lon="0.68046">
        <ele>94</ele>
        <time>2014-03-29T17:06:40.000Z</time>
      </trkpt>
      <trkpt lat="44.83733" lon="0.68077">
        <ele>93</ele>
        <time>2014-03-29T17:06:44.000Z</time>
      </trkpt>
      <trkpt lat="44.8373" lon="0.68093">
        <ele>95</ele>
        <time>2014-03-29T17:06:52.000Z</time>
      </trkpt>
      <trkpt lat="44.8373" lon="0.68093">
        <ele>95</ele>
        <time>2014-03-29T17:06:54.000Z</time>
      </trkpt>
      <trkpt lat="44.83728" lon="0.68107">
        <ele>98</ele>
        <time>2014-03-29T17:06:58.000Z</time>
      </trkpt>
      <trkpt lat="44.83728" lon="0.68107">
        <ele>98</ele>
        <time>2014-03-29T17:07:08.000Z</time>
      </trkpt>
      <trkpt lat="44.83728" lon="0.68107">
        <ele>98</ele>
        <time>2014-03-29T17:07:10.000Z</time>
      </trkpt>
      <trkpt lat="44.83726" lon="0.68123">
        <ele>100</ele>
        <time>2014-03-29T17:07:14.000Z</time>
      </trkpt>
      <trkpt lat="44.83725" lon="0.68133">
        <ele>98</ele>
        <time>2014-03-29T17:07:16.000Z</time>
      </trkpt>
      <trkpt lat="44.83723" lon="0.6814">
        <ele>97</ele>
        <time>2014-03-29T17:07:18.000Z</time>
      </trkpt>
      <trkpt lat="44.83723" lon="0.68147">
        <ele>95</ele>
        <time>2014-03-29T17:07:22.000Z</time>
      </trkpt>
      <trkpt lat="44.83722" lon="0.68154">
        <ele>96</ele>
        <time>2014-03-29T17:07:24.000Z</time>
      </trkpt>
      <trkpt lat="44.8372" lon="0.68163">
        <ele>98</ele>
        <time>2014-03-29T17:07:28.000Z</time>
      </trkpt>
      <trkpt lat="44.83719" lon="0.6817">
        <ele>98</ele>
        <time>2014-03-29T17:07:30.000Z</time>
      </trkpt>
      <trkpt lat="44.83718" lon="0.68178">
        <ele>97</ele>
        <time>2014-03-29T17:07:34.000Z</time>
      </trkpt>
      <trkpt lat="44.83718" lon="0.68185">
        <ele>96</ele>
        <time>2014-03-29T17:07:36.000Z</time>
      </trkpt>
      <trkpt lat="44.83718" lon="0.68185">
        <ele>96</ele>
        <time>2014-03-29T17:07:38.000Z</time>
      </trkpt>
      <trkpt lat="44.83718" lon="0.68185">
        <ele>96</ele>
        <time>2014-03-29T17:07:40.000Z</time>
      </trkpt>
      <trkpt lat="44.83718" lon="0.68185">
        <ele>96</ele>
        <time>2014-03-29T17:07:42.000Z</time>
      </trkpt>
      <trkpt lat="44.83718" lon="0.68185">
        <ele>96</ele>
        <time>2014-03-29T17:07:44.000Z</time>
      </trkpt>
      <trkpt lat="44.83718" lon="0.68185">
        <ele>96</ele>
        <time>2014-03-29T17:07:46.000Z</time>
      </trkpt>
      <trkpt lat="44.83718" lon="0.68185">
        <ele>96</ele>
        <time>2014-03-29T17:07:48.000Z</time>
      </trkpt>
      <trkpt lat="44.83715" lon="0.68208">
        <ele>94</ele>
        <time>2014-03-29T17:07:50.000Z</time>
      </trkpt>
      <trkpt lat="44.83713" lon="0.68222">
        <ele>93</ele>
        <time>2014-03-29T17:07:52.000Z</time>
      </trkpt>
      <trkpt lat="44.83712" lon="0.68232">
        <ele>93</ele>
        <time>2014-03-29T17:07:54.000Z</time>
      </trkpt>
      <trkpt lat="44.8371" lon="0.6824">
        <ele>92</ele>
        <time>2014-03-29T17:07:56.000Z</time>
      </trkpt>
      <trkpt lat="44.8371" lon="0.6824">
        <ele>92</ele>
        <time>2014-03-29T17:07:58.000Z</time>
      </trkpt>
      <trkpt lat="44.83709" lon="0.68252">
        <ele>93</ele>
        <time>2014-03-29T17:08:02.000Z</time>
      </trkpt>
      <trkpt lat="44.83707" lon="0.68262">
        <ele>95</ele>
        <time>2014-03-29T17:08:04.000Z</time>
      </trkpt>
      <trkpt lat="44.83706" lon="0.6827">
        <ele>94</ele>
        <time>2014-03-29T17:08:06.000Z</time>
      </trkpt>
      <trkpt lat="44.83703" lon="0.68276">
        <ele>94</ele>
        <time>2014-03-29T17:08:08.000Z</time>
      </trkpt>
      <trkpt lat="44.83703" lon="0.68276">
        <ele>94</ele>
        <time>2014-03-29T17:08:10.000Z</time>
      </trkpt>
      <trkpt lat="44.83703" lon="0.68276">
        <ele>94</ele>
        <time>2014-03-29T17:08:12.000Z</time>
      </trkpt>
      <trkpt lat="44.83703" lon="0.68276">
        <ele>94</ele>
        <time>2014-03-29T17:08:14.000Z</time>
      </trkpt>
      <trkpt lat="44.83701" lon="0.68295">
        <ele>89</ele>
        <time>2014-03-29T17:08:20.000Z</time>
      </trkpt>
      <trkpt lat="44.83699" lon="0.68307">
        <ele>90</ele>
        <time>2014-03-29T17:08:22.000Z</time>
      </trkpt>
      <trkpt lat="44.83698" lon="0.68316">
        <ele>91</ele>
        <time>2014-03-29T17:08:24.000Z</time>
      </trkpt>
      <trkpt lat="44.83697" lon="0.68323">
        <ele>91</ele>
        <time>2014-03-29T17:08:26.000Z</time>
      </trkpt>
      <trkpt lat="44.83697" lon="0.68323">
        <ele>91</ele>
        <time>2014-03-29T17:08:28.000Z</time>
      </trkpt>
      <trkpt lat="44.83697" lon="0.68323">
        <ele>91</ele>
        <time>2014-03-29T17:08:30.000Z</time>
      </trkpt>
      <trkpt lat="44.83697" lon="0.68323">
        <ele>91</ele>
        <time>2014-03-29T17:08:32.000Z</time>
      </trkpt>
      <trkpt lat="44.83697" lon="0.68323">
        <ele>91</ele>
        <time>2014-03-29T17:08:34.000Z</time>
      </trkpt>
      <trkpt lat="44.83697" lon="0.68323">
        <ele>91</ele>
        <time>2014-03-29T17:08:36.000Z</time>
      </trkpt>
      <trkpt lat="44.83697" lon="0.68323">
        <ele>91</ele>
        <time>2014-03-29T17:08:38.000Z</time>
      </trkpt>
      <trkpt lat="44.83694" lon="0.68347">
        <ele>92</ele>
        <time>2014-03-29T17:08:40.000Z</time>
      </trkpt>
      <trkpt lat="44.83692" lon="0.68362">
        <ele>92</ele>
        <time>2014-03-29T17:08:42.000Z</time>
      </trkpt>
      <trkpt lat="44.8369" lon="0.68372">
        <ele>92</ele>
        <time>2014-03-29T17:08:44.000Z</time>
      </trkpt>
      <trkpt lat="44.83689" lon="0.6838">
        <ele>91</ele>
        <time>2014-03-29T17:08:46.000Z</time>
      </trkpt>
      <trkpt lat="44.83688" lon="0.68387">
        <ele>92</ele>
        <time>2014-03-29T17:08:48.000Z</time>
      </trkpt>
      <trkpt lat="44.83685" lon="0.68399">
        <ele>93</ele>
        <time>2014-03-29T17:08:50.000Z</time>
      </trkpt>
      <trkpt lat="44.83685" lon="0.68399">
        <ele>93</ele>
        <time>2014-03-29T17:08:52.000Z</time>
      </trkpt>
      <trkpt lat="44.83685" lon="0.68399">
        <ele>93</ele>
        <time>2014-03-29T17:08:54.000Z</time>
      </trkpt>
      <trkpt lat="44.83685" lon="0.68399">
        <ele>93</ele>
        <time>2014-03-29T17:08:56.000Z</time>
      </trkpt>
      <trkpt lat="44.83685" lon="0.68399">
        <ele>93</ele>
        <time>2014-03-29T17:08:58.000Z</time>
      </trkpt>
      <trkpt lat="44.83685" lon="0.68399">
        <ele>93</ele>
        <time>2014-03-29T17:09:00.000Z</time>
      </trkpt>
      <trkpt lat="44.83685" lon="0.68399">
        <ele>93</ele>
        <time>2014-03-29T17:09:02.000Z</time>
      </trkpt>
      <trkpt lat="44.83685" lon="0.68399">
        <ele>93</ele>
        <time>2014-03-29T17:09:04.000Z</time>
      </trkpt>
      <trkpt lat="44.83685" lon="0.68399">
        <ele>93</ele>
        <time>2014-03-29T17:09:06.000Z</time>
      </trkpt>
      <trkpt lat="44.83677" lon="0.68452">
        <ele>94</ele>
        <time>2014-03-29T17:09:08.000Z</time>
      </trkpt>
      <trkpt lat="44.83674" lon="0.68466">
        <ele>94</ele>
        <time>2014-03-29T17:09:12.000Z</time>
      </trkpt>
      <trkpt lat="44.83674" lon="0.68466">
        <ele>94</ele>
        <time>2014-03-29T17:09:16.000Z</time>
      </trkpt>
      <trkpt lat="44.83674" lon="0.68466">
        <ele>94</ele>
        <time>2014-03-29T17:09:18.000Z</time>
      </trkpt>
      <trkpt lat="44.83674" lon="0.68466">
        <ele>94</ele>
        <time>2014-03-29T17:09:20.000Z</time>
      </trkpt>
      <trkpt lat="44.83674" lon="0.68466">
        <ele>94</ele>
        <time>2014-03-29T17:09:30.000Z</time>
      </trkpt>
      <trkpt lat="44.83665" lon="0.6852">
        <ele>92</ele>
        <time>2014-03-29T17:09:32.000Z</time>
      </trkpt>
      <trkpt lat="44.83665" lon="0.68536">
        <ele>93</ele>
        <time>2014-03-29T17:09:38.000Z</time>
      </trkpt>
      <trkpt lat="44.83665" lon="0.68536">
        <ele>93</ele>
        <time>2014-03-29T17:09:40.000Z</time>
      </trkpt>
      <trkpt lat="44.83665" lon="0.68536">
        <ele>93</ele>
        <time>2014-03-29T17:09:42.000Z</time>
      </trkpt>
      <trkpt lat="44.83662" lon="0.68554">
        <ele>96</ele>
        <time>2014-03-29T17:09:44.000Z</time>
      </trkpt>
      <trkpt lat="44.83659" lon="0.68569">
        <ele>95</ele>
        <time>2014-03-29T17:09:50.000Z</time>
      </trkpt>
      <trkpt lat="44.83659" lon="0.68569">
        <ele>95</ele>
        <time>2014-03-29T17:09:52.000Z</time>
      </trkpt>
      <trkpt lat="44.83659" lon="0.68569">
        <ele>95</ele>
        <time>2014-03-29T17:09:54.000Z</time>
      </trkpt>
      <trkpt lat="44.83659" lon="0.68569">
        <ele>95</ele>
        <time>2014-03-29T17:09:56.000Z</time>
      </trkpt>
      <trkpt lat="44.83659" lon="0.68569">
        <ele>95</ele>
        <time>2014-03-29T17:09:58.000Z</time>
      </trkpt>
      <trkpt lat="44.83659" lon="0.68569">
        <ele>95</ele>
        <time>2014-03-29T17:10:00.000Z</time>
      </trkpt>
      <trkpt lat="44.83659" lon="0.68569">
        <ele>95</ele>
        <time>2014-03-29T17:10:02.000Z</time>
      </trkpt>
      <trkpt lat="44.83659" lon="0.68569">
        <ele>95</ele>
        <time>2014-03-29T17:10:04.000Z</time>
      </trkpt>
      <trkpt lat="44.83659" lon="0.68569">
        <ele>95</ele>
        <time>2014-03-29T17:10:06.000Z</time>
      </trkpt>
      <trkpt lat="44.83655" lon="0.68591">
        <ele>93</ele>
        <time>2014-03-29T17:10:10.000Z</time>
      </trkpt>
      <trkpt lat="44.83652" lon="0.68605">
        <ele>93</ele>
        <time>2014-03-29T17:10:12.000Z</time>
      </trkpt>
      <trkpt lat="44.83651" lon="0.68616">
        <ele>93</ele>
        <time>2014-03-29T17:10:14.000Z</time>
      </trkpt>
      <trkpt lat="44.83649" lon="0.68625">
        <ele>93</ele>
        <time>2014-03-29T17:10:16.000Z</time>
      </trkpt>
      <trkpt lat="44.83648" lon="0.68632">
        <ele>93</ele>
        <time>2014-03-29T17:10:18.000Z</time>
      </trkpt>
      <trkpt lat="44.83648" lon="0.68632">
        <ele>93</ele>
        <time>2014-03-29T17:10:20.000Z</time>
      </trkpt>
      <trkpt lat="44.83648" lon="0.68632">
        <ele>93</ele>
        <time>2014-03-29T17:10:22.000Z</time>
      </trkpt>
      <trkpt lat="44.83648" lon="0.68632">
        <ele>93</ele>
        <time>2014-03-29T17:10:24.000Z</time>
      </trkpt>
      <trkpt lat="44.83648" lon="0.68632">
        <ele>93</ele>
        <time>2014-03-29T17:10:26.000Z</time>
      </trkpt>
      <trkpt lat="44.83642" lon="0.6867">
        <ele>96</ele>
        <time>2014-03-29T17:10:30.000Z</time>
      </trkpt>
      <trkpt lat="44.8364" lon="0.68686">
        <ele>95</ele>
        <time>2014-03-29T17:10:36.000Z</time>
      </trkpt>
      <trkpt lat="44.8364" lon="0.68686">
        <ele>95</ele>
        <time>2014-03-29T17:10:38.000Z</time>
      </trkpt>
      <trkpt lat="44.8364" lon="0.68686">
        <ele>95</ele>
        <time>2014-03-29T17:10:40.000Z</time>
      </trkpt>
      <trkpt lat="44.8364" lon="0.68686">
        <ele>95</ele>
        <time>2014-03-29T17:10:42.000Z</time>
      </trkpt>
      <trkpt lat="44.8364" lon="0.68686">
        <ele>95</ele>
        <time>2014-03-29T17:10:44.000Z</time>
      </trkpt>
      <trkpt lat="44.8364" lon="0.68686">
        <ele>95</ele>
        <time>2014-03-29T17:10:46.000Z</time>
      </trkpt>
      <trkpt lat="44.83635" lon="0.68718">
        <ele>92</ele>
        <time>2014-03-29T17:10:48.000Z</time>
      </trkpt>
      <trkpt lat="44.83632" lon="0.68732">
        <ele>92</ele>
        <time>2014-03-29T17:10:54.000Z</time>
      </trkpt>
      <trkpt lat="44.83632" lon="0.68732">
        <ele>92</ele>
        <time>2014-03-29T17:10:56.000Z</time>
      </trkpt>
      <trkpt lat="44.83628" lon="0.68756">
        <ele>95</ele>
        <time>2014-03-29T17:11:02.000Z</time>
      </trkpt>
      <trkpt lat="44.83625" lon="0.68772">
        <ele>94</ele>
        <time>2014-03-29T17:11:08.000Z</time>
      </trkpt>
      <trkpt lat="44.83625" lon="0.68772">
        <ele>94</ele>
        <time>2014-03-29T17:11:10.000Z</time>
      </trkpt>
      <trkpt lat="44.83622" lon="0.6879">
        <ele>92</ele>
        <time>2014-03-29T17:11:14.000Z</time>
      </trkpt>
      <trkpt lat="44.83622" lon="0.6879">
        <ele>92</ele>
        <time>2014-03-29T17:11:16.000Z</time>
      </trkpt>
      <trkpt lat="44.83622" lon="0.6879">
        <ele>92</ele>
        <time>2014-03-29T17:11:18.000Z</time>
      </trkpt>
      <trkpt lat="44.83619" lon="0.68814">
        <ele>92</ele>
        <time>2014-03-29T17:11:22.000Z</time>
      </trkpt>
      <trkpt lat="44.83619" lon="0.68833">
        <ele>91</ele>
        <time>2014-03-29T17:11:28.000Z</time>
      </trkpt>
      <trkpt lat="44.83619" lon="0.68833">
        <ele>91</ele>
        <time>2014-03-29T17:11:30.000Z</time>
      </trkpt>
      <trkpt lat="44.83619" lon="0.68833">
        <ele>91</ele>
        <time>2014-03-29T17:11:32.000Z</time>
      </trkpt>
      <trkpt lat="44.83615" lon="0.68858">
        <ele>92</ele>
        <time>2014-03-29T17:11:36.000Z</time>
      </trkpt>
      <trkpt lat="44.83614" lon="0.68866">
        <ele>93</ele>
        <time>2014-03-29T17:11:42.000Z</time>
      </trkpt>
      <trkpt lat="44.83612" lon="0.68873">
        <ele>92</ele>
        <time>2014-03-29T17:11:44.000Z</time>
      </trkpt>
      <trkpt lat="44.83612" lon="0.68873">
        <ele>92</ele>
        <time>2014-03-29T17:11:46.000Z</time>
      </trkpt>
      <trkpt lat="44.83612" lon="0.68873">
        <ele>92</ele>
        <time>2014-03-29T17:11:48.000Z</time>
      </trkpt>
      <trkpt lat="44.83612" lon="0.68873">
        <ele>92</ele>
        <time>2014-03-29T17:11:50.000Z</time>
      </trkpt>
      <trkpt lat="44.83612" lon="0.68873">
        <ele>92</ele>
        <time>2014-03-29T17:11:52.000Z</time>
      </trkpt>
      <trkpt lat="44.83612" lon="0.68873">
        <ele>92</ele>
        <time>2014-03-29T17:11:54.000Z</time>
      </trkpt>
      <trkpt lat="44.83608" lon="0.68896">
        <ele>92</ele>
        <time>2014-03-29T17:11:58.000Z</time>
      </trkpt>
      <trkpt lat="44.83605" lon="0.6891">
        <ele>92</ele>
        <time>2014-03-29T17:12:00.000Z</time>
      </trkpt>
      <trkpt lat="44.83604" lon="0.68921">
        <ele>90</ele>
        <time>2014-03-29T17:12:02.000Z</time>
      </trkpt>
      <trkpt lat="44.83604" lon="0.68921">
        <ele>90</ele>
        <time>2014-03-29T17:12:04.000Z</time>
      </trkpt>
      <trkpt lat="44.83604" lon="0.68921">
        <ele>90</ele>
        <time>2014-03-29T17:12:06.000Z</time>
      </trkpt>
      <trkpt lat="44.83601" lon="0.68937">
        <ele>92</ele>
        <time>2014-03-29T17:12:10.000Z</time>
      </trkpt>
      <trkpt lat="44.83599" lon="0.68948">
        <ele>92</ele>
        <time>2014-03-29T17:12:12.000Z</time>
      </trkpt>
      <trkpt lat="44.83597" lon="0.68956">
        <ele>93</ele>
        <time>2014-03-29T17:12:14.000Z</time>
      </trkpt>
      <trkpt lat="44.83597" lon="0.68956">
        <ele>93</ele>
        <time>2014-03-29T17:12:16.000Z</time>
      </trkpt>
      <trkpt lat="44.83597" lon="0.68956">
        <ele>93</ele>
        <time>2014-03-29T17:12:18.000Z</time>
      </trkpt>
      <trkpt lat="44.83597" lon="0.68956">
        <ele>93</ele>
        <time>2014-03-29T17:12:20.000Z</time>
      </trkpt>
      <trkpt lat="44.83597" lon="0.68956">
        <ele>93</ele>
        <time>2014-03-29T17:12:22.000Z</time>
      </trkpt>
      <trkpt lat="44.83597" lon="0.68956">
        <ele>93</ele>
        <time>2014-03-29T17:12:24.000Z</time>
      </trkpt>
      <trkpt lat="44.83597" lon="0.68956">
        <ele>93</ele>
        <time>2014-03-29T17:12:26.000Z</time>
      </trkpt>
      <trkpt lat="44.83597" lon="0.68956">
        <ele>93</ele>
        <time>2014-03-29T17:12:28.000Z</time>
      </trkpt>
      <trkpt lat="44.83597" lon="0.68956">
        <ele>93</ele>
        <time>2014-03-29T17:12:30.000Z</time>
      </trkpt>
      <trkpt lat="44.83597" lon="0.68956">
        <ele>93</ele>
        <time>2014-03-29T17:12:32.000Z</time>
      </trkpt>
      <trkpt lat="44.83597" lon="0.68956">
        <ele>93</ele>
        <time>2014-03-29T17:12:34.000Z</time>
      </trkpt>
      <trkpt lat="44.83593" lon="0.68991">
        <ele>93</ele>
        <time>2014-03-29T17:12:36.000Z</time>
      </trkpt>
      <trkpt lat="44.83591" lon="0.69012">
        <ele>92</ele>
        <time>2014-03-29T17:12:38.000Z</time>
      </trkpt>
      <trkpt lat="44.8359" lon="0.69026">
        <ele>94</ele>
        <time>2014-03-29T17:12:40.000Z</time>
      </trkpt>
      <trkpt lat="44.83588" lon="0.69036">
        <ele>93</ele>
        <time>2014-03-29T17:12:42.000Z</time>
      </trkpt>
      <trkpt lat="44.83588" lon="0.69036">
        <ele>93</ele>
        <time>2014-03-29T17:12:44.000Z</time>
      </trkpt>
      <trkpt lat="44.83588" lon="0.69036">
        <ele>93</ele>
        <time>2014-03-29T17:12:46.000Z</time>
      </trkpt>
      <trkpt lat="44.83588" lon="0.69036">
        <ele>93</ele>
        <time>2014-03-29T17:12:48.000Z</time>
      </trkpt>
      <trkpt lat="44.83586" lon="0.69057">
        <ele>89</ele>
        <time>2014-03-29T17:12:52.000Z</time>
      </trkpt>
      <trkpt lat="44.83583" lon="0.6907">
        <ele>89</ele>
        <time>2014-03-29T17:12:54.000Z</time>
      </trkpt>
      <trkpt lat="44.83582" lon="0.69079">
        <ele>90</ele>
        <time>2014-03-29T17:12:56.000Z</time>
      </trkpt>
      <trkpt lat="44.8358" lon="0.69087">
        <ele>88</ele>
        <time>2014-03-29T17:12:58.000Z</time>
      </trkpt>
      <trkpt lat="44.83579" lon="0.69094">
        <ele>88</ele>
        <time>2014-03-29T17:13:00.000Z</time>
      </trkpt>
      <trkpt lat="44.83576" lon="0.69106">
        <ele>86</ele>
        <time>2014-03-29T17:13:02.000Z</time>
      </trkpt>
      <trkpt lat="44.83576" lon="0.69106">
        <ele>86</ele>
        <time>2014-03-29T17:13:04.000Z</time>
      </trkpt>
      <trkpt lat="44.83576" lon="0.69106">
        <ele>86</ele>
        <time>2014-03-29T17:13:06.000Z</time>
      </trkpt>
      <trkpt lat="44.83576" lon="0.69106">
        <ele>86</ele>
        <time>2014-03-29T17:13:08.000Z</time>
      </trkpt>
      <trkpt lat="44.83576" lon="0.69106">
        <ele>86</ele>
        <time>2014-03-29T17:13:10.000Z</time>
      </trkpt>
      <trkpt lat="44.8357" lon="0.6914">
        <ele>87</ele>
        <time>2014-03-29T17:13:14.000Z</time>
      </trkpt>
      <trkpt lat="44.8357" lon="0.69157">
        <ele>90</ele>
        <time>2014-03-29T17:13:20.000Z</time>
      </trkpt>
      <trkpt lat="44.8357" lon="0.69157">
        <ele>90</ele>
        <time>2014-03-29T17:13:22.000Z</time>
      </trkpt>
      <trkpt lat="44.8357" lon="0.69157">
        <ele>90</ele>
        <time>2014-03-29T17:13:24.000Z</time>
      </trkpt>
      <trkpt lat="44.8357" lon="0.69157">
        <ele>90</ele>
        <time>2014-03-29T17:13:26.000Z</time>
      </trkpt>
      <trkpt lat="44.8357" lon="0.69157">
        <ele>90</ele>
        <time>2014-03-29T17:13:32.000Z</time>
      </trkpt>
      <trkpt lat="44.8357" lon="0.69157">
        <ele>90</ele>
        <time>2014-03-29T17:13:34.000Z</time>
      </trkpt>
      <trkpt lat="44.83562" lon="0.69205">
        <ele>90</ele>
        <time>2014-03-29T17:13:38.000Z</time>
      </trkpt>
      <trkpt lat="44.83559" lon="0.69222">
        <ele>90</ele>
        <time>2014-03-29T17:13:44.000Z</time>
      </trkpt>
      <trkpt lat="44.83555" lon="0.69239">
        <ele>92</ele>
        <time>2014-03-29T17:13:50.000Z</time>
      </trkpt>
      <trkpt lat="44.83553" lon="0.69252">
        <ele>93</ele>
        <time>2014-03-29T17:13:54.000Z</time>
      </trkpt>
      <trkpt lat="44.83553" lon="0.69252">
        <ele>93</ele>
        <time>2014-03-29T17:13:58.000Z</time>
      </trkpt>
      <trkpt lat="44.83553" lon="0.69252">
        <ele>93</ele>
        <time>2014-03-29T17:14:00.000Z</time>
      </trkpt>
      <trkpt lat="44.83553" lon="0.69252">
        <ele>93</ele>
        <time>2014-03-29T17:14:02.000Z</time>
      </trkpt>
      <trkpt lat="44.83553" lon="0.69252">
        <ele>93</ele>
        <time>2014-03-29T17:14:04.000Z</time>
      </trkpt>
      <trkpt lat="44.83553" lon="0.69252">
        <ele>93</ele>
        <time>2014-03-29T17:14:06.000Z</time>
      </trkpt>
      <trkpt lat="44.83553" lon="0.69252">
        <ele>93</ele>
        <time>2014-03-29T17:14:08.000Z</time>
      </trkpt>
      <trkpt lat="44.83553" lon="0.69252">
        <ele>93</ele>
        <time>2014-03-29T17:14:10.000Z</time>
      </trkpt>
      <trkpt lat="44.83553" lon="0.69252">
        <ele>93</ele>
        <time>2014-03-29T17:14:12.000Z</time>
      </trkpt>
      <trkpt lat="44.83549" lon="0.69274">
        <ele>93</ele>
        <time>2014-03-29T17:14:16.000Z</time>
      </trkpt>
      <trkpt lat="44.83547" lon="0.69286">
        <ele>94</ele>
        <time>2014-03-29T17:14:18.000Z</time>
      </trkpt>
      <trkpt lat="44.83546" lon="0.69295">
        <ele>93</ele>
        <time>2014-03-29T17:14:20.000Z</time>
      </trkpt>
      <trkpt lat="44.83546" lon="0.69295">
        <ele>93</ele>
        <time>2014-03-29T17:14:22.000Z</time>
      </trkpt>
      <trkpt lat="44.83546" lon="0.69295">
        <ele>93</ele>
        <time>2014-03-29T17:14:24.000Z</time>
      </trkpt>
      <trkpt lat="44.83546" lon="0.69295">
        <ele>93</ele>
        <time>2014-03-29T17:14:26.000Z</time>
      </trkpt>
      <trkpt lat="44.83546" lon="0.69295">
        <ele>93</ele>
        <time>2014-03-29T17:14:30.000Z</time>
      </trkpt>
      <trkpt lat="44.83542" lon="0.69312">
        <ele>92</ele>
        <time>2014-03-29T17:14:32.000Z</time>
      </trkpt>
      <trkpt lat="44.8354" lon="0.69324">
        <ele>92</ele>
        <time>2014-03-29T17:14:34.000Z</time>
      </trkpt>
      <trkpt lat="44.83538" lon="0.69333">
        <ele>92</ele>
        <time>2014-03-29T17:14:36.000Z</time>
      </trkpt>
      <trkpt lat="44.83537" lon="0.6934">
        <ele>91</ele>
        <time>2014-03-29T17:14:38.000Z</time>
      </trkpt>
      <trkpt lat="44.83537" lon="0.69347">
        <ele>91</ele>
        <time>2014-03-29T17:14:40.000Z</time>
      </trkpt>
      <trkpt lat="44.83535" lon="0.69361">
        <ele>92</ele>
        <time>2014-03-29T17:14:42.000Z</time>
      </trkpt>
      <trkpt lat="44.83532" lon="0.69377">
        <ele>91</ele>
        <time>2014-03-29T17:14:48.000Z</time>
      </trkpt>
      <trkpt lat="44.83532" lon="0.69377">
        <ele>91</ele>
        <time>2014-03-29T17:14:52.000Z</time>
      </trkpt>
      <trkpt lat="44.83532" lon="0.69377">
        <ele>91</ele>
        <time>2014-03-29T17:14:54.000Z</time>
      </trkpt>
      <trkpt lat="44.83532" lon="0.69377">
        <ele>91</ele>
        <time>2014-03-29T17:14:56.000Z</time>
      </trkpt>
      <trkpt lat="44.83526" lon="0.69421">
        <ele>92</ele>
        <time>2014-03-29T17:15:04.000Z</time>
      </trkpt>
      <trkpt lat="44.83526" lon="0.69421">
        <ele>92</ele>
        <time>2014-03-29T17:15:06.000Z</time>
      </trkpt>
      <trkpt lat="44.83526" lon="0.69421">
        <ele>92</ele>
        <time>2014-03-29T17:15:08.000Z</time>
      </trkpt>
      <trkpt lat="44.83523" lon="0.69438">
        <ele>91</ele>
        <time>2014-03-29T17:15:10.000Z</time>
      </trkpt>
      <trkpt lat="44.83523" lon="0.69438">
        <ele>91</ele>
        <time>2014-03-29T17:15:16.000Z</time>
      </trkpt>
      <trkpt lat="44.83523" lon="0.69438">
        <ele>91</ele>
        <time>2014-03-29T17:15:18.000Z</time>
      </trkpt>
      <trkpt lat="44.83519" lon="0.69467">
        <ele>92</ele>
        <time>2014-03-29T17:15:20.000Z</time>
      </trkpt>
      <trkpt lat="44.83517" lon="0.69482">
        <ele>91</ele>
        <time>2014-03-29T17:15:26.000Z</time>
      </trkpt>
      <trkpt lat="44.83517" lon="0.69482">
        <ele>91</ele>
        <time>2014-03-29T17:15:28.000Z</time>
      </trkpt>
      <trkpt lat="44.83515" lon="0.69505">
        <ele>91</ele>
        <time>2014-03-29T17:15:34.000Z</time>
      </trkpt>
      <trkpt lat="44.83515" lon="0.69505">
        <ele>91</ele>
        <time>2014-03-29T17:15:36.000Z</time>
      </trkpt>
      <trkpt lat="44.83513" lon="0.69519">
        <ele>93</ele>
        <time>2014-03-29T17:15:38.000Z</time>
      </trkpt>
      <trkpt lat="44.83513" lon="0.69519">
        <ele>93</ele>
        <time>2014-03-29T17:15:40.000Z</time>
      </trkpt>
      <trkpt lat="44.83513" lon="0.69519">
        <ele>93</ele>
        <time>2014-03-29T17:15:44.000Z</time>
      </trkpt>
      <trkpt lat="44.83513" lon="0.69519">
        <ele>93</ele>
        <time>2014-03-29T17:15:48.000Z</time>
      </trkpt>
      <trkpt lat="44.83513" lon="0.69519">
        <ele>93</ele>
        <time>2014-03-29T17:15:50.000Z</time>
      </trkpt>
      <trkpt lat="44.83506" lon="0.69562">
        <ele>94</ele>
        <time>2014-03-29T17:15:54.000Z</time>
      </trkpt>
      <trkpt lat="44.83506" lon="0.69562">
        <ele>94</ele>
        <time>2014-03-29T17:15:58.000Z</time>
      </trkpt>
      <trkpt lat="44.83506" lon="0.69562">
        <ele>94</ele>
        <time>2014-03-29T17:16:00.000Z</time>
      </trkpt>
      <trkpt lat="44.83506" lon="0.69562">
        <ele>94</ele>
        <time>2014-03-29T17:16:02.000Z</time>
      </trkpt>
      <trkpt lat="44.83503" lon="0.6958">
        <ele>91</ele>
        <time>2014-03-29T17:16:08.000Z</time>
      </trkpt>
      <trkpt lat="44.83501" lon="0.69593">
        <ele>92</ele>
        <time>2014-03-29T17:16:10.000Z</time>
      </trkpt>
      <trkpt lat="44.83499" lon="0.69602">
        <ele>92</ele>
        <time>2014-03-29T17:16:12.000Z</time>
      </trkpt>
      <trkpt lat="44.83499" lon="0.69602">
        <ele>92</ele>
        <time>2014-03-29T17:16:14.000Z</time>
      </trkpt>
      <trkpt lat="44.83499" lon="0.69602">
        <ele>92</ele>
        <time>2014-03-29T17:16:16.000Z</time>
      </trkpt>
      <trkpt lat="44.83496" lon="0.69618">
        <ele>91</ele>
        <time>2014-03-29T17:16:22.000Z</time>
      </trkpt>
      <trkpt lat="44.83495" lon="0.69629">
        <ele>91</ele>
        <time>2014-03-29T17:16:24.000Z</time>
      </trkpt>
      <trkpt lat="44.83494" lon="0.69637">
        <ele>92</ele>
        <time>2014-03-29T17:16:26.000Z</time>
      </trkpt>
      <trkpt lat="44.83494" lon="0.69637">
        <ele>92</ele>
        <time>2014-03-29T17:16:28.000Z</time>
      </trkpt>
      <trkpt lat="44.83494" lon="0.69637">
        <ele>92</ele>
        <time>2014-03-29T17:16:30.000Z</time>
      </trkpt>
      <trkpt lat="44.83492" lon="0.69652">
        <ele>92</ele>
        <time>2014-03-29T17:16:34.000Z</time>
      </trkpt>
      <trkpt lat="44.8349" lon="0.69663">
        <ele>91</ele>
        <time>2014-03-29T17:16:36.000Z</time>
      </trkpt>
      <trkpt lat="44.83489" lon="0.69671">
        <ele>91</ele>
        <time>2014-03-29T17:16:38.000Z</time>
      </trkpt>
      <trkpt lat="44.83488" lon="0.69678">
        <ele>90</ele>
        <time>2014-03-29T17:16:40.000Z</time>
      </trkpt>
      <trkpt lat="44.83488" lon="0.69678">
        <ele>90</ele>
        <time>2014-03-29T17:16:42.000Z</time>
      </trkpt>
      <trkpt lat="44.83488" lon="0.69678">
        <ele>90</ele>
        <time>2014-03-29T17:16:44.000Z</time>
      </trkpt>
      <trkpt lat="44.83488" lon="0.69678">
        <ele>90</ele>
        <time>2014-03-29T17:16:46.000Z</time>
      </trkpt>
      <trkpt lat="44.83485" lon="0.69696">
        <ele>92</ele>
        <time>2014-03-29T17:16:50.000Z</time>
      </trkpt>
      <trkpt lat="44.83482" lon="0.69708">
        <ele>92</ele>
        <time>2014-03-29T17:16:52.000Z</time>
      </trkpt>
      <trkpt lat="44.83481" lon="0.69716">
        <ele>92</ele>
        <time>2014-03-29T17:16:54.000Z</time>
      </trkpt>
      <trkpt lat="44.83481" lon="0.69716">
        <ele>92</ele>
        <time>2014-03-29T17:16:56.000Z</time>
      </trkpt>
      <trkpt lat="44.83481" lon="0.69716">
        <ele>92</ele>
        <time>2014-03-29T17:16:58.000Z</time>
      </trkpt>
      <trkpt lat="44.83481" lon="0.69716">
        <ele>92</ele>
        <time>2014-03-29T17:17:00.000Z</time>
      </trkpt>
      <trkpt lat="44.83478" lon="0.69734">
        <ele>92</ele>
        <time>2014-03-29T17:17:04.000Z</time>
      </trkpt>
      <trkpt lat="44.83476" lon="0.69745">
        <ele>92</ele>
        <time>2014-03-29T17:17:06.000Z</time>
      </trkpt>
      <trkpt lat="44.83475" lon="0.69753">
        <ele>92</ele>
        <time>2014-03-29T17:17:08.000Z</time>
      </trkpt>
      <trkpt lat="44.83474" lon="0.6976">
        <ele>92</ele>
        <time>2014-03-29T17:17:10.000Z</time>
      </trkpt>
      <trkpt lat="44.83474" lon="0.6976">
        <ele>92</ele>
        <time>2014-03-29T17:17:12.000Z</time>
      </trkpt>
      <trkpt lat="44.83474" lon="0.6976">
        <ele>92</ele>
        <time>2014-03-29T17:17:14.000Z</time>
      </trkpt>
      <trkpt lat="44.83472" lon="0.69776">
        <ele>92</ele>
        <time>2014-03-29T17:17:18.000Z</time>
      </trkpt>
      <trkpt lat="44.83471" lon="0.69787">
        <ele>93</ele>
        <time>2014-03-29T17:17:20.000Z</time>
      </trkpt>
      <trkpt lat="44.8347" lon="0.69795">
        <ele>93</ele>
        <time>2014-03-29T17:17:22.000Z</time>
      </trkpt>
      <trkpt lat="44.83469" lon="0.69802">
        <ele>93</ele>
        <time>2014-03-29T17:17:24.000Z</time>
      </trkpt>
      <trkpt lat="44.83469" lon="0.69802">
        <ele>93</ele>
        <time>2014-03-29T17:17:26.000Z</time>
      </trkpt>
      <trkpt lat="44.83467" lon="0.6981">
        <ele>93</ele>
        <time>2014-03-29T17:17:28.000Z</time>
      </trkpt>
      <trkpt lat="44.83467" lon="0.6981">
        <ele>93</ele>
        <time>2014-03-29T17:17:30.000Z</time>
      </trkpt>
      <trkpt lat="44.83467" lon="0.6981">
        <ele>93</ele>
        <time>2014-03-29T17:17:32.000Z</time>
      </trkpt>
      <trkpt lat="44.83467" lon="0.6981">
        <ele>93</ele>
        <time>2014-03-29T17:17:34.000Z</time>
      </trkpt>
      <trkpt lat="44.83464" lon="0.69831">
        <ele>94</ele>
        <time>2014-03-29T17:17:40.000Z</time>
      </trkpt>
      <trkpt lat="44.83464" lon="0.69831">
        <ele>94</ele>
        <time>2014-03-29T17:17:42.000Z</time>
      </trkpt>
      <trkpt lat="44.83464" lon="0.69831">
        <ele>94</ele>
        <time>2014-03-29T17:17:44.000Z</time>
      </trkpt>
      <trkpt lat="44.83464" lon="0.69831">
        <ele>94</ele>
        <time>2014-03-29T17:17:46.000Z</time>
      </trkpt>
      <trkpt lat="44.83464" lon="0.69831">
        <ele>94</ele>
        <time>2014-03-29T17:17:48.000Z</time>
      </trkpt>
      <trkpt lat="44.83464" lon="0.69831">
        <ele>94</ele>
        <time>2014-03-29T17:17:50.000Z</time>
      </trkpt>
      <trkpt lat="44.83458" lon="0.69861">
        <ele>92</ele>
        <time>2014-03-29T17:17:54.000Z</time>
      </trkpt>
      <trkpt lat="44.83455" lon="0.69879">
        <ele>92</ele>
        <time>2014-03-29T17:17:56.000Z</time>
      </trkpt>
      <trkpt lat="44.83454" lon="0.6989">
        <ele>91</ele>
        <time>2014-03-29T17:17:58.000Z</time>
      </trkpt>
      <trkpt lat="44.83453" lon="0.69898">
        <ele>93</ele>
        <time>2014-03-29T17:18:00.000Z</time>
      </trkpt>
      <trkpt lat="44.83453" lon="0.69898">
        <ele>93</ele>
        <time>2014-03-29T17:18:02.000Z</time>
      </trkpt>
      <trkpt lat="44.83453" lon="0.69898">
        <ele>93</ele>
        <time>2014-03-29T17:18:10.000Z</time>
      </trkpt>
      <trkpt lat="44.83453" lon="0.69898">
        <ele>93</ele>
        <time>2014-03-29T17:18:12.000Z</time>
      </trkpt>
      <trkpt lat="44.83453" lon="0.69898">
        <ele>93</ele>
        <time>2014-03-29T17:18:14.000Z</time>
      </trkpt>
      <trkpt lat="44.83453" lon="0.69898">
        <ele>93</ele>
        <time>2014-03-29T17:18:16.000Z</time>
      </trkpt>
      <trkpt lat="44.83448" lon="0.69928">
        <ele>95</ele>
        <time>2014-03-29T17:18:20.000Z</time>
      </trkpt>
      <trkpt lat="44.83446" lon="0.69946">
        <ele>97</ele>
        <time>2014-03-29T17:18:22.000Z</time>
      </trkpt>
      <trkpt lat="44.83445" lon="0.69958">
        <ele>95</ele>
        <time>2014-03-29T17:18:24.000Z</time>
      </trkpt>
      <trkpt lat="44.83443" lon="0.69967">
        <ele>96</ele>
        <time>2014-03-29T17:18:26.000Z</time>
      </trkpt>
      <trkpt lat="44.83442" lon="0.69975">
        <ele>95</ele>
        <time>2014-03-29T17:18:28.000Z</time>
      </trkpt>
      <trkpt lat="44.83442" lon="0.69975">
        <ele>95</ele>
        <time>2014-03-29T17:18:30.000Z</time>
      </trkpt>
      <trkpt lat="44.83442" lon="0.69975">
        <ele>95</ele>
        <time>2014-03-29T17:18:32.000Z</time>
      </trkpt>
      <trkpt lat="44.83436" lon="0.70005">
        <ele>96</ele>
        <time>2014-03-29T17:18:36.000Z</time>
      </trkpt>
      <trkpt lat="44.83434" lon="0.70022">
        <ele>98</ele>
        <time>2014-03-29T17:18:42.000Z</time>
      </trkpt>
      <trkpt lat="44.83434" lon="0.70022">
        <ele>98</ele>
        <time>2014-03-29T17:18:44.000Z</time>
      </trkpt>
      <trkpt lat="44.83434" lon="0.70022">
        <ele>98</ele>
        <time>2014-03-29T17:18:46.000Z</time>
      </trkpt>
      <trkpt lat="44.83431" lon="0.70036">
        <ele>97</ele>
        <time>2014-03-29T17:18:48.000Z</time>
      </trkpt>
      <trkpt lat="44.83431" lon="0.70036">
        <ele>97</ele>
        <time>2014-03-29T17:18:52.000Z</time>
      </trkpt>
      <trkpt lat="44.83431" lon="0.70036">
        <ele>97</ele>
        <time>2014-03-29T17:18:54.000Z</time>
      </trkpt>
      <trkpt lat="44.83431" lon="0.70036">
        <ele>97</ele>
        <time>2014-03-29T17:18:56.000Z</time>
      </trkpt>
      <trkpt lat="44.83431" lon="0.70036">
        <ele>97</ele>
        <time>2014-03-29T17:19:02.000Z</time>
      </trkpt>
      <trkpt lat="44.83431" lon="0.70036">
        <ele>97</ele>
        <time>2014-03-29T17:19:04.000Z</time>
      </trkpt>
      <trkpt lat="44.83431" lon="0.70036">
        <ele>97</ele>
        <time>2014-03-29T17:19:06.000Z</time>
      </trkpt>
      <trkpt lat="44.83431" lon="0.70036">
        <ele>97</ele>
        <time>2014-03-29T17:19:08.000Z</time>
      </trkpt>
      <trkpt lat="44.83424" lon="0.70096">
        <ele>94</ele>
        <time>2014-03-29T17:19:12.000Z</time>
      </trkpt>
      <trkpt lat="44.83421" lon="0.70108">
        <ele>93</ele>
        <time>2014-03-29T17:19:16.000Z</time>
      </trkpt>
      <trkpt lat="44.83417" lon="0.70121">
        <ele>94</ele>
        <time>2014-03-29T17:19:20.000Z</time>
      </trkpt>
      <trkpt lat="44.83417" lon="0.70121">
        <ele>94</ele>
        <time>2014-03-29T17:19:22.000Z</time>
      </trkpt>
      <trkpt lat="44.83417" lon="0.70121">
        <ele>94</ele>
        <time>2014-03-29T17:19:24.000Z</time>
      </trkpt>
      <trkpt lat="44.83417" lon="0.70121">
        <ele>94</ele>
        <time>2014-03-29T17:19:26.000Z</time>
      </trkpt>
      <trkpt lat="44.83417" lon="0.70121">
        <ele>94</ele>
        <time>2014-03-29T17:19:28.000Z</time>
      </trkpt>
      <trkpt lat="44.83414" lon="0.70156">
        <ele>90</ele>
        <time>2014-03-29T17:19:34.000Z</time>
      </trkpt>
      <trkpt lat="44.83412" lon="0.7017">
        <ele>92</ele>
        <time>2014-03-29T17:19:38.000Z</time>
      </trkpt>
      <trkpt lat="44.8341" lon="0.70183">
        <ele>92</ele>
        <time>2014-03-29T17:19:42.000Z</time>
      </trkpt>
      <trkpt lat="44.83406" lon="0.70195">
        <ele>96</ele>
        <time>2014-03-29T17:19:46.000Z</time>
      </trkpt>
      <trkpt lat="44.83406" lon="0.70204">
        <ele>97</ele>
        <time>2014-03-29T17:19:52.000Z</time>
      </trkpt>
      <trkpt lat="44.83406" lon="0.70204">
        <ele>97</ele>
        <time>2014-03-29T17:19:54.000Z</time>
      </trkpt>
      <trkpt lat="44.83406" lon="0.70204">
        <ele>97</ele>
        <time>2014-03-29T17:19:56.000Z</time>
      </trkpt>
      <trkpt lat="44.83406" lon="0.70204">
        <ele>97</ele>
        <time>2014-03-29T17:19:58.000Z</time>
      </trkpt>
      <trkpt lat="44.83406" lon="0.70204">
        <ele>97</ele>
        <time>2014-03-29T17:20:00.000Z</time>
      </trkpt>
      <trkpt lat="44.83403" lon="0.70227">
        <ele>99</ele>
        <time>2014-03-29T17:20:06.000Z</time>
      </trkpt>
      <trkpt lat="44.83401" lon="0.70241">
        <ele>99</ele>
        <time>2014-03-29T17:20:08.000Z</time>
      </trkpt>
      <trkpt lat="44.834" lon="0.7025">
        <ele>98</ele>
        <time>2014-03-29T17:20:10.000Z</time>
      </trkpt>
      <trkpt lat="44.834" lon="0.7025">
        <ele>98</ele>
        <time>2014-03-29T17:20:12.000Z</time>
      </trkpt>
      <trkpt lat="44.834" lon="0.7025">
        <ele>98</ele>
        <time>2014-03-29T17:20:14.000Z</time>
      </trkpt>
      <trkpt lat="44.83397" lon="0.70268">
        <ele>96</ele>
        <time>2014-03-29T17:20:20.000Z</time>
      </trkpt>
      <trkpt lat="44.83394" lon="0.7028">
        <ele>96</ele>
        <time>2014-03-29T17:20:22.000Z</time>
      </trkpt>
      <trkpt lat="44.83393" lon="0.7029">
        <ele>95</ele>
        <time>2014-03-29T17:20:24.000Z</time>
      </trkpt>
      <trkpt lat="44.83392" lon="0.70298">
        <ele>95</ele>
        <time>2014-03-29T17:20:26.000Z</time>
      </trkpt>
      <trkpt lat="44.83391" lon="0.70304">
        <ele>96</ele>
        <time>2014-03-29T17:20:28.000Z</time>
      </trkpt>
      <trkpt lat="44.83391" lon="0.70304">
        <ele>96</ele>
        <time>2014-03-29T17:20:30.000Z</time>
      </trkpt>
      <trkpt lat="44.83391" lon="0.70304">
        <ele>96</ele>
        <time>2014-03-29T17:20:32.000Z</time>
      </trkpt>
      <trkpt lat="44.83391" lon="0.70304">
        <ele>96</ele>
        <time>2014-03-29T17:20:34.000Z</time>
      </trkpt>
      <trkpt lat="44.83375" lon="0.70333">
        <ele>97</ele>
        <time>2014-03-29T17:20:40.000Z</time>
      </trkpt>
      <trkpt lat="44.83364" lon="0.7033">
        <ele>99</ele>
        <time>2014-03-29T17:20:44.000Z</time>
      </trkpt>
      <trkpt lat="44.83364" lon="0.7033">
        <ele>99</ele>
        <time>2014-03-29T17:20:46.000Z</time>
      </trkpt>
      <trkpt lat="44.83364" lon="0.7033">
        <ele>99</ele>
        <time>2014-03-29T17:20:48.000Z</time>
      </trkpt>
      <trkpt lat="44.83364" lon="0.7033">
        <ele>99</ele>
        <time>2014-03-29T17:20:50.000Z</time>
      </trkpt>
      <trkpt lat="44.83364" lon="0.7033">
        <ele>99</ele>
        <time>2014-03-29T17:20:52.000Z</time>
      </trkpt>
      <trkpt lat="44.83364" lon="0.7033">
        <ele>99</ele>
        <time>2014-03-29T17:20:54.000Z</time>
      </trkpt>
      <trkpt lat="44.83364" lon="0.7033">
        <ele>99</ele>
        <time>2014-03-29T17:20:56.000Z</time>
      </trkpt>
      <trkpt lat="44.83334" lon="0.70319">
        <ele>96</ele>
        <time>2014-03-29T17:21:00.000Z</time>
      </trkpt>
      <trkpt lat="44.83322" lon="0.70317">
        <ele>96</ele>
        <time>2014-03-29T17:21:06.000Z</time>
      </trkpt>
      <trkpt lat="44.83322" lon="0.70317">
        <ele>96</ele>
        <time>2014-03-29T17:21:08.000Z</time>
      </trkpt>
      <trkpt lat="44.83308" lon="0.70319">
        <ele>95</ele>
        <time>2014-03-29T17:21:12.000Z</time>
      </trkpt>
      <trkpt lat="44.83303" lon="0.7033">
        <ele>95</ele>
        <time>2014-03-29T17:21:16.000Z</time>
      </trkpt>
      <trkpt lat="44.83302" lon="0.70346">
        <ele>96</ele>
        <time>2014-03-29T17:21:22.000Z</time>
      </trkpt>
      <trkpt lat="44.833" lon="0.70362">
        <ele>96</ele>
        <time>2014-03-29T17:21:28.000Z</time>
      </trkpt>
      <trkpt lat="44.833" lon="0.70362">
        <ele>96</ele>
        <time>2014-03-29T17:21:30.000Z</time>
      </trkpt>
      <trkpt lat="44.833" lon="0.70362">
        <ele>96</ele>
        <time>2014-03-29T17:21:32.000Z</time>
      </trkpt>
      <trkpt lat="44.833" lon="0.70362">
        <ele>96</ele>
        <time>2014-03-29T17:21:34.000Z</time>
      </trkpt>
      <trkpt lat="44.833" lon="0.70362">
        <ele>96</ele>
        <time>2014-03-29T17:21:36.000Z</time>
      </trkpt>
      <trkpt lat="44.833" lon="0.70362">
        <ele>96</ele>
        <time>2014-03-29T17:21:38.000Z</time>
      </trkpt>
      <trkpt lat="44.833" lon="0.70362">
        <ele>96</ele>
        <time>2014-03-29T17:21:46.000Z</time>
      </trkpt>
      <trkpt lat="44.833" lon="0.70362">
        <ele>96</ele>
        <time>2014-03-29T17:21:48.000Z</time>
      </trkpt>
      <trkpt lat="44.833" lon="0.70362">
        <ele>96</ele>
        <time>2014-03-29T17:21:50.000Z</time>
      </trkpt>
      <trkpt lat="44.833" lon="0.70362">
        <ele>96</ele>
        <time>2014-03-29T17:21:52.000Z</time>
      </trkpt>
      <trkpt lat="44.833" lon="0.70362">
        <ele>96</ele>
        <time>2014-03-29T17:21:54.000Z</time>
      </trkpt>
      <trkpt lat="44.83289" lon="0.70394">
        <ele>93</ele>
        <time>2014-03-29T17:22:00.000Z</time>
      </trkpt>
      <trkpt lat="44.83282" lon="0.7041">
        <ele>94</ele>
        <time>2014-03-29T17:22:02.000Z</time>
      </trkpt>
      <trkpt lat="44.83277" lon="0.70418">
        <ele>91</ele>
        <time>2014-03-29T17:22:04.000Z</time>
      </trkpt>
      <trkpt lat="44.83273" lon="0.70421">
        <ele>93</ele>
        <time>2014-03-29T17:22:06.000Z</time>
      </trkpt>
      <trkpt lat="44.83273" lon="0.70421">
        <ele>93</ele>
        <time>2014-03-29T17:22:08.000Z</time>
      </trkpt>
      <trkpt lat="44.83273" lon="0.70421">
        <ele>93</ele>
        <time>2014-03-29T17:22:10.000Z</time>
      </trkpt>
      <trkpt lat="44.83273" lon="0.70421">
        <ele>93</ele>
        <time>2014-03-29T17:22:12.000Z</time>
      </trkpt>
      <trkpt lat="44.83273" lon="0.70421">
        <ele>93</ele>
        <time>2014-03-29T17:22:14.000Z</time>
      </trkpt>
      <trkpt lat="44.83261" lon="0.7042">
        <ele>91</ele>
        <time>2014-03-29T17:22:16.000Z</time>
      </trkpt>
      <trkpt lat="44.83253" lon="0.7042">
        <ele>90</ele>
        <time>2014-03-29T17:22:18.000Z</time>
      </trkpt>
      <trkpt lat="44.83247" lon="0.70422">
        <ele>90</ele>
        <time>2014-03-29T17:22:20.000Z</time>
      </trkpt>
      <trkpt lat="44.83241" lon="0.70424">
        <ele>90</ele>
        <time>2014-03-29T17:22:22.000Z</time>
      </trkpt>
      <trkpt lat="44.83236" lon="0.70424">
        <ele>91</ele>
        <time>2014-03-29T17:22:24.000Z</time>
      </trkpt>
      <trkpt lat="44.83236" lon="0.70424">
        <ele>91</ele>
        <time>2014-03-29T17:22:26.000Z</time>
      </trkpt>
      <trkpt lat="44.83224" lon="0.7042">
        <ele>93</ele>
        <time>2014-03-29T17:22:28.000Z</time>
      </trkpt>
      <trkpt lat="44.83224" lon="0.7042">
        <ele>93</ele>
        <time>2014-03-29T17:22:30.000Z</time>
      </trkpt>
      <trkpt lat="44.83224" lon="0.7042">
        <ele>93</ele>
        <time>2014-03-29T17:22:32.000Z</time>
      </trkpt>
      <trkpt lat="44.83224" lon="0.7042">
        <ele>93</ele>
        <time>2014-03-29T17:22:34.000Z</time>
      </trkpt>
      <trkpt lat="44.83224" lon="0.7042">
        <ele>93</ele>
        <time>2014-03-29T17:22:36.000Z</time>
      </trkpt>
      <trkpt lat="44.83206" lon="0.70419">
        <ele>96</ele>
        <time>2014-03-29T17:22:38.000Z</time>
      </trkpt>
      <trkpt lat="44.83206" lon="0.70419">
        <ele>96</ele>
        <time>2014-03-29T17:22:44.000Z</time>
      </trkpt>
      <trkpt lat="44.83206" lon="0.70419">
        <ele>96</ele>
        <time>2014-03-29T17:22:46.000Z</time>
      </trkpt>
      <trkpt lat="44.83206" lon="0.70419">
        <ele>96</ele>
        <time>2014-03-29T17:22:48.000Z</time>
      </trkpt>
      <trkpt lat="44.83206" lon="0.70419">
        <ele>96</ele>
        <time>2014-03-29T17:22:50.000Z</time>
      </trkpt>
      <trkpt lat="44.83206" lon="0.70419">
        <ele>96</ele>
        <time>2014-03-29T17:22:52.000Z</time>
      </trkpt>
      <trkpt lat="44.83206" lon="0.70419">
        <ele>96</ele>
        <time>2014-03-29T17:22:54.000Z</time>
      </trkpt>
      <trkpt lat="44.83206" lon="0.70419">
        <ele>96</ele>
        <time>2014-03-29T17:22:56.000Z</time>
      </trkpt>
      <trkpt lat="44.8317" lon="0.70416">
        <ele>92</ele>
        <time>2014-03-29T17:22:58.000Z</time>
      </trkpt>
      <trkpt lat="44.8317" lon="0.70416">
        <ele>92</ele>
        <time>2014-03-29T17:23:02.000Z</time>
      </trkpt>
      <trkpt lat="44.8316" lon="0.70415">
        <ele>94</ele>
        <time>2014-03-29T17:23:04.000Z</time>
      </trkpt>
      <trkpt lat="44.8316" lon="0.70415">
        <ele>94</ele>
        <time>2014-03-29T17:23:06.000Z</time>
      </trkpt>
      <trkpt lat="44.8316" lon="0.70415">
        <ele>94</ele>
        <time>2014-03-29T17:23:08.000Z</time>
      </trkpt>
      <trkpt lat="44.8316" lon="0.70415">
        <ele>94</ele>
        <time>2014-03-29T17:23:10.000Z</time>
      </trkpt>
      <trkpt lat="44.83136" lon="0.70411">
        <ele>93</ele>
        <time>2014-03-29T17:23:16.000Z</time>
      </trkpt>
      <trkpt lat="44.83136" lon="0.70411">
        <ele>93</ele>
        <time>2014-03-29T17:23:18.000Z</time>
      </trkpt>
      <trkpt lat="44.83136" lon="0.70411">
        <ele>93</ele>
        <time>2014-03-29T17:23:20.000Z</time>
      </trkpt>
      <trkpt lat="44.83136" lon="0.70411">
        <ele>93</ele>
        <time>2014-03-29T17:23:22.000Z</time>
      </trkpt>
      <trkpt lat="44.8312" lon="0.70407">
        <ele>90</ele>
        <time>2014-03-29T17:23:24.000Z</time>
      </trkpt>
      <trkpt lat="44.83109" lon="0.70403">
        <ele>91</ele>
        <time>2014-03-29T17:23:28.000Z</time>
      </trkpt>
      <trkpt lat="44.83099" lon="0.704">
        <ele>92</ele>
        <time>2014-03-29T17:23:32.000Z</time>
      </trkpt>
      <trkpt lat="44.83099" lon="0.704">
        <ele>92</ele>
        <time>2014-03-29T17:23:36.000Z</time>
      </trkpt>
      <trkpt lat="44.83099" lon="0.704">
        <ele>92</ele>
        <time>2014-03-29T17:23:38.000Z</time>
      </trkpt>
      <trkpt lat="44.83099" lon="0.704">
        <ele>92</ele>
        <time>2014-03-29T17:23:40.000Z</time>
      </trkpt>
      <trkpt lat="44.83088" lon="0.70397">
        <ele>96</ele>
        <time>2014-03-29T17:23:42.000Z</time>
      </trkpt>
      <trkpt lat="44.83079" lon="0.70394">
        <ele>98</ele>
        <time>2014-03-29T17:23:44.000Z</time>
      </trkpt>
      <trkpt lat="44.83072" lon="0.70393">
        <ele>98</ele>
        <time>2014-03-29T17:23:46.000Z</time>
      </trkpt>
      <trkpt lat="44.83067" lon="0.70391">
        <ele>99</ele>
        <time>2014-03-29T17:23:48.000Z</time>
      </trkpt>
      <trkpt lat="44.83067" lon="0.70391">
        <ele>99</ele>
        <time>2014-03-29T17:23:50.000Z</time>
      </trkpt>
      <trkpt lat="44.83067" lon="0.70391">
        <ele>99</ele>
        <time>2014-03-29T17:23:52.000Z</time>
      </trkpt>
      <trkpt lat="44.83067" lon="0.70391">
        <ele>99</ele>
        <time>2014-03-29T17:23:54.000Z</time>
      </trkpt>
      <trkpt lat="44.83067" lon="0.70391">
        <ele>99</ele>
        <time>2014-03-29T17:23:56.000Z</time>
      </trkpt>
      <trkpt lat="44.83067" lon="0.70391">
        <ele>99</ele>
        <time>2014-03-29T17:23:58.000Z</time>
      </trkpt>
      <trkpt lat="44.83068" lon="0.70376">
        <ele>97</ele>
        <time>2014-03-29T17:24:02.000Z</time>
      </trkpt>
      <trkpt lat="44.8307" lon="0.70366">
        <ele>97</ele>
        <time>2014-03-29T17:24:04.000Z</time>
      </trkpt>
      <trkpt lat="44.83073" lon="0.70359">
        <ele>96</ele>
        <time>2014-03-29T17:24:06.000Z</time>
      </trkpt>
      <trkpt lat="44.83075" lon="0.70352">
        <ele>95</ele>
        <time>2014-03-29T17:24:08.000Z</time>
      </trkpt>
      <trkpt lat="44.83075" lon="0.70352">
        <ele>95</ele>
        <time>2014-03-29T17:24:10.000Z</time>
      </trkpt>
      <trkpt lat="44.83075" lon="0.70352">
        <ele>95</ele>
        <time>2014-03-29T17:24:12.000Z</time>
      </trkpt>
      <trkpt lat="44.83081" lon="0.7034">
        <ele>93</ele>
        <time>2014-03-29T17:24:16.000Z</time>
      </trkpt>
      <trkpt lat="44.83085" lon="0.70333">
        <ele>90</ele>
        <time>2014-03-29T17:24:18.000Z</time>
      </trkpt>
      <trkpt lat="44.83085" lon="0.70333">
        <ele>90</ele>
        <time>2014-03-29T17:24:20.000Z</time>
      </trkpt>
      <trkpt lat="44.83085" lon="0.70333">
        <ele>90</ele>
        <time>2014-03-29T17:24:22.000Z</time>
      </trkpt>
      <trkpt lat="44.83085" lon="0.70333">
        <ele>90</ele>
        <time>2014-03-29T17:24:25.000Z</time>
      </trkpt>
      <trkpt lat="44.83079" lon="0.70325">
        <ele>86</ele>
        <time>2014-03-29T17:24:29.000Z</time>
      </trkpt>
      <trkpt lat="44.83079" lon="0.70325">
        <ele>86</ele>
        <time>2014-03-29T17:24:31.000Z</time>
      </trkpt>
      <trkpt lat="44.83075" lon="0.7032">
        <ele>87</ele>
        <time>2014-03-29T17:24:33.000Z</time>
      </trkpt>
      <trkpt lat="44.83068" lon="0.70319">
        <ele>87</ele>
        <time>2014-03-29T17:24:37.000Z</time>
      </trkpt>
      <trkpt lat="44.83062" lon="0.70316">
        <ele>88</ele>
        <time>2014-03-29T17:24:41.000Z</time>
      </trkpt>
      <trkpt lat="44.83062" lon="0.70316">
        <ele>88</ele>
        <time>2014-03-29T17:24:43.000Z</time>
      </trkpt>
      <trkpt lat="44.83056" lon="0.70312">
        <ele>86</ele>
        <time>2014-03-29T17:24:45.000Z</time>
      </trkpt>
      <trkpt lat="44.83048" lon="0.70309">
        <ele>88</ele>
        <time>2014-03-29T17:24:47.000Z</time>
      </trkpt>
      <trkpt lat="44.83042" lon="0.70308">
        <ele>89</ele>
        <time>2014-03-29T17:24:49.000Z</time>
      </trkpt>
      <trkpt lat="44.83036" lon="0.70307">
        <ele>88</ele>
        <time>2014-03-29T17:24:51.000Z</time>
      </trkpt>
      <trkpt lat="44.83031" lon="0.70307">
        <ele>87</ele>
        <time>2014-03-29T17:24:53.000Z</time>
      </trkpt>
      <trkpt lat="44.83031" lon="0.70307">
        <ele>87</ele>
        <time>2014-03-29T17:24:55.000Z</time>
      </trkpt>
      <trkpt lat="44.83031" lon="0.70307">
        <ele>87</ele>
        <time>2014-03-29T17:24:57.000Z</time>
      </trkpt>
      <trkpt lat="44.83012" lon="0.70295">
        <ele>90</ele>
        <time>2014-03-29T17:24:59.000Z</time>
      </trkpt>
      <trkpt lat="44.83011" lon="0.70277">
        <ele>87</ele>
        <time>2014-03-29T17:25:05.000Z</time>
      </trkpt>
      <trkpt lat="44.83011" lon="0.70277">
        <ele>87</ele>
        <time>2014-03-29T17:25:07.000Z</time>
      </trkpt>
      <trkpt lat="44.83011" lon="0.70277">
        <ele>87</ele>
        <time>2014-03-29T17:25:09.000Z</time>
      </trkpt>
      <trkpt lat="44.83011" lon="0.70277">
        <ele>87</ele>
        <time>2014-03-29T17:25:11.000Z</time>
      </trkpt>
      <trkpt lat="44.83" lon="0.70244">
        <ele>87</ele>
        <time>2014-03-29T17:25:17.000Z</time>
      </trkpt>
      <trkpt lat="44.83" lon="0.70244">
        <ele>87</ele>
        <time>2014-03-29T17:25:19.000Z</time>
      </trkpt>
      <trkpt lat="44.83" lon="0.70244">
        <ele>87</ele>
        <time>2014-03-29T17:25:21.000Z</time>
      </trkpt>
      <trkpt lat="44.83" lon="0.70244">
        <ele>87</ele>
        <time>2014-03-29T17:25:23.000Z</time>
      </trkpt>
      <trkpt lat="44.83006" lon="0.70218">
        <ele>85</ele>
        <time>2014-03-29T17:25:27.000Z</time>
      </trkpt>
      <trkpt lat="44.83006" lon="0.70218">
        <ele>85</ele>
        <time>2014-03-29T17:25:31.000Z</time>
      </trkpt>
      <trkpt lat="44.82999" lon="0.70186">
        <ele>88</ele>
        <time>2014-03-29T17:25:41.000Z</time>
      </trkpt>
      <trkpt lat="44.82991" lon="0.7018">
        <ele>87</ele>
        <time>2014-03-29T17:25:47.000Z</time>
      </trkpt>
      <trkpt lat="44.82991" lon="0.7018">
        <ele>87</ele>
        <time>2014-03-29T17:25:49.000Z</time>
      </trkpt>
      <trkpt lat="44.82991" lon="0.7018">
        <ele>87</ele>
        <time>2014-03-29T17:25:51.000Z</time>
      </trkpt>
      <trkpt lat="44.82977" lon="0.70173">
        <ele>85</ele>
        <time>2014-03-29T17:25:55.000Z</time>
      </trkpt>
      <trkpt lat="44.82967" lon="0.70174">
        <ele>92</ele>
        <time>2014-03-29T17:26:01.000Z</time>
      </trkpt>
      <trkpt lat="44.82967" lon="0.70174">
        <ele>92</ele>
        <time>2014-03-29T17:26:03.000Z</time>
      </trkpt>
      <trkpt lat="44.82967" lon="0.70174">
        <ele>92</ele>
        <time>2014-03-29T17:26:05.000Z</time>
      </trkpt>
      <trkpt lat="44.82967" lon="0.70174">
        <ele>92</ele>
        <time>2014-03-29T17:26:07.000Z</time>
      </trkpt>
      <trkpt lat="44.82954" lon="0.70169">
        <ele>95</ele>
        <time>2014-03-29T17:26:09.000Z</time>
      </trkpt>
      <trkpt lat="44.82954" lon="0.70169">
        <ele>95</ele>
        <time>2014-03-29T17:26:11.000Z</time>
      </trkpt>
      <trkpt lat="44.82954" lon="0.70169">
        <ele>95</ele>
        <time>2014-03-29T17:26:13.000Z</time>
      </trkpt>
      <trkpt lat="44.82954" lon="0.70169">
        <ele>95</ele>
        <time>2014-03-29T17:26:15.000Z</time>
      </trkpt>
      <trkpt lat="44.82946" lon="0.70168">
        <ele>92</ele>
        <time>2014-03-29T17:26:21.000Z</time>
      </trkpt>
      <trkpt lat="44.8294" lon="0.70168">
        <ele>92</ele>
        <time>2014-03-29T17:26:23.000Z</time>
      </trkpt>
      <trkpt lat="44.82934" lon="0.70169">
        <ele>93</ele>
        <time>2014-03-29T17:26:25.000Z</time>
      </trkpt>
      <trkpt lat="44.82928" lon="0.70168">
        <ele>92</ele>
        <time>2014-03-29T17:26:29.000Z</time>
      </trkpt>
      <trkpt lat="44.82924" lon="0.70167">
        <ele>93</ele>
        <time>2014-03-29T17:26:31.000Z</time>
      </trkpt>
      <trkpt lat="44.82918" lon="0.70167">
        <ele>94</ele>
        <time>2014-03-29T17:26:33.000Z</time>
      </trkpt>
      <trkpt lat="44.82914" lon="0.70165">
        <ele>95</ele>
        <time>2014-03-29T17:26:35.000Z</time>
      </trkpt>
      <trkpt lat="44.82909" lon="0.70164">
        <ele>96</ele>
        <time>2014-03-29T17:26:37.000Z</time>
      </trkpt>
      <trkpt lat="44.82894" lon="0.70165">
        <ele>98</ele>
        <time>2014-03-29T17:26:41.000Z</time>
      </trkpt>
      <trkpt lat="44.82894" lon="0.70165">
        <ele>98</ele>
        <time>2014-03-29T17:26:43.000Z</time>
      </trkpt>
      <trkpt lat="44.82894" lon="0.70165">
        <ele>98</ele>
        <time>2014-03-29T17:26:45.000Z</time>
      </trkpt>
      <trkpt lat="44.82894" lon="0.70165">
        <ele>98</ele>
        <time>2014-03-29T17:26:47.000Z</time>
      </trkpt>
      <trkpt lat="44.82894" lon="0.70165">
        <ele>98</ele>
        <time>2014-03-29T17:26:49.000Z</time>
      </trkpt>
      <trkpt lat="44.82894" lon="0.70165">
        <ele>98</ele>
        <time>2014-03-29T17:26:51.000Z</time>
      </trkpt>
      <trkpt lat="44.82894" lon="0.70165">
        <ele>98</ele>
        <time>2014-03-29T17:26:53.000Z</time>
      </trkpt>
      <trkpt lat="44.82894" lon="0.70165">
        <ele>98</ele>
        <time>2014-03-29T17:26:55.000Z</time>
      </trkpt>
      <trkpt lat="44.82856" lon="0.70163">
        <ele>98</ele>
        <time>2014-03-29T17:26:59.000Z</time>
      </trkpt>
      <trkpt lat="44.82856" lon="0.70163">
        <ele>98</ele>
        <time>2014-03-29T17:27:05.000Z</time>
      </trkpt>
      <trkpt lat="44.82856" lon="0.70163">
        <ele>98</ele>
        <time>2014-03-29T17:27:07.000Z</time>
      </trkpt>
      <trkpt lat="44.82856" lon="0.70163">
        <ele>98</ele>
        <time>2014-03-29T17:27:09.000Z</time>
      </trkpt>
      <trkpt lat="44.82821" lon="0.70171">
        <ele>98</ele>
        <time>2014-03-29T17:27:16.000Z</time>
      </trkpt>
      <trkpt lat="44.82811" lon="0.70179">
        <ele>98</ele>
        <time>2014-03-29T17:27:19.000Z</time>
      </trkpt>
      <trkpt lat="44.828" lon="0.70182">
        <ele>99</ele>
        <time>2014-03-29T17:27:25.000Z</time>
      </trkpt>
      <trkpt lat="44.8279" lon="0.70187">
        <ele>99</ele>
        <time>2014-03-29T17:27:31.000Z</time>
      </trkpt>
      <trkpt lat="44.8279" lon="0.70187">
        <ele>99</ele>
        <time>2014-03-29T17:27:33.000Z</time>
      </trkpt>
      <trkpt lat="44.8279" lon="0.70187">
        <ele>99</ele>
        <time>2014-03-29T17:27:35.000Z</time>
      </trkpt>
      <trkpt lat="44.82772" lon="0.70195">
        <ele>101</ele>
        <time>2014-03-29T17:27:41.000Z</time>
      </trkpt>
      <trkpt lat="44.82772" lon="0.70195">
        <ele>101</ele>
        <time>2014-03-29T17:27:43.000Z</time>
      </trkpt>
      <trkpt lat="44.82772" lon="0.70195">
        <ele>101</ele>
        <time>2014-03-29T17:27:45.000Z</time>
      </trkpt>
      <trkpt lat="44.82772" lon="0.70195">
        <ele>101</ele>
        <time>2014-03-29T17:27:47.000Z</time>
      </trkpt>
      <trkpt lat="44.82772" lon="0.70195">
        <ele>101</ele>
        <time>2014-03-29T17:27:49.000Z</time>
      </trkpt>
      <trkpt lat="44.82772" lon="0.70195">
        <ele>101</ele>
        <time>2014-03-29T17:27:51.000Z</time>
      </trkpt>
      <trkpt lat="44.82772" lon="0.70195">
        <ele>101</ele>
        <time>2014-03-29T17:27:53.000Z</time>
      </trkpt>
      <trkpt lat="44.82758" lon="0.70196">
        <ele>105</ele>
        <time>2014-03-29T17:27:55.000Z</time>
      </trkpt>
      <trkpt lat="44.82747" lon="0.70196">
        <ele>107</ele>
        <time>2014-03-29T17:27:57.000Z</time>
      </trkpt>
      <trkpt lat="44.8274" lon="0.70197">
        <ele>107</ele>
        <time>2014-03-29T17:27:59.000Z</time>
      </trkpt>
      <trkpt lat="44.82735" lon="0.70197">
        <ele>106</ele>
        <time>2014-03-29T17:28:01.000Z</time>
      </trkpt>
      <trkpt lat="44.82735" lon="0.70197">
        <ele>106</ele>
        <time>2014-03-29T17:28:03.000Z</time>
      </trkpt>
      <trkpt lat="44.82735" lon="0.70197">
        <ele>106</ele>
        <time>2014-03-29T17:28:05.000Z</time>
      </trkpt>
      <trkpt lat="44.82735" lon="0.70197">
        <ele>106</ele>
        <time>2014-03-29T17:28:09.000Z</time>
      </trkpt>
      <trkpt lat="44.82735" lon="0.70197">
        <ele>106</ele>
        <time>2014-03-29T17:28:11.000Z</time>
      </trkpt>
      <trkpt lat="44.82735" lon="0.70197">
        <ele>106</ele>
        <time>2014-03-29T17:28:13.000Z</time>
      </trkpt>
      <trkpt lat="44.82735" lon="0.70197">
        <ele>106</ele>
        <time>2014-03-29T17:28:15.000Z</time>
      </trkpt>
      <trkpt lat="44.82735" lon="0.70197">
        <ele>106</ele>
        <time>2014-03-29T17:28:17.000Z</time>
      </trkpt>
      <trkpt lat="44.82735" lon="0.70197">
        <ele>106</ele>
        <time>2014-03-29T17:28:19.000Z</time>
      </trkpt>
      <trkpt lat="44.82735" lon="0.70197">
        <ele>106</ele>
        <time>2014-03-29T17:28:23.000Z</time>
      </trkpt>
      <trkpt lat="44.82735" lon="0.70197">
        <ele>106</ele>
        <time>2014-03-29T17:28:25.000Z</time>
      </trkpt>
      <trkpt lat="44.82735" lon="0.70197">
        <ele>106</ele>
        <time>2014-03-29T17:28:27.000Z</time>
      </trkpt>
      <trkpt lat="44.82714" lon="0.70208">
        <ele>103</ele>
        <time>2014-03-29T17:28:31.000Z</time>
      </trkpt>
      <trkpt lat="44.82702" lon="0.70214">
        <ele>103</ele>
        <time>2014-03-29T17:28:33.000Z</time>
      </trkpt>
      <trkpt lat="44.82695" lon="0.70217">
        <ele>105</ele>
        <time>2014-03-29T17:28:35.000Z</time>
      </trkpt>
      <trkpt lat="44.82689" lon="0.70218">
        <ele>105</ele>
        <time>2014-03-29T17:28:37.000Z</time>
      </trkpt>
      <trkpt lat="44.82684" lon="0.7022">
        <ele>105</ele>
        <time>2014-03-29T17:28:41.000Z</time>
      </trkpt>
      <trkpt lat="44.82684" lon="0.7022">
        <ele>105</ele>
        <time>2014-03-29T17:28:43.000Z</time>
      </trkpt>
      <trkpt lat="44.82678" lon="0.70222">
        <ele>106</ele>
        <time>2014-03-29T17:28:45.000Z</time>
      </trkpt>
      <trkpt lat="44.82678" lon="0.70222">
        <ele>106</ele>
        <time>2014-03-29T17:28:47.000Z</time>
      </trkpt>
      <trkpt lat="44.82678" lon="0.70222">
        <ele>106</ele>
        <time>2014-03-29T17:28:49.000Z</time>
      </trkpt>
      <trkpt lat="44.82678" lon="0.70222">
        <ele>106</ele>
        <time>2014-03-29T17:28:51.000Z</time>
      </trkpt>
      <trkpt lat="44.82668" lon="0.70224">
        <ele>110</ele>
        <time>2014-03-29T17:28:55.000Z</time>
      </trkpt>
      <trkpt lat="44.82662" lon="0.70226">
        <ele>111</ele>
        <time>2014-03-29T17:28:57.000Z</time>
      </trkpt>
      <trkpt lat="44.82662" lon="0.70226">
        <ele>111</ele>
        <time>2014-03-29T17:28:59.000Z</time>
      </trkpt>
      <trkpt lat="44.82662" lon="0.70226">
        <ele>111</ele>
        <time>2014-03-29T17:29:01.000Z</time>
      </trkpt>
      <trkpt lat="44.82662" lon="0.70226">
        <ele>111</ele>
        <time>2014-03-29T17:29:03.000Z</time>
      </trkpt>
      <trkpt lat="44.82662" lon="0.70226">
        <ele>111</ele>
        <time>2014-03-29T17:29:05.000Z</time>
      </trkpt>
      <trkpt lat="44.82662" lon="0.70226">
        <ele>111</ele>
        <time>2014-03-29T17:29:07.000Z</time>
      </trkpt>
      <trkpt lat="44.82654" lon="0.70233">
        <ele>109</ele>
        <time>2014-03-29T17:29:11.000Z</time>
      </trkpt>
      <trkpt lat="44.82648" lon="0.70237">
        <ele>108</ele>
        <time>2014-03-29T17:29:13.000Z</time>
      </trkpt>
      <trkpt lat="44.82644" lon="0.70239">
        <ele>107</ele>
        <time>2014-03-29T17:29:15.000Z</time>
      </trkpt>
      <trkpt lat="44.82638" lon="0.70241">
        <ele>105</ele>
        <time>2014-03-29T17:29:19.000Z</time>
      </trkpt>
      <trkpt lat="44.82632" lon="0.70242">
        <ele>107</ele>
        <time>2014-03-29T17:29:21.000Z</time>
      </trkpt>
      <trkpt lat="44.82626" lon="0.70242">
        <ele>109</ele>
        <time>2014-03-29T17:29:23.000Z</time>
      </trkpt>
      <trkpt lat="44.82621" lon="0.70244">
        <ele>111</ele>
        <time>2014-03-29T17:29:25.000Z</time>
      </trkpt>
      <trkpt lat="44.82616" lon="0.70244">
        <ele>110</ele>
        <time>2014-03-29T17:29:27.000Z</time>
      </trkpt>
      <trkpt lat="44.82606" lon="0.70246">
        <ele>112</ele>
        <time>2014-03-29T17:29:29.000Z</time>
      </trkpt>
      <trkpt lat="44.82606" lon="0.70246">
        <ele>112</ele>
        <time>2014-03-29T17:29:31.000Z</time>
      </trkpt>
      <trkpt lat="44.82595" lon="0.70247">
        <ele>116</ele>
        <time>2014-03-29T17:29:33.000Z</time>
      </trkpt>
      <trkpt lat="44.82595" lon="0.70247">
        <ele>116</ele>
        <time>2014-03-29T17:29:35.000Z</time>
      </trkpt>
      <trkpt lat="44.82586" lon="0.70251">
        <ele>112</ele>
        <time>2014-03-29T17:29:39.000Z</time>
      </trkpt>
      <trkpt lat="44.82575" lon="0.70258">
        <ele>112</ele>
        <time>2014-03-29T17:29:45.000Z</time>
      </trkpt>
      <trkpt lat="44.82566" lon="0.70254">
        <ele>113</ele>
        <time>2014-03-29T17:29:48.000Z</time>
      </trkpt>
      <trkpt lat="44.82566" lon="0.70254">
        <ele>113</ele>
        <time>2014-03-29T17:29:52.000Z</time>
      </trkpt>
      <trkpt lat="44.82566" lon="0.70254">
        <ele>113</ele>
        <time>2014-03-29T17:29:54.000Z</time>
      </trkpt>
      <trkpt lat="44.82566" lon="0.70254">
        <ele>113</ele>
        <time>2014-03-29T17:29:56.000Z</time>
      </trkpt>
      <trkpt lat="44.82566" lon="0.70254">
        <ele>113</ele>
        <time>2014-03-29T17:29:58.000Z</time>
      </trkpt>
      <trkpt lat="44.82566" lon="0.70254">
        <ele>113</ele>
        <time>2014-03-29T17:30:00.000Z</time>
      </trkpt>
      <trkpt lat="44.82566" lon="0.70254">
        <ele>113</ele>
        <time>2014-03-29T17:30:02.000Z</time>
      </trkpt>
      <trkpt lat="44.82553" lon="0.70298">
        <ele>108</ele>
        <time>2014-03-29T17:30:08.000Z</time>
      </trkpt>
      <trkpt lat="44.82554" lon="0.70315">
        <ele>108</ele>
        <time>2014-03-29T17:30:14.000Z</time>
      </trkpt>
      <trkpt lat="44.82555" lon="0.70333">
        <ele>106</ele>
        <time>2014-03-29T17:30:20.000Z</time>
      </trkpt>
      <trkpt lat="44.82555" lon="0.70333">
        <ele>106</ele>
        <time>2014-03-29T17:30:22.000Z</time>
      </trkpt>
      <trkpt lat="44.82555" lon="0.70333">
        <ele>106</ele>
        <time>2014-03-29T17:30:24.000Z</time>
      </trkpt>
      <trkpt lat="44.82555" lon="0.70333">
        <ele>106</ele>
        <time>2014-03-29T17:30:26.000Z</time>
      </trkpt>
      <trkpt lat="44.82555" lon="0.70333">
        <ele>106</ele>
        <time>2014-03-29T17:30:28.000Z</time>
      </trkpt>
      <trkpt lat="44.82555" lon="0.70333">
        <ele>106</ele>
        <time>2014-03-29T17:30:30.000Z</time>
      </trkpt>
      <trkpt lat="44.82555" lon="0.70333">
        <ele>106</ele>
        <time>2014-03-29T17:30:32.000Z</time>
      </trkpt>
      <trkpt lat="44.82555" lon="0.70333">
        <ele>106</ele>
        <time>2014-03-29T17:30:34.000Z</time>
      </trkpt>
      <trkpt lat="44.82563" lon="0.70385">
        <ele>104</ele>
        <time>2014-03-29T17:30:38.000Z</time>
      </trkpt>
      <trkpt lat="44.82566" lon="0.70402">
        <ele>103</ele>
        <time>2014-03-29T17:30:44.000Z</time>
      </trkpt>
      <trkpt lat="44.82568" lon="0.70416">
        <ele>103</ele>
        <time>2014-03-29T17:30:48.000Z</time>
      </trkpt>
      <trkpt lat="44.82568" lon="0.70416">
        <ele>103</ele>
        <time>2014-03-29T17:30:50.000Z</time>
      </trkpt>
      <trkpt lat="44.82568" lon="0.70416">
        <ele>103</ele>
        <time>2014-03-29T17:30:52.000Z</time>
      </trkpt>
      <trkpt lat="44.82568" lon="0.70416">
        <ele>103</ele>
        <time>2014-03-29T17:30:54.000Z</time>
      </trkpt>
      <trkpt lat="44.82568" lon="0.70416">
        <ele>103</ele>
        <time>2014-03-29T17:30:58.000Z</time>
      </trkpt>
      <trkpt lat="44.82568" lon="0.70416">
        <ele>103</ele>
        <time>2014-03-29T17:31:00.000Z</time>
      </trkpt>
      <trkpt lat="44.82568" lon="0.70416">
        <ele>103</ele>
        <time>2014-03-29T17:31:02.000Z</time>
      </trkpt>
      <trkpt lat="44.82568" lon="0.70416">
        <ele>103</ele>
        <time>2014-03-29T17:31:04.000Z</time>
      </trkpt>
      <trkpt lat="44.82568" lon="0.70416">
        <ele>103</ele>
        <time>2014-03-29T17:31:06.000Z</time>
      </trkpt>
      <trkpt lat="44.82568" lon="0.70416">
        <ele>103</ele>
        <time>2014-03-29T17:31:08.000Z</time>
      </trkpt>
      <trkpt lat="44.82568" lon="0.70416">
        <ele>103</ele>
        <time>2014-03-29T17:31:10.000Z</time>
      </trkpt>
      <trkpt lat="44.82568" lon="0.70416">
        <ele>103</ele>
        <time>2014-03-29T17:31:12.000Z</time>
      </trkpt>
      <trkpt lat="44.82568" lon="0.70416">
        <ele>103</ele>
        <time>2014-03-29T17:31:14.000Z</time>
      </trkpt>
      <trkpt lat="44.82568" lon="0.70416">
        <ele>103</ele>
        <time>2014-03-29T17:31:22.000Z</time>
      </trkpt>
      <trkpt lat="44.82594" lon="0.70433">
        <ele>89</ele>
        <time>2014-03-29T17:31:24.000Z</time>
      </trkpt>
      <trkpt lat="44.82608" lon="0.70441">
        <ele>92</ele>
        <time>2014-03-29T17:31:26.000Z</time>
      </trkpt>
      <trkpt lat="44.82618" lon="0.70445">
        <ele>91</ele>
        <time>2014-03-29T17:31:28.000Z</time>
      </trkpt>
      <trkpt lat="44.82624" lon="0.70446">
        <ele>91</ele>
        <time>2014-03-29T17:31:30.000Z</time>
      </trkpt>
      <trkpt lat="44.8263" lon="0.70447">
        <ele>90</ele>
        <time>2014-03-29T17:31:32.000Z</time>
      </trkpt>
      <trkpt lat="44.8263" lon="0.70447">
        <ele>90</ele>
        <time>2014-03-29T17:31:34.000Z</time>
      </trkpt>
      <trkpt lat="44.8263" lon="0.70447">
        <ele>90</ele>
        <time>2014-03-29T17:31:36.000Z</time>
      </trkpt>
      <trkpt lat="44.82642" lon="0.70457">
        <ele>91</ele>
        <time>2014-03-29T17:31:38.000Z</time>
      </trkpt>
      <trkpt lat="44.82649" lon="0.7047">
        <ele>93</ele>
        <time>2014-03-29T17:31:44.000Z</time>
      </trkpt>
      <trkpt lat="44.82649" lon="0.7047">
        <ele>93</ele>
        <time>2014-03-29T17:31:46.000Z</time>
      </trkpt>
      <trkpt lat="44.82656" lon="0.70483">
        <ele>93</ele>
        <time>2014-03-29T17:31:50.000Z</time>
      </trkpt>
      <trkpt lat="44.82656" lon="0.70483">
        <ele>93</ele>
        <time>2014-03-29T17:31:54.000Z</time>
      </trkpt>
      <trkpt lat="44.82656" lon="0.70483">
        <ele>93</ele>
        <time>2014-03-29T17:31:56.000Z</time>
      </trkpt>
      <trkpt lat="44.82666" lon="0.70504">
        <ele>97</ele>
        <time>2014-03-29T17:31:58.000Z</time>
      </trkpt>
      <trkpt lat="44.82669" lon="0.70516">
        <ele>97</ele>
        <time>2014-03-29T17:32:02.000Z</time>
      </trkpt>
      <trkpt lat="44.82669" lon="0.70516">
        <ele>97</ele>
        <time>2014-03-29T17:32:04.000Z</time>
      </trkpt>
      <trkpt lat="44.82669" lon="0.70516">
        <ele>97</ele>
        <time>2014-03-29T17:32:06.000Z</time>
      </trkpt>
      <trkpt lat="44.82669" lon="0.70516">
        <ele>97</ele>
        <time>2014-03-29T17:32:08.000Z</time>
      </trkpt>
      <trkpt lat="44.82669" lon="0.70516">
        <ele>97</ele>
        <time>2014-03-29T17:32:10.000Z</time>
      </trkpt>
      <trkpt lat="44.82669" lon="0.70516">
        <ele>97</ele>
        <time>2014-03-29T17:32:12.000Z</time>
      </trkpt>
      <trkpt lat="44.82669" lon="0.70516">
        <ele>97</ele>
        <time>2014-03-29T17:32:14.000Z</time>
      </trkpt>
      <trkpt lat="44.82669" lon="0.70516">
        <ele>97</ele>
        <time>2014-03-29T17:32:16.000Z</time>
      </trkpt>
      <trkpt lat="44.82669" lon="0.70516">
        <ele>97</ele>
        <time>2014-03-29T17:32:18.000Z</time>
      </trkpt>
      <trkpt lat="44.82669" lon="0.70516">
        <ele>97</ele>
        <time>2014-03-29T17:32:22.000Z</time>
      </trkpt>
      <trkpt lat="44.82669" lon="0.70516">
        <ele>97</ele>
        <time>2014-03-29T17:32:24.000Z</time>
      </trkpt>
      <trkpt lat="44.82669" lon="0.70516">
        <ele>97</ele>
        <time>2014-03-29T17:32:26.000Z</time>
      </trkpt>
      <trkpt lat="44.82669" lon="0.70516">
        <ele>97</ele>
        <time>2014-03-29T17:32:28.000Z</time>
      </trkpt>
      <trkpt lat="44.82669" lon="0.70516">
        <ele>97</ele>
        <time>2014-03-29T17:32:30.000Z</time>
      </trkpt>
      <trkpt lat="44.82645" lon="0.70589">
        <ele>94</ele>
        <time>2014-03-29T17:32:34.000Z</time>
      </trkpt>
      <trkpt lat="44.82636" lon="0.70597">
        <ele>94</ele>
        <time>2014-03-29T17:32:38.000Z</time>
      </trkpt>
      <trkpt lat="44.82636" lon="0.70597">
        <ele>94</ele>
        <time>2014-03-29T17:32:42.000Z</time>
      </trkpt>
      <trkpt lat="44.82636" lon="0.70597">
        <ele>94</ele>
        <time>2014-03-29T17:32:44.000Z</time>
      </trkpt>
      <trkpt lat="44.82628" lon="0.70604">
        <ele>91</ele>
        <time>2014-03-29T17:32:48.000Z</time>
      </trkpt>
      <trkpt lat="44.82621" lon="0.7061">
        <ele>92</ele>
        <time>2014-03-29T17:32:50.000Z</time>
      </trkpt>
      <trkpt lat="44.82616" lon="0.70615">
        <ele>94</ele>
        <time>2014-03-29T17:32:52.000Z</time>
      </trkpt>
      <trkpt lat="44.82611" lon="0.70619">
        <ele>94</ele>
        <time>2014-03-29T17:32:54.000Z</time>
      </trkpt>
      <trkpt lat="44.82606" lon="0.70624">
        <ele>92</ele>
        <time>2014-03-29T17:32:58.000Z</time>
      </trkpt>
      <trkpt lat="44.82601" lon="0.70628">
        <ele>90</ele>
        <time>2014-03-29T17:33:00.000Z</time>
      </trkpt>
      <trkpt lat="44.82596" lon="0.70631">
        <ele>90</ele>
        <time>2014-03-29T17:33:02.000Z</time>
      </trkpt>
      <trkpt lat="44.82596" lon="0.70631">
        <ele>90</ele>
        <time>2014-03-29T17:33:04.000Z</time>
      </trkpt>
      <trkpt lat="44.82596" lon="0.70631">
        <ele>90</ele>
        <time>2014-03-29T17:33:06.000Z</time>
      </trkpt>
      <trkpt lat="44.82596" lon="0.70631">
        <ele>90</ele>
        <time>2014-03-29T17:33:08.000Z</time>
      </trkpt>
      <trkpt lat="44.82596" lon="0.70631">
        <ele>90</ele>
        <time>2014-03-29T17:33:10.000Z</time>
      </trkpt>
      <trkpt lat="44.82596" lon="0.70631">
        <ele>90</ele>
        <time>2014-03-29T17:33:12.000Z</time>
      </trkpt>
      <trkpt lat="44.82596" lon="0.70631">
        <ele>90</ele>
        <time>2014-03-29T17:33:14.000Z</time>
      </trkpt>
      <trkpt lat="44.82596" lon="0.70631">
        <ele>90</ele>
        <time>2014-03-29T17:33:16.000Z</time>
      </trkpt>
      <trkpt lat="44.82578" lon="0.70628">
        <ele>98</ele>
        <time>2014-03-29T17:33:20.000Z</time>
      </trkpt>
      <trkpt lat="44.82567" lon="0.70625">
        <ele>98</ele>
        <time>2014-03-29T17:33:22.000Z</time>
      </trkpt>
      <trkpt lat="44.82561" lon="0.70622">
        <ele>98</ele>
        <time>2014-03-29T17:33:24.000Z</time>
      </trkpt>
      <trkpt lat="44.82561" lon="0.70622">
        <ele>98</ele>
        <time>2014-03-29T17:33:26.000Z</time>
      </trkpt>
      <trkpt lat="44.82561" lon="0.70622">
        <ele>98</ele>
        <time>2014-03-29T17:33:28.000Z</time>
      </trkpt>
      <trkpt lat="44.82552" lon="0.70616">
        <ele>100</ele>
        <time>2014-03-29T17:33:30.000Z</time>
      </trkpt>
      <trkpt lat="44.82545" lon="0.70612">
        <ele>100</ele>
        <time>2014-03-29T17:33:32.000Z</time>
      </trkpt>
      <trkpt lat="44.82541" lon="0.70609">
        <ele>99</ele>
        <time>2014-03-29T17:33:34.000Z</time>
      </trkpt>
      <trkpt lat="44.82536" lon="0.70608">
        <ele>98</ele>
        <time>2014-03-29T17:33:36.000Z</time>
      </trkpt>
      <trkpt lat="44.8253" lon="0.70608">
        <ele>99</ele>
        <time>2014-03-29T17:33:40.000Z</time>
      </trkpt>
      <trkpt lat="44.8253" lon="0.70608">
        <ele>99</ele>
        <time>2014-03-29T17:33:42.000Z</time>
      </trkpt>
      <trkpt lat="44.82523" lon="0.70603">
        <ele>99</ele>
        <time>2014-03-29T17:33:46.000Z</time>
      </trkpt>
      <trkpt lat="44.82518" lon="0.70598">
        <ele>98</ele>
        <time>2014-03-29T17:33:48.000Z</time>
      </trkpt>
      <trkpt lat="44.82518" lon="0.70598">
        <ele>98</ele>
        <time>2014-03-29T17:33:51.000Z</time>
      </trkpt>
      <trkpt lat="44.82518" lon="0.70598">
        <ele>98</ele>
        <time>2014-03-29T17:33:52.000Z</time>
      </trkpt>
      <trkpt lat="44.8251" lon="0.70585">
        <ele>99</ele>
        <time>2014-03-29T17:33:56.000Z</time>
      </trkpt>
      <trkpt lat="44.82504" lon="0.70576">
        <ele>101</ele>
        <time>2014-03-29T17:33:58.000Z</time>
      </trkpt>
      <trkpt lat="44.82499" lon="0.70569">
        <ele>101</ele>
        <time>2014-03-29T17:34:00.000Z</time>
      </trkpt>
      <trkpt lat="44.82494" lon="0.70566">
        <ele>99</ele>
        <time>2014-03-29T17:34:02.000Z</time>
      </trkpt>
      <trkpt lat="44.82494" lon="0.70566">
        <ele>99</ele>
        <time>2014-03-29T17:34:04.000Z</time>
      </trkpt>
      <trkpt lat="44.82494" lon="0.70566">
        <ele>99</ele>
        <time>2014-03-29T17:34:06.000Z</time>
      </trkpt>
      <trkpt lat="44.82494" lon="0.70566">
        <ele>99</ele>
        <time>2014-03-29T17:34:10.000Z</time>
      </trkpt>
      <trkpt lat="44.82494" lon="0.70566">
        <ele>99</ele>
        <time>2014-03-29T17:34:12.000Z</time>
      </trkpt>
      <trkpt lat="44.82494" lon="0.70566">
        <ele>99</ele>
        <time>2014-03-29T17:34:14.000Z</time>
      </trkpt>
      <trkpt lat="44.82494" lon="0.70566">
        <ele>99</ele>
        <time>2014-03-29T17:34:16.000Z</time>
      </trkpt>
      <trkpt lat="44.82494" lon="0.70566">
        <ele>99</ele>
        <time>2014-03-29T17:34:18.000Z</time>
      </trkpt>
      <trkpt lat="44.82494" lon="0.70566">
        <ele>99</ele>
        <time>2014-03-29T17:34:20.000Z</time>
      </trkpt>
      <trkpt lat="44.82494" lon="0.70566">
        <ele>99</ele>
        <time>2014-03-29T17:34:22.000Z</time>
      </trkpt>
      <trkpt lat="44.82494" lon="0.70566">
        <ele>99</ele>
        <time>2014-03-29T17:34:24.000Z</time>
      </trkpt>
      <trkpt lat="44.82469" lon="0.7056">
        <ele>99</ele>
        <time>2014-03-29T17:34:26.000Z</time>
      </trkpt>
      <trkpt lat="44.82455" lon="0.70557">
        <ele>99</ele>
        <time>2014-03-29T17:34:28.000Z</time>
      </trkpt>
      <trkpt lat="44.82446" lon="0.70553">
        <ele>98</ele>
        <time>2014-03-29T17:34:30.000Z</time>
      </trkpt>
      <trkpt lat="44.8244" lon="0.70549">
        <ele>99</ele>
        <time>2014-03-29T17:34:32.000Z</time>
      </trkpt>
      <trkpt lat="44.82436" lon="0.70545">
        <ele>100</ele>
        <time>2014-03-29T17:34:34.000Z</time>
      </trkpt>
      <trkpt lat="44.82428" lon="0.70537">
        <ele>101</ele>
        <time>2014-03-29T17:34:36.000Z</time>
      </trkpt>
      <trkpt lat="44.82428" lon="0.70537">
        <ele>101</ele>
        <time>2014-03-29T17:34:38.000Z</time>
      </trkpt>
      <trkpt lat="44.82428" lon="0.70537">
        <ele>101</ele>
        <time>2014-03-29T17:34:40.000Z</time>
      </trkpt>
      <trkpt lat="44.82428" lon="0.70537">
        <ele>101</ele>
        <time>2014-03-29T17:34:42.000Z</time>
      </trkpt>
      <trkpt lat="44.82428" lon="0.70537">
        <ele>101</ele>
        <time>2014-03-29T17:34:44.000Z</time>
      </trkpt>
      <trkpt lat="44.82428" lon="0.70537">
        <ele>101</ele>
        <time>2014-03-29T17:34:46.000Z</time>
      </trkpt>
      <trkpt lat="44.82428" lon="0.70537">
        <ele>101</ele>
        <time>2014-03-29T17:34:48.000Z</time>
      </trkpt>
      <trkpt lat="44.82428" lon="0.70537">
        <ele>101</ele>
        <time>2014-03-29T17:34:50.000Z</time>
      </trkpt>
      <trkpt lat="44.82428" lon="0.70537">
        <ele>101</ele>
        <time>2014-03-29T17:34:54.000Z</time>
      </trkpt>
      <trkpt lat="44.82428" lon="0.70537">
        <ele>101</ele>
        <time>2014-03-29T17:34:56.000Z</time>
      </trkpt>
      <trkpt lat="44.82407" lon="0.70491">
        <ele>107</ele>
        <time>2014-03-29T17:35:00.000Z</time>
      </trkpt>
      <trkpt lat="44.82407" lon="0.70491">
        <ele>107</ele>
        <time>2014-03-29T17:35:02.000Z</time>
      </trkpt>
      <trkpt lat="44.82407" lon="0.70491">
        <ele>107</ele>
        <time>2014-03-29T17:35:04.000Z</time>
      </trkpt>
      <trkpt lat="44.82407" lon="0.70491">
        <ele>107</ele>
        <time>2014-03-29T17:35:06.000Z</time>
      </trkpt>
      <trkpt lat="44.82405" lon="0.70477">
        <ele>106</ele>
        <time>2014-03-29T17:35:08.000Z</time>
      </trkpt>
      <trkpt lat="44.82404" lon="0.70461">
        <ele>105</ele>
        <time>2014-03-29T17:35:16.000Z</time>
      </trkpt>
      <trkpt lat="44.82404" lon="0.70461">
        <ele>105</ele>
        <time>2014-03-29T17:35:18.000Z</time>
      </trkpt>
      <trkpt lat="44.82404" lon="0.70461">
        <ele>105</ele>
        <time>2014-03-29T17:35:20.000Z</time>
      </trkpt>
      <trkpt lat="44.82397" lon="0.70446">
        <ele>102</ele>
        <time>2014-03-29T17:35:24.000Z</time>
      </trkpt>
      <trkpt lat="44.82391" lon="0.70436">
        <ele>102</ele>
        <time>2014-03-29T17:35:30.000Z</time>
      </trkpt>
      <trkpt lat="44.82391" lon="0.70436">
        <ele>102</ele>
        <time>2014-03-29T17:35:34.000Z</time>
      </trkpt>
      <trkpt lat="44.82378" lon="0.70406">
        <ele>104</ele>
        <time>2014-03-29T17:35:42.000Z</time>
      </trkpt>
      <trkpt lat="44.82374" lon="0.70393">
        <ele>106</ele>
        <time>2014-03-29T17:35:48.000Z</time>
      </trkpt>
      <trkpt lat="44.82374" lon="0.70393">
        <ele>106</ele>
        <time>2014-03-29T17:35:50.000Z</time>
      </trkpt>
      <trkpt lat="44.82371" lon="0.70386">
        <ele>106</ele>
        <time>2014-03-29T17:35:54.000Z</time>
      </trkpt>
      <trkpt lat="44.82368" lon="0.70379">
        <ele>105</ele>
        <time>2014-03-29T17:35:56.000Z</time>
      </trkpt>
      <trkpt lat="44.82366" lon="0.70372">
        <ele>105</ele>
        <time>2014-03-29T17:35:58.000Z</time>
      </trkpt>
      <trkpt lat="44.82366" lon="0.70372">
        <ele>105</ele>
        <time>2014-03-29T17:36:00.000Z</time>
      </trkpt>
      <trkpt lat="44.82366" lon="0.70372">
        <ele>105</ele>
        <time>2014-03-29T17:36:02.000Z</time>
      </trkpt>
      <trkpt lat="44.82366" lon="0.70372">
        <ele>105</ele>
        <time>2014-03-29T17:36:04.000Z</time>
      </trkpt>
      <trkpt lat="44.82366" lon="0.70372">
        <ele>105</ele>
        <time>2014-03-29T17:36:06.000Z</time>
      </trkpt>
      <trkpt lat="44.82355" lon="0.70358">
        <ele>98</ele>
        <time>2014-03-29T17:36:14.000Z</time>
      </trkpt>
      <trkpt lat="44.82346" lon="0.70351">
        <ele>99</ele>
        <time>2014-03-29T17:36:16.000Z</time>
      </trkpt>
      <trkpt lat="44.8234" lon="0.70348">
        <ele>98</ele>
        <time>2014-03-29T17:36:18.000Z</time>
      </trkpt>
      <trkpt lat="44.82335" lon="0.70348">
        <ele>99</ele>
        <time>2014-03-29T17:36:20.000Z</time>
      </trkpt>
      <trkpt lat="44.8233" lon="0.70348">
        <ele>99</ele>
        <time>2014-03-29T17:36:22.000Z</time>
      </trkpt>
      <trkpt lat="44.8233" lon="0.70348">
        <ele>99</ele>
        <time>2014-03-29T17:36:24.000Z</time>
      </trkpt>
      <trkpt lat="44.8233" lon="0.70348">
        <ele>99</ele>
        <time>2014-03-29T17:36:26.000Z</time>
      </trkpt>
      <trkpt lat="44.82302" lon="0.70348">
        <ele>92</ele>
        <time>2014-03-29T17:36:32.000Z</time>
      </trkpt>
      <trkpt lat="44.82293" lon="0.70353">
        <ele>92</ele>
        <time>2014-03-29T17:36:38.000Z</time>
      </trkpt>
      <trkpt lat="44.82293" lon="0.70353">
        <ele>92</ele>
        <time>2014-03-29T17:36:40.000Z</time>
      </trkpt>
      <trkpt lat="44.82293" lon="0.70353">
        <ele>92</ele>
        <time>2014-03-29T17:36:42.000Z</time>
      </trkpt>
      <trkpt lat="44.82287" lon="0.7037">
        <ele>96</ele>
        <time>2014-03-29T17:36:50.000Z</time>
      </trkpt>
      <trkpt lat="44.82286" lon="0.70384">
        <ele>92</ele>
        <time>2014-03-29T17:36:58.000Z</time>
      </trkpt>
      <trkpt lat="44.82286" lon="0.70384">
        <ele>92</ele>
        <time>2014-03-29T17:37:00.000Z</time>
      </trkpt>
      <trkpt lat="44.82286" lon="0.70384">
        <ele>92</ele>
        <time>2014-03-29T17:37:02.000Z</time>
      </trkpt>
      <trkpt lat="44.82286" lon="0.70384">
        <ele>92</ele>
        <time>2014-03-29T17:37:04.000Z</time>
      </trkpt>
      <trkpt lat="44.82286" lon="0.70384">
        <ele>92</ele>
        <time>2014-03-29T17:37:06.000Z</time>
      </trkpt>
      <trkpt lat="44.82286" lon="0.70384">
        <ele>92</ele>
        <time>2014-03-29T17:37:08.000Z</time>
      </trkpt>
      <trkpt lat="44.82283" lon="0.7042">
        <ele>94</ele>
        <time>2014-03-29T17:37:12.000Z</time>
      </trkpt>
      <trkpt lat="44.82285" lon="0.70436">
        <ele>96</ele>
        <time>2014-03-29T17:37:18.000Z</time>
      </trkpt>
      <trkpt lat="44.82283" lon="0.70449">
        <ele>92</ele>
        <time>2014-03-29T17:37:24.000Z</time>
      </trkpt>
      <trkpt lat="44.82283" lon="0.70449">
        <ele>92</ele>
        <time>2014-03-29T17:37:26.000Z</time>
      </trkpt>
      <trkpt lat="44.82283" lon="0.70449">
        <ele>92</ele>
        <time>2014-03-29T17:37:28.000Z</time>
      </trkpt>
      <trkpt lat="44.82281" lon="0.70465">
        <ele>93</ele>
        <time>2014-03-29T17:37:30.000Z</time>
      </trkpt>
      <trkpt lat="44.82281" lon="0.70465">
        <ele>93</ele>
        <time>2014-03-29T17:37:36.000Z</time>
      </trkpt>
      <trkpt lat="44.82281" lon="0.70465">
        <ele>93</ele>
        <time>2014-03-29T17:37:38.000Z</time>
      </trkpt>
      <trkpt lat="44.82281" lon="0.70465">
        <ele>93</ele>
        <time>2014-03-29T17:37:40.000Z</time>
      </trkpt>
      <trkpt lat="44.82281" lon="0.70482">
        <ele>90</ele>
        <time>2014-03-29T17:37:44.000Z</time>
      </trkpt>
      <trkpt lat="44.82281" lon="0.70493">
        <ele>90</ele>
        <time>2014-03-29T17:37:46.000Z</time>
      </trkpt>
      <trkpt lat="44.82282" lon="0.70504">
        <ele>92</ele>
        <time>2014-03-29T17:37:48.000Z</time>
      </trkpt>
      <trkpt lat="44.82281" lon="0.70513">
        <ele>95</ele>
        <time>2014-03-29T17:37:50.000Z</time>
      </trkpt>
      <trkpt lat="44.82282" lon="0.7052">
        <ele>96</ele>
        <time>2014-03-29T17:37:52.000Z</time>
      </trkpt>
      <trkpt lat="44.82282" lon="0.7052">
        <ele>96</ele>
        <time>2014-03-29T17:37:54.000Z</time>
      </trkpt>
      <trkpt lat="44.82282" lon="0.7052">
        <ele>96</ele>
        <time>2014-03-29T17:37:56.000Z</time>
      </trkpt>
      <trkpt lat="44.82282" lon="0.7052">
        <ele>96</ele>
        <time>2014-03-29T17:37:58.000Z</time>
      </trkpt>
      <trkpt lat="44.82308" lon="0.70527">
        <ele>93</ele>
        <time>2014-03-29T17:38:04.000Z</time>
      </trkpt>
      <trkpt lat="44.82308" lon="0.70527">
        <ele>93</ele>
        <time>2014-03-29T17:38:06.000Z</time>
      </trkpt>
      <trkpt lat="44.82308" lon="0.70527">
        <ele>93</ele>
        <time>2014-03-29T17:38:08.000Z</time>
      </trkpt>
      <trkpt lat="44.82308" lon="0.70527">
        <ele>93</ele>
        <time>2014-03-29T17:38:10.000Z</time>
      </trkpt>
      <trkpt lat="44.82308" lon="0.70527">
        <ele>93</ele>
        <time>2014-03-29T17:38:12.000Z</time>
      </trkpt>
      <trkpt lat="44.82331" lon="0.70535">
        <ele>89</ele>
        <time>2014-03-29T17:38:18.000Z</time>
      </trkpt>
      <trkpt lat="44.8234" lon="0.70542">
        <ele>91</ele>
        <time>2014-03-29T17:38:22.000Z</time>
      </trkpt>
      <trkpt lat="44.82349" lon="0.7055">
        <ele>91</ele>
        <time>2014-03-29T17:38:28.000Z</time>
      </trkpt>
      <trkpt lat="44.82349" lon="0.7055">
        <ele>91</ele>
        <time>2014-03-29T17:38:30.000Z</time>
      </trkpt>
      <trkpt lat="44.82356" lon="0.70567">
        <ele>93</ele>
        <time>2014-03-29T17:38:34.000Z</time>
      </trkpt>
      <trkpt lat="44.82362" lon="0.70584">
        <ele>95</ele>
        <time>2014-03-29T17:38:40.000Z</time>
      </trkpt>
      <trkpt lat="44.82362" lon="0.70584">
        <ele>95</ele>
        <time>2014-03-29T17:38:44.000Z</time>
      </trkpt>
      <trkpt lat="44.82362" lon="0.70584">
        <ele>95</ele>
        <time>2014-03-29T17:38:46.000Z</time>
      </trkpt>
      <trkpt lat="44.82362" lon="0.70584">
        <ele>95</ele>
        <time>2014-03-29T17:38:48.000Z</time>
      </trkpt>
      <trkpt lat="44.82382" lon="0.70606">
        <ele>95</ele>
        <time>2014-03-29T17:38:54.000Z</time>
      </trkpt>
      <trkpt lat="44.82382" lon="0.70606">
        <ele>95</ele>
        <time>2014-03-29T17:38:58.000Z</time>
      </trkpt>
      <trkpt lat="44.82382" lon="0.70606">
        <ele>95</ele>
        <time>2014-03-29T17:39:00.000Z</time>
      </trkpt>
      <trkpt lat="44.82382" lon="0.70606">
        <ele>95</ele>
        <time>2014-03-29T17:39:02.000Z</time>
      </trkpt>
      <trkpt lat="44.82399" lon="0.70606">
        <ele>95</ele>
        <time>2014-03-29T17:39:04.000Z</time>
      </trkpt>
      <trkpt lat="44.82399" lon="0.70606">
        <ele>95</ele>
        <time>2014-03-29T17:39:12.000Z</time>
      </trkpt>
      <trkpt lat="44.82399" lon="0.70606">
        <ele>95</ele>
        <time>2014-03-29T17:39:14.000Z</time>
      </trkpt>
      <trkpt lat="44.82399" lon="0.70606">
        <ele>95</ele>
        <time>2014-03-29T17:39:16.000Z</time>
      </trkpt>
      <trkpt lat="44.82399" lon="0.70606">
        <ele>95</ele>
        <time>2014-03-29T17:39:18.000Z</time>
      </trkpt>
      <trkpt lat="44.82416" lon="0.70612">
        <ele>100</ele>
        <time>2014-03-29T17:39:22.000Z</time>
      </trkpt>
      <trkpt lat="44.82425" lon="0.70615">
        <ele>98</ele>
        <time>2014-03-29T17:39:24.000Z</time>
      </trkpt>
      <trkpt lat="44.82434" lon="0.7062">
        <ele>97</ele>
        <time>2014-03-29T17:39:28.000Z</time>
      </trkpt>
      <trkpt lat="44.82439" lon="0.70624">
        <ele>97</ele>
        <time>2014-03-29T17:39:30.000Z</time>
      </trkpt>
      <trkpt lat="44.82439" lon="0.70624">
        <ele>97</ele>
        <time>2014-03-29T17:39:32.000Z</time>
      </trkpt>
      <trkpt lat="44.82446" lon="0.70632">
        <ele>95</ele>
        <time>2014-03-29T17:39:34.000Z</time>
      </trkpt>
      <trkpt lat="44.82446" lon="0.70632">
        <ele>95</ele>
        <time>2014-03-29T17:39:36.000Z</time>
      </trkpt>
      <trkpt lat="44.82454" lon="0.70638">
        <ele>92</ele>
        <time>2014-03-29T17:39:38.000Z</time>
      </trkpt>
      <trkpt lat="44.82454" lon="0.70638">
        <ele>92</ele>
        <time>2014-03-29T17:39:41.000Z</time>
      </trkpt>
      <trkpt lat="44.82454" lon="0.70638">
        <ele>92</ele>
        <time>2014-03-29T17:39:43.000Z</time>
      </trkpt>
      <trkpt lat="44.82454" lon="0.70638">
        <ele>92</ele>
        <time>2014-03-29T17:39:45.000Z</time>
      </trkpt>
      <trkpt lat="44.82454" lon="0.70638">
        <ele>92</ele>
        <time>2014-03-29T17:39:47.000Z</time>
      </trkpt>
      <trkpt lat="44.82454" lon="0.70638">
        <ele>92</ele>
        <time>2014-03-29T17:39:49.000Z</time>
      </trkpt>
      <trkpt lat="44.82469" lon="0.70647">
        <ele>95</ele>
        <time>2014-03-29T17:39:53.000Z</time>
      </trkpt>
      <trkpt lat="44.82478" lon="0.70653">
        <ele>94</ele>
        <time>2014-03-29T17:39:55.000Z</time>
      </trkpt>
      <trkpt lat="44.82484" lon="0.70658">
        <ele>94</ele>
        <time>2014-03-29T17:39:57.000Z</time>
      </trkpt>
      <trkpt lat="44.82489" lon="0.70661">
        <ele>93</ele>
        <time>2014-03-29T17:39:59.000Z</time>
      </trkpt>
      <trkpt lat="44.82489" lon="0.70661">
        <ele>93</ele>
        <time>2014-03-29T17:40:01.000Z</time>
      </trkpt>
      <trkpt lat="44.82494" lon="0.70666">
        <ele>92</ele>
        <time>2014-03-29T17:40:03.000Z</time>
      </trkpt>
      <trkpt lat="44.82494" lon="0.70666">
        <ele>92</ele>
        <time>2014-03-29T17:40:05.000Z</time>
      </trkpt>
      <trkpt lat="44.825" lon="0.7067">
        <ele>90</ele>
        <time>2014-03-29T17:40:07.000Z</time>
      </trkpt>
      <trkpt lat="44.82505" lon="0.70674">
        <ele>89</ele>
        <time>2014-03-29T17:40:09.000Z</time>
      </trkpt>
      <trkpt lat="44.82509" lon="0.70678">
        <ele>89</ele>
        <time>2014-03-29T17:40:11.000Z</time>
      </trkpt>
      <trkpt lat="44.82512" lon="0.70682">
        <ele>88</ele>
        <time>2014-03-29T17:40:13.000Z</time>
      </trkpt>
      <trkpt lat="44.82517" lon="0.70687">
        <ele>87</ele>
        <time>2014-03-29T17:40:17.000Z</time>
      </trkpt>
      <trkpt lat="44.82517" lon="0.70687">
        <ele>87</ele>
        <time>2014-03-29T17:40:19.000Z</time>
      </trkpt>
      <trkpt lat="44.82517" lon="0.70687">
        <ele>87</ele>
        <time>2014-03-29T17:40:21.000Z</time>
      </trkpt>
      <trkpt lat="44.82517" lon="0.70687">
        <ele>87</ele>
        <time>2014-03-29T17:40:23.000Z</time>
      </trkpt>
      <trkpt lat="44.8253" lon="0.70698">
        <ele>91</ele>
        <time>2014-03-29T17:40:27.000Z</time>
      </trkpt>
      <trkpt lat="44.82538" lon="0.70704">
        <ele>91</ele>
        <time>2014-03-29T17:40:29.000Z</time>
      </trkpt>
      <trkpt lat="44.82544" lon="0.70706">
        <ele>90</ele>
        <time>2014-03-29T17:40:31.000Z</time>
      </trkpt>
      <trkpt lat="44.82544" lon="0.70706">
        <ele>90</ele>
        <time>2014-03-29T17:40:33.000Z</time>
      </trkpt>
      <trkpt lat="44.82553" lon="0.70704">
        <ele>86</ele>
        <time>2014-03-29T17:40:39.000Z</time>
      </trkpt>
      <trkpt lat="44.8256" lon="0.70702">
        <ele>86</ele>
        <time>2014-03-29T17:40:41.000Z</time>
      </trkpt>
      <trkpt lat="44.82564" lon="0.707">
        <ele>88</ele>
        <time>2014-03-29T17:40:43.000Z</time>
      </trkpt>
      <trkpt lat="44.82564" lon="0.707">
        <ele>88</ele>
        <time>2014-03-29T17:40:45.000Z</time>
      </trkpt>
      <trkpt lat="44.82564" lon="0.707">
        <ele>88</ele>
        <time>2014-03-29T17:40:47.000Z</time>
      </trkpt>
      <trkpt lat="44.82575" lon="0.70693">
        <ele>90</ele>
        <time>2014-03-29T17:40:53.000Z</time>
      </trkpt>
      <trkpt lat="44.82582" lon="0.70689">
        <ele>89</ele>
        <time>2014-03-29T17:40:55.000Z</time>
      </trkpt>
      <trkpt lat="44.82589" lon="0.70686">
        <ele>90</ele>
        <time>2014-03-29T17:40:57.000Z</time>
      </trkpt>
      <trkpt lat="44.82595" lon="0.70684">
        <ele>89</ele>
        <time>2014-03-29T17:40:59.000Z</time>
      </trkpt>
      <trkpt lat="44.826" lon="0.70679">
        <ele>90</ele>
        <time>2014-03-29T17:41:03.000Z</time>
      </trkpt>
      <trkpt lat="44.826" lon="0.70679">
        <ele>90</ele>
        <time>2014-03-29T17:41:05.000Z</time>
      </trkpt>
      <trkpt lat="44.826" lon="0.70679">
        <ele>90</ele>
        <time>2014-03-29T17:41:07.000Z</time>
      </trkpt>
      <trkpt lat="44.826" lon="0.70679">
        <ele>90</ele>
        <time>2014-03-29T17:41:09.000Z</time>
      </trkpt>
      <trkpt lat="44.826" lon="0.70679">
        <ele>90</ele>
        <time>2014-03-29T17:41:15.000Z</time>
      </trkpt>
      <trkpt lat="44.826" lon="0.70679">
        <ele>90</ele>
        <time>2014-03-29T17:41:17.000Z</time>
      </trkpt>
      <trkpt lat="44.82615" lon="0.70664">
        <ele>95</ele>
        <time>2014-03-29T17:41:19.000Z</time>
      </trkpt>
      <trkpt lat="44.82624" lon="0.70654">
        <ele>94</ele>
        <time>2014-03-29T17:41:21.000Z</time>
      </trkpt>
      <trkpt lat="44.82629" lon="0.70648">
        <ele>92</ele>
        <time>2014-03-29T17:41:23.000Z</time>
      </trkpt>
      <trkpt lat="44.82634" lon="0.70643">
        <ele>92</ele>
        <time>2014-03-29T17:41:25.000Z</time>
      </trkpt>
      <trkpt lat="44.82634" lon="0.70643">
        <ele>92</ele>
        <time>2014-03-29T17:41:27.000Z</time>
      </trkpt>
      <trkpt lat="44.82634" lon="0.70643">
        <ele>92</ele>
        <time>2014-03-29T17:41:29.000Z</time>
      </trkpt>
      <trkpt lat="44.82634" lon="0.70643">
        <ele>92</ele>
        <time>2014-03-29T17:41:31.000Z</time>
      </trkpt>
      <trkpt lat="44.82634" lon="0.70643">
        <ele>92</ele>
        <time>2014-03-29T17:41:33.000Z</time>
      </trkpt>
      <trkpt lat="44.82634" lon="0.70643">
        <ele>92</ele>
        <time>2014-03-29T17:41:35.000Z</time>
      </trkpt>
      <trkpt lat="44.82646" lon="0.7063">
        <ele>91</ele>
        <time>2014-03-29T17:41:39.000Z</time>
      </trkpt>
      <trkpt lat="44.82653" lon="0.70622">
        <ele>92</ele>
        <time>2014-03-29T17:41:41.000Z</time>
      </trkpt>
      <trkpt lat="44.82659" lon="0.70616">
        <ele>92</ele>
        <time>2014-03-29T17:41:43.000Z</time>
      </trkpt>
      <trkpt lat="44.82664" lon="0.70611">
        <ele>91</ele>
        <time>2014-03-29T17:41:45.000Z</time>
      </trkpt>
      <trkpt lat="44.82668" lon="0.70608">
        <ele>91</ele>
        <time>2014-03-29T17:41:47.000Z</time>
      </trkpt>
      <trkpt lat="44.82676" lon="0.70601">
        <ele>92</ele>
        <time>2014-03-29T17:41:49.000Z</time>
      </trkpt>
      <trkpt lat="44.82687" lon="0.7059">
        <ele>91</ele>
        <time>2014-03-29T17:41:55.000Z</time>
      </trkpt>
      <trkpt lat="44.82687" lon="0.7059">
        <ele>91</ele>
        <time>2014-03-29T17:41:59.000Z</time>
      </trkpt>
      <trkpt lat="44.82687" lon="0.7059">
        <ele>91</ele>
        <time>2014-03-29T17:42:01.000Z</time>
      </trkpt>
      <trkpt lat="44.82687" lon="0.7059">
        <ele>91</ele>
        <time>2014-03-29T17:42:03.000Z</time>
      </trkpt>
      <trkpt lat="44.82687" lon="0.7059">
        <ele>91</ele>
        <time>2014-03-29T17:42:05.000Z</time>
      </trkpt>
      <trkpt lat="44.82687" lon="0.7059">
        <ele>91</ele>
        <time>2014-03-29T17:42:07.000Z</time>
      </trkpt>
      <trkpt lat="44.82687" lon="0.7059">
        <ele>91</ele>
        <time>2014-03-29T17:42:09.000Z</time>
      </trkpt>
      <trkpt lat="44.82711" lon="0.70557">
        <ele>89</ele>
        <time>2014-03-29T17:42:13.000Z</time>
      </trkpt>
      <trkpt lat="44.82715" lon="0.70544">
        <ele>87</ele>
        <time>2014-03-29T17:42:19.000Z</time>
      </trkpt>
      <trkpt lat="44.82715" lon="0.70544">
        <ele>87</ele>
        <time>2014-03-29T17:42:25.000Z</time>
      </trkpt>
      <trkpt lat="44.82729" lon="0.70517">
        <ele>85</ele>
        <time>2014-03-29T17:42:31.000Z</time>
      </trkpt>
      <trkpt lat="44.82734" lon="0.70505">
        <ele>84</ele>
        <time>2014-03-29T17:42:35.000Z</time>
      </trkpt>
      <trkpt lat="44.82744" lon="0.70496">
        <ele>87</ele>
        <time>2014-03-29T17:42:39.000Z</time>
      </trkpt>
      <trkpt lat="44.8275" lon="0.70485">
        <ele>84</ele>
        <time>2014-03-29T17:42:43.000Z</time>
      </trkpt>
      <trkpt lat="44.8275" lon="0.70485">
        <ele>84</ele>
        <time>2014-03-29T17:42:45.000Z</time>
      </trkpt>
      <trkpt lat="44.8275" lon="0.70485">
        <ele>84</ele>
        <time>2014-03-29T17:42:47.000Z</time>
      </trkpt>
      <trkpt lat="44.8275" lon="0.70485">
        <ele>84</ele>
        <time>2014-03-29T17:42:49.000Z</time>
      </trkpt>
      <trkpt lat="44.8275" lon="0.70485">
        <ele>84</ele>
        <time>2014-03-29T17:42:51.000Z</time>
      </trkpt>
      <trkpt lat="44.82767" lon="0.70457">
        <ele>78</ele>
        <time>2014-03-29T17:42:57.000Z</time>
      </trkpt>
      <trkpt lat="44.82777" lon="0.70443">
        <ele>77</ele>
        <time>2014-03-29T17:43:03.000Z</time>
      </trkpt>
      <trkpt lat="44.82777" lon="0.70443">
        <ele>77</ele>
        <time>2014-03-29T17:43:07.000Z</time>
      </trkpt>
      <trkpt lat="44.82777" lon="0.70443">
        <ele>77</ele>
        <time>2014-03-29T17:43:09.000Z</time>
      </trkpt>
      <trkpt lat="44.82777" lon="0.70443">
        <ele>77</ele>
        <time>2014-03-29T17:43:11.000Z</time>
      </trkpt>
      <trkpt lat="44.82777" lon="0.70443">
        <ele>77</ele>
        <time>2014-03-29T17:43:17.000Z</time>
      </trkpt>
      <trkpt lat="44.82777" lon="0.70443">
        <ele>77</ele>
        <time>2014-03-29T17:43:19.000Z</time>
      </trkpt>
      <trkpt lat="44.82777" lon="0.70443">
        <ele>77</ele>
        <time>2014-03-29T17:43:21.000Z</time>
      </trkpt>
      <trkpt lat="44.82777" lon="0.70443">
        <ele>77</ele>
        <time>2014-03-29T17:43:23.000Z</time>
      </trkpt>
      <trkpt lat="44.82777" lon="0.70443">
        <ele>77</ele>
        <time>2014-03-29T17:43:25.000Z</time>
      </trkpt>
      <trkpt lat="44.82777" lon="0.70443">
        <ele>77</ele>
        <time>2014-03-29T17:43:27.000Z</time>
      </trkpt>
      <trkpt lat="44.82804" lon="0.7043">
        <ele>87</ele>
        <time>2014-03-29T17:43:29.000Z</time>
      </trkpt>
      <trkpt lat="44.82822" lon="0.70424">
        <ele>90</ele>
        <time>2014-03-29T17:43:31.000Z</time>
      </trkpt>
      <trkpt lat="44.82832" lon="0.70419">
        <ele>89</ele>
        <time>2014-03-29T17:43:33.000Z</time>
      </trkpt>
      <trkpt lat="44.82841" lon="0.70414">
        <ele>91</ele>
        <time>2014-03-29T17:43:35.000Z</time>
      </trkpt>
      <trkpt lat="44.82848" lon="0.70411">
        <ele>90</ele>
        <time>2014-03-29T17:43:37.000Z</time>
      </trkpt>
      <trkpt lat="44.82857" lon="0.70408">
        <ele>90</ele>
        <time>2014-03-29T17:43:39.000Z</time>
      </trkpt>
      <trkpt lat="44.82857" lon="0.70408">
        <ele>90</ele>
        <time>2014-03-29T17:43:41.000Z</time>
      </trkpt>
      <trkpt lat="44.82857" lon="0.70408">
        <ele>90</ele>
        <time>2014-03-29T17:43:43.000Z</time>
      </trkpt>
      <trkpt lat="44.82857" lon="0.70408">
        <ele>90</ele>
        <time>2014-03-29T17:43:45.000Z</time>
      </trkpt>
      <trkpt lat="44.82857" lon="0.70408">
        <ele>90</ele>
        <time>2014-03-29T17:43:47.000Z</time>
      </trkpt>
      <trkpt lat="44.82857" lon="0.70408">
        <ele>90</ele>
        <time>2014-03-29T17:43:49.000Z</time>
      </trkpt>
      <trkpt lat="44.82857" lon="0.70408">
        <ele>90</ele>
        <time>2014-03-29T17:43:51.000Z</time>
      </trkpt>
      <trkpt lat="44.82857" lon="0.70408">
        <ele>90</ele>
        <time>2014-03-29T17:43:53.000Z</time>
      </trkpt>
      <trkpt lat="44.82857" lon="0.70408">
        <ele>90</ele>
        <time>2014-03-29T17:43:55.000Z</time>
      </trkpt>
      <trkpt lat="44.82857" lon="0.70408">
        <ele>90</ele>
        <time>2014-03-29T17:43:57.000Z</time>
      </trkpt>
      <trkpt lat="44.82857" lon="0.70408">
        <ele>90</ele>
        <time>2014-03-29T17:43:59.000Z</time>
      </trkpt>
      <trkpt lat="44.82857" lon="0.70408">
        <ele>90</ele>
        <time>2014-03-29T17:44:03.000Z</time>
      </trkpt>
      <trkpt lat="44.82857" lon="0.70408">
        <ele>90</ele>
        <time>2014-03-29T17:44:05.000Z</time>
      </trkpt>
      <trkpt lat="44.82857" lon="0.70408">
        <ele>90</ele>
        <time>2014-03-29T17:44:07.000Z</time>
      </trkpt>
      <trkpt lat="44.82857" lon="0.70408">
        <ele>90</ele>
        <time>2014-03-29T17:44:09.000Z</time>
      </trkpt>
      <trkpt lat="44.82857" lon="0.70408">
        <ele>90</ele>
        <time>2014-03-29T17:44:13.000Z</time>
      </trkpt>
      <trkpt lat="44.82857" lon="0.70408">
        <ele>90</ele>
        <time>2014-03-29T17:44:15.000Z</time>
      </trkpt>
      <trkpt lat="44.82857" lon="0.70408">
        <ele>90</ele>
        <time>2014-03-29T17:44:17.000Z</time>
      </trkpt>
      <trkpt lat="44.82914" lon="0.70383">
        <ele>88</ele>
        <time>2014-03-29T17:44:21.000Z</time>
      </trkpt>
      <trkpt lat="44.82914" lon="0.70383">
        <ele>88</ele>
        <time>2014-03-29T17:44:27.000Z</time>
      </trkpt>
      <trkpt lat="44.82925" lon="0.70377">
        <ele>85</ele>
        <time>2014-03-29T17:44:29.000Z</time>
      </trkpt>
      <trkpt lat="44.82935" lon="0.70375">
        <ele>86</ele>
        <time>2014-03-29T17:44:35.000Z</time>
      </trkpt>
      <trkpt lat="44.82946" lon="0.70376">
        <ele>85</ele>
        <time>2014-03-29T17:44:41.000Z</time>
      </trkpt>
      <trkpt lat="44.82956" lon="0.70374">
        <ele>87</ele>
        <time>2014-03-29T17:44:45.000Z</time>
      </trkpt>
      <trkpt lat="44.82961" lon="0.70372">
        <ele>90</ele>
        <time>2014-03-29T17:44:51.000Z</time>
      </trkpt>
      <trkpt lat="44.82961" lon="0.70372">
        <ele>90</ele>
        <time>2014-03-29T17:44:53.000Z</time>
      </trkpt>
      <trkpt lat="44.82961" lon="0.70372">
        <ele>90</ele>
        <time>2014-03-29T17:44:55.000Z</time>
      </trkpt>
      <trkpt lat="44.82961" lon="0.70372">
        <ele>90</ele>
        <time>2014-03-29T17:44:57.000Z</time>
      </trkpt>
      <trkpt lat="44.82961" lon="0.70372">
        <ele>90</ele>
        <time>2014-03-29T17:44:59.000Z</time>
      </trkpt>
      <trkpt lat="44.82961" lon="0.70372">
        <ele>90</ele>
        <time>2014-03-29T17:45:01.000Z</time>
      </trkpt>
      <trkpt lat="44.82978" lon="0.70375">
        <ele>94</ele>
        <time>2014-03-29T17:45:05.000Z</time>
      </trkpt>
      <trkpt lat="44.82988" lon="0.70377">
        <ele>93</ele>
        <time>2014-03-29T17:45:07.000Z</time>
      </trkpt>
      <trkpt lat="44.82995" lon="0.70378">
        <ele>91</ele>
        <time>2014-03-29T17:45:09.000Z</time>
      </trkpt>
      <trkpt lat="44.82995" lon="0.70378">
        <ele>91</ele>
        <time>2014-03-29T17:45:11.000Z</time>
      </trkpt>
      <trkpt lat="44.82995" lon="0.70378">
        <ele>91</ele>
        <time>2014-03-29T17:45:13.000Z</time>
      </trkpt>
      <trkpt lat="44.83007" lon="0.70382">
        <ele>95</ele>
        <time>2014-03-29T17:45:19.000Z</time>
      </trkpt>
      <trkpt lat="44.83016" lon="0.70384">
        <ele>95</ele>
        <time>2014-03-29T17:45:21.000Z</time>
      </trkpt>
      <trkpt lat="44.83021" lon="0.70383">
        <ele>90</ele>
        <time>2014-03-29T17:45:23.000Z</time>
      </trkpt>
      <trkpt lat="44.83026" lon="0.70384">
        <ele>93</ele>
        <time>2014-03-29T17:45:25.000Z</time>
      </trkpt>
      <trkpt lat="44.83026" lon="0.70384">
        <ele>93</ele>
        <time>2014-03-29T17:45:27.000Z</time>
      </trkpt>
      <trkpt lat="44.83026" lon="0.70384">
        <ele>93</ele>
        <time>2014-03-29T17:45:29.000Z</time>
      </trkpt>
      <trkpt lat="44.83039" lon="0.70386">
        <ele>94</ele>
        <time>2014-03-29T17:45:35.000Z</time>
      </trkpt>
      <trkpt lat="44.83048" lon="0.70386">
        <ele>94</ele>
        <time>2014-03-29T17:45:37.000Z</time>
      </trkpt>
      <trkpt lat="44.83048" lon="0.70386">
        <ele>94</ele>
        <time>2014-03-29T17:45:39.000Z</time>
      </trkpt>
      <trkpt lat="44.83057" lon="0.70387">
        <ele>98</ele>
        <time>2014-03-29T17:45:41.000Z</time>
      </trkpt>
      <trkpt lat="44.83063" lon="0.70388">
        <ele>96</ele>
        <time>2014-03-29T17:45:43.000Z</time>
      </trkpt>
      <trkpt lat="44.83068" lon="0.70388">
        <ele>95</ele>
        <time>2014-03-29T17:45:45.000Z</time>
      </trkpt>
      <trkpt lat="44.83073" lon="0.70388">
        <ele>94</ele>
        <time>2014-03-29T17:45:47.000Z</time>
      </trkpt>
      <trkpt lat="44.83073" lon="0.70388">
        <ele>94</ele>
        <time>2014-03-29T17:45:49.000Z</time>
      </trkpt>
      <trkpt lat="44.83083" lon="0.7039">
        <ele>95</ele>
        <time>2014-03-29T17:45:55.000Z</time>
      </trkpt>
      <trkpt lat="44.83091" lon="0.70391">
        <ele>96</ele>
        <time>2014-03-29T17:45:57.000Z</time>
      </trkpt>
      <trkpt lat="44.83097" lon="0.70392">
        <ele>94</ele>
        <time>2014-03-29T17:45:59.000Z</time>
      </trkpt>
      <trkpt lat="44.83102" lon="0.70393">
        <ele>94</ele>
        <time>2014-03-29T17:46:01.000Z</time>
      </trkpt>
      <trkpt lat="44.83107" lon="0.70394">
        <ele>93</ele>
        <time>2014-03-29T17:46:03.000Z</time>
      </trkpt>
      <trkpt lat="44.83107" lon="0.70394">
        <ele>93</ele>
        <time>2014-03-29T17:46:05.000Z</time>
      </trkpt>
      <trkpt lat="44.83107" lon="0.70394">
        <ele>93</ele>
        <time>2014-03-29T17:46:09.000Z</time>
      </trkpt>
      <trkpt lat="44.83107" lon="0.70394">
        <ele>93</ele>
        <time>2014-03-29T17:46:11.000Z</time>
      </trkpt>
      <trkpt lat="44.83107" lon="0.70394">
        <ele>93</ele>
        <time>2014-03-29T17:46:13.000Z</time>
      </trkpt>
      <trkpt lat="44.83107" lon="0.70394">
        <ele>93</ele>
        <time>2014-03-29T17:46:15.000Z</time>
      </trkpt>
      <trkpt lat="44.83143" lon="0.70404">
        <ele>93</ele>
        <time>2014-03-29T17:46:19.000Z</time>
      </trkpt>
      <trkpt lat="44.83143" lon="0.70404">
        <ele>93</ele>
        <time>2014-03-29T17:46:21.000Z</time>
      </trkpt>
      <trkpt lat="44.83143" lon="0.70404">
        <ele>93</ele>
        <time>2014-03-29T17:46:23.000Z</time>
      </trkpt>
      <trkpt lat="44.83143" lon="0.70404">
        <ele>93</ele>
        <time>2014-03-29T17:46:25.000Z</time>
      </trkpt>
      <trkpt lat="44.83143" lon="0.70404">
        <ele>93</ele>
        <time>2014-03-29T17:46:27.000Z</time>
      </trkpt>
      <trkpt lat="44.83143" lon="0.70404">
        <ele>93</ele>
        <time>2014-03-29T17:46:29.000Z</time>
      </trkpt>
      <trkpt lat="44.83166" lon="0.7041">
        <ele>92</ele>
        <time>2014-03-29T17:46:31.000Z</time>
      </trkpt>
      <trkpt lat="44.83179" lon="0.70413">
        <ele>92</ele>
        <time>2014-03-29T17:46:37.000Z</time>
      </trkpt>
      <trkpt lat="44.83179" lon="0.70413">
        <ele>92</ele>
        <time>2014-03-29T17:46:39.000Z</time>
      </trkpt>
      <trkpt lat="44.83179" lon="0.70413">
        <ele>92</ele>
        <time>2014-03-29T17:46:41.000Z</time>
      </trkpt>
      <trkpt lat="44.83179" lon="0.70413">
        <ele>92</ele>
        <time>2014-03-29T17:46:43.000Z</time>
      </trkpt>
      <trkpt lat="44.83179" lon="0.70413">
        <ele>92</ele>
        <time>2014-03-29T17:46:45.000Z</time>
      </trkpt>
      <trkpt lat="44.83179" lon="0.70413">
        <ele>92</ele>
        <time>2014-03-29T17:46:47.000Z</time>
      </trkpt>
      <trkpt lat="44.83179" lon="0.70413">
        <ele>92</ele>
        <time>2014-03-29T17:46:49.000Z</time>
      </trkpt>
      <trkpt lat="44.83179" lon="0.70413">
        <ele>92</ele>
        <time>2014-03-29T17:46:51.000Z</time>
      </trkpt>
      <trkpt lat="44.83179" lon="0.70413">
        <ele>92</ele>
        <time>2014-03-29T17:46:53.000Z</time>
      </trkpt>
      <trkpt lat="44.83179" lon="0.70413">
        <ele>92</ele>
        <time>2014-03-29T17:46:55.000Z</time>
      </trkpt>
      <trkpt lat="44.83179" lon="0.70413">
        <ele>92</ele>
        <time>2014-03-29T17:46:57.000Z</time>
      </trkpt>
      <trkpt lat="44.83179" lon="0.70413">
        <ele>92</ele>
        <time>2014-03-29T17:46:59.000Z</time>
      </trkpt>
      <trkpt lat="44.83229" lon="0.70423">
        <ele>93</ele>
        <time>2014-03-29T17:47:01.000Z</time>
      </trkpt>
      <trkpt lat="44.83229" lon="0.70423">
        <ele>93</ele>
        <time>2014-03-29T17:47:05.000Z</time>
      </trkpt>
      <trkpt lat="44.83229" lon="0.70423">
        <ele>93</ele>
        <time>2014-03-29T17:47:07.000Z</time>
      </trkpt>
      <trkpt lat="44.83229" lon="0.70423">
        <ele>93</ele>
        <time>2014-03-29T17:47:09.000Z</time>
      </trkpt>
      <trkpt lat="44.83229" lon="0.70423">
        <ele>93</ele>
        <time>2014-03-29T17:47:11.000Z</time>
      </trkpt>
      <trkpt lat="44.83242" lon="0.70421">
        <ele>89</ele>
        <time>2014-03-29T17:47:15.000Z</time>
      </trkpt>
      <trkpt lat="44.83249" lon="0.70419">
        <ele>88</ele>
        <time>2014-03-29T17:47:17.000Z</time>
      </trkpt>
      <trkpt lat="44.83255" lon="0.70421">
        <ele>88</ele>
        <time>2014-03-29T17:47:19.000Z</time>
      </trkpt>
      <trkpt lat="44.8326" lon="0.70424">
        <ele>90</ele>
        <time>2014-03-29T17:47:21.000Z</time>
      </trkpt>
      <trkpt lat="44.83265" lon="0.70427">
        <ele>92</ele>
        <time>2014-03-29T17:47:23.000Z</time>
      </trkpt>
      <trkpt lat="44.83276" lon="0.70435">
        <ele>95</ele>
        <time>2014-03-29T17:47:25.000Z</time>
      </trkpt>
      <trkpt lat="44.83276" lon="0.70435">
        <ele>95</ele>
        <time>2014-03-29T17:47:29.000Z</time>
      </trkpt>
      <trkpt lat="44.83276" lon="0.70435">
        <ele>95</ele>
        <time>2014-03-29T17:47:31.000Z</time>
      </trkpt>
      <trkpt lat="44.83276" lon="0.70435">
        <ele>95</ele>
        <time>2014-03-29T17:47:33.000Z</time>
      </trkpt>
      <trkpt lat="44.83276" lon="0.70435">
        <ele>95</ele>
        <time>2014-03-29T17:47:35.000Z</time>
      </trkpt>
      <trkpt lat="44.83276" lon="0.70435">
        <ele>95</ele>
        <time>2014-03-29T17:47:37.000Z</time>
      </trkpt>
      <trkpt lat="44.83276" lon="0.70435">
        <ele>95</ele>
        <time>2014-03-29T17:47:39.000Z</time>
      </trkpt>
      <trkpt lat="44.83276" lon="0.70435">
        <ele>95</ele>
        <time>2014-03-29T17:47:41.000Z</time>
      </trkpt>
      <trkpt lat="44.83276" lon="0.70435">
        <ele>95</ele>
        <time>2014-03-29T17:47:43.000Z</time>
      </trkpt>
      <trkpt lat="44.83276" lon="0.70435">
        <ele>95</ele>
        <time>2014-03-29T17:47:45.000Z</time>
      </trkpt>
      <trkpt lat="44.83276" lon="0.70435">
        <ele>95</ele>
        <time>2014-03-29T17:47:47.000Z</time>
      </trkpt>
      <trkpt lat="44.8329" lon="0.70402">
        <ele>82</ele>
        <time>2014-03-29T17:48:15.000Z</time>
      </trkpt>
      <trkpt lat="44.83289" lon="0.70388">
        <ele>77</ele>
        <time>2014-03-29T17:48:21.000Z</time>
      </trkpt>
      <trkpt lat="44.8329" lon="0.70372">
        <ele>76</ele>
        <time>2014-03-29T17:48:27.000Z</time>
      </trkpt>
      <trkpt lat="44.83292" lon="0.70359">
        <ele>76</ele>
        <time>2014-03-29T17:48:31.000Z</time>
      </trkpt>
      <trkpt lat="44.83295" lon="0.70346">
        <ele>78</ele>
        <time>2014-03-29T17:48:35.000Z</time>
      </trkpt>
      <trkpt lat="44.833" lon="0.70333">
        <ele>82</ele>
        <time>2014-03-29T17:48:39.000Z</time>
      </trkpt>
      <trkpt lat="44.833" lon="0.70333">
        <ele>82</ele>
        <time>2014-03-29T17:48:41.000Z</time>
      </trkpt>
      <trkpt lat="44.83304" lon="0.70321">
        <ele>83</ele>
        <time>2014-03-29T17:48:43.000Z</time>
      </trkpt>
      <trkpt lat="44.83304" lon="0.70321">
        <ele>83</ele>
        <time>2014-03-29T17:48:51.000Z</time>
      </trkpt>
      <trkpt lat="44.83327" lon="0.70316">
        <ele>86</ele>
        <time>2014-03-29T17:48:57.000Z</time>
      </trkpt>
      <trkpt lat="44.83327" lon="0.70316">
        <ele>86</ele>
        <time>2014-03-29T17:49:01.000Z</time>
      </trkpt>
      <trkpt lat="44.83327" lon="0.70316">
        <ele>86</ele>
        <time>2014-03-29T17:49:03.000Z</time>
      </trkpt>
      <trkpt lat="44.83327" lon="0.70316">
        <ele>86</ele>
        <time>2014-03-29T17:49:09.000Z</time>
      </trkpt>
      <trkpt lat="44.83327" lon="0.70316">
        <ele>86</ele>
        <time>2014-03-29T17:49:11.000Z</time>
      </trkpt>
      <trkpt lat="44.83327" lon="0.70316">
        <ele>86</ele>
        <time>2014-03-29T17:49:13.000Z</time>
      </trkpt>
      <trkpt lat="44.83369" lon="0.70325">
        <ele>87</ele>
        <time>2014-03-29T17:49:19.000Z</time>
      </trkpt>
      <trkpt lat="44.83369" lon="0.70325">
        <ele>87</ele>
        <time>2014-03-29T17:49:21.000Z</time>
      </trkpt>
      <trkpt lat="44.83378" lon="0.70314">
        <ele>86</ele>
        <time>2014-03-29T17:49:25.000Z</time>
      </trkpt>
      <trkpt lat="44.83384" lon="0.70301">
        <ele>87</ele>
        <time>2014-03-29T17:49:29.000Z</time>
      </trkpt>
      <trkpt lat="44.8339" lon="0.7029">
        <ele>88</ele>
        <time>2014-03-29T17:49:33.000Z</time>
      </trkpt>
      <trkpt lat="44.8339" lon="0.7029">
        <ele>88</ele>
        <time>2014-03-29T17:49:35.000Z</time>
      </trkpt>
      <trkpt lat="44.8339" lon="0.7029">
        <ele>88</ele>
        <time>2014-03-29T17:49:37.000Z</time>
      </trkpt>
      <trkpt lat="44.8339" lon="0.7029">
        <ele>88</ele>
        <time>2014-03-29T17:49:39.000Z</time>
      </trkpt>
      <trkpt lat="44.8339" lon="0.7029">
        <ele>88</ele>
        <time>2014-03-29T17:49:43.000Z</time>
      </trkpt>
      <trkpt lat="44.8339" lon="0.7029">
        <ele>88</ele>
        <time>2014-03-29T17:49:45.000Z</time>
      </trkpt>
      <trkpt lat="44.8339" lon="0.7029">
        <ele>88</ele>
        <time>2014-03-29T17:49:47.000Z</time>
      </trkpt>
      <trkpt lat="44.83395" lon="0.70264">
        <ele>93</ele>
        <time>2014-03-29T17:49:53.000Z</time>
      </trkpt>
      <trkpt lat="44.83397" lon="0.70248">
        <ele>94</ele>
        <time>2014-03-29T17:49:55.000Z</time>
      </trkpt>
      <trkpt lat="44.834" lon="0.70237">
        <ele>94</ele>
        <time>2014-03-29T17:49:57.000Z</time>
      </trkpt>
      <trkpt lat="44.834" lon="0.70237">
        <ele>94</ele>
        <time>2014-03-29T17:49:59.000Z</time>
      </trkpt>
      <trkpt lat="44.834" lon="0.70237">
        <ele>94</ele>
        <time>2014-03-29T17:50:01.000Z</time>
      </trkpt>
      <trkpt lat="44.834" lon="0.70237">
        <ele>94</ele>
        <time>2014-03-29T17:50:03.000Z</time>
      </trkpt>
      <trkpt lat="44.83403" lon="0.70211">
        <ele>87</ele>
        <time>2014-03-29T17:50:11.000Z</time>
      </trkpt>
      <trkpt lat="44.83405" lon="0.70196">
        <ele>85</ele>
        <time>2014-03-29T17:50:13.000Z</time>
      </trkpt>
      <trkpt lat="44.83405" lon="0.70186">
        <ele>82</ele>
        <time>2014-03-29T17:50:15.000Z</time>
      </trkpt>
      <trkpt lat="44.83405" lon="0.70186">
        <ele>82</ele>
        <time>2014-03-29T17:50:17.000Z</time>
      </trkpt>
      <trkpt lat="44.83405" lon="0.70171">
        <ele>80</ele>
        <time>2014-03-29T17:50:23.000Z</time>
      </trkpt>
      <trkpt lat="44.83407" lon="0.70161">
        <ele>80</ele>
        <time>2014-03-29T17:50:25.000Z</time>
      </trkpt>
      <trkpt lat="44.83408" lon="0.70153">
        <ele>79</ele>
        <time>2014-03-29T17:50:27.000Z</time>
      </trkpt>
      <trkpt lat="44.83408" lon="0.70146">
        <ele>79</ele>
        <time>2014-03-29T17:50:29.000Z</time>
      </trkpt>
      <trkpt lat="44.8341" lon="0.7014">
        <ele>80</ele>
        <time>2014-03-29T17:50:31.000Z</time>
      </trkpt>
      <trkpt lat="44.8341" lon="0.7014">
        <ele>80</ele>
        <time>2014-03-29T17:50:33.000Z</time>
      </trkpt>
      <trkpt lat="44.8341" lon="0.7014">
        <ele>80</ele>
        <time>2014-03-29T17:50:35.000Z</time>
      </trkpt>
      <trkpt lat="44.8341" lon="0.7014">
        <ele>80</ele>
        <time>2014-03-29T17:50:37.000Z</time>
      </trkpt>
      <trkpt lat="44.8341" lon="0.7014">
        <ele>80</ele>
        <time>2014-03-29T17:50:39.000Z</time>
      </trkpt>
      <trkpt lat="44.8341" lon="0.7014">
        <ele>80</ele>
        <time>2014-03-29T17:50:41.000Z</time>
      </trkpt>
      <trkpt lat="44.8341" lon="0.7014">
        <ele>80</ele>
        <time>2014-03-29T17:50:43.000Z</time>
      </trkpt>
      <trkpt lat="44.8341" lon="0.7014">
        <ele>80</ele>
        <time>2014-03-29T17:50:45.000Z</time>
      </trkpt>
      <trkpt lat="44.83422" lon="0.7009">
        <ele>83</ele>
        <time>2014-03-29T17:50:49.000Z</time>
      </trkpt>
      <trkpt lat="44.83426" lon="0.70077">
        <ele>83</ele>
        <time>2014-03-29T17:50:53.000Z</time>
      </trkpt>
      <trkpt lat="44.83427" lon="0.70061">
        <ele>79</ele>
        <time>2014-03-29T17:50:57.000Z</time>
      </trkpt>
      <trkpt lat="44.83427" lon="0.70061">
        <ele>79</ele>
        <time>2014-03-29T17:50:59.000Z</time>
      </trkpt>
      <trkpt lat="44.83427" lon="0.70061">
        <ele>79</ele>
        <time>2014-03-29T17:51:03.000Z</time>
      </trkpt>
      <trkpt lat="44.83427" lon="0.70061">
        <ele>79</ele>
        <time>2014-03-29T17:51:05.000Z</time>
      </trkpt>
      <trkpt lat="44.83427" lon="0.70061">
        <ele>79</ele>
        <time>2014-03-29T17:51:07.000Z</time>
      </trkpt>
      <trkpt lat="44.83435" lon="0.70025">
        <ele>83</ele>
        <time>2014-03-29T17:51:11.000Z</time>
      </trkpt>
      <trkpt lat="44.83435" lon="0.70025">
        <ele>83</ele>
        <time>2014-03-29T17:51:13.000Z</time>
      </trkpt>
      <trkpt lat="44.83435" lon="0.70025">
        <ele>83</ele>
        <time>2014-03-29T17:51:15.000Z</time>
      </trkpt>
      <trkpt lat="44.83435" lon="0.70025">
        <ele>83</ele>
        <time>2014-03-29T17:51:17.000Z</time>
      </trkpt>
      <trkpt lat="44.83438" lon="0.7">
        <ele>84</ele>
        <time>2014-03-29T17:51:21.000Z</time>
      </trkpt>
      <trkpt lat="44.83438" lon="0.7">
        <ele>84</ele>
        <time>2014-03-29T17:51:27.000Z</time>
      </trkpt>
      <trkpt lat="44.83438" lon="0.7">
        <ele>84</ele>
        <time>2014-03-29T17:51:29.000Z</time>
      </trkpt>
      <trkpt lat="44.83438" lon="0.7">
        <ele>84</ele>
        <time>2014-03-29T17:51:31.000Z</time>
      </trkpt>
      <trkpt lat="44.83438" lon="0.7">
        <ele>84</ele>
        <time>2014-03-29T17:51:37.000Z</time>
      </trkpt>
      <trkpt lat="44.83438" lon="0.7">
        <ele>84</ele>
        <time>2014-03-29T17:51:39.000Z</time>
      </trkpt>
      <trkpt lat="44.83438" lon="0.7">
        <ele>84</ele>
        <time>2014-03-29T17:51:43.000Z</time>
      </trkpt>
      <trkpt lat="44.83438" lon="0.7">
        <ele>84</ele>
        <time>2014-03-29T17:51:45.000Z</time>
      </trkpt>
      <trkpt lat="44.83438" lon="0.7">
        <ele>84</ele>
        <time>2014-03-29T17:51:47.000Z</time>
      </trkpt>
      <trkpt lat="44.83438" lon="0.7">
        <ele>84</ele>
        <time>2014-03-29T17:51:49.000Z</time>
      </trkpt>
      <trkpt lat="44.83442" lon="0.69968">
        <ele>84</ele>
        <time>2014-03-29T17:51:53.000Z</time>
      </trkpt>
      <trkpt lat="44.83442" lon="0.69949">
        <ele>81</ele>
        <time>2014-03-29T17:51:55.000Z</time>
      </trkpt>
      <trkpt lat="44.83443" lon="0.69937">
        <ele>81</ele>
        <time>2014-03-29T17:51:57.000Z</time>
      </trkpt>
      <trkpt lat="44.83444" lon="0.69928">
        <ele>81</ele>
        <time>2014-03-29T17:51:59.000Z</time>
      </trkpt>
      <trkpt lat="44.83444" lon="0.69919">
        <ele>80</ele>
        <time>2014-03-29T17:52:01.000Z</time>
      </trkpt>
      <trkpt lat="44.83445" lon="0.69906">
        <ele>80</ele>
        <time>2014-03-29T17:52:03.000Z</time>
      </trkpt>
      <trkpt lat="44.83445" lon="0.69906">
        <ele>80</ele>
        <time>2014-03-29T17:52:05.000Z</time>
      </trkpt>
      <trkpt lat="44.83445" lon="0.69906">
        <ele>80</ele>
        <time>2014-03-29T17:52:07.000Z</time>
      </trkpt>
      <trkpt lat="44.83445" lon="0.69906">
        <ele>80</ele>
        <time>2014-03-29T17:52:09.000Z</time>
      </trkpt>
      <trkpt lat="44.83445" lon="0.69906">
        <ele>80</ele>
        <time>2014-03-29T17:52:13.000Z</time>
      </trkpt>
      <trkpt lat="44.83445" lon="0.69906">
        <ele>80</ele>
        <time>2014-03-29T17:52:15.000Z</time>
      </trkpt>
      <trkpt lat="44.83448" lon="0.69853">
        <ele>74</ele>
        <time>2014-03-29T17:52:21.000Z</time>
      </trkpt>
      <trkpt lat="44.83451" lon="0.69839">
        <ele>75</ele>
        <time>2014-03-29T17:52:25.000Z</time>
      </trkpt>
      <trkpt lat="44.83452" lon="0.69826">
        <ele>72</ele>
        <time>2014-03-29T17:52:29.000Z</time>
      </trkpt>
      <trkpt lat="44.83455" lon="0.69814">
        <ele>75</ele>
        <time>2014-03-29T17:52:33.000Z</time>
      </trkpt>
      <trkpt lat="44.83455" lon="0.69814">
        <ele>75</ele>
        <time>2014-03-29T17:52:35.000Z</time>
      </trkpt>
      <trkpt lat="44.83455" lon="0.69814">
        <ele>75</ele>
        <time>2014-03-29T17:52:37.000Z</time>
      </trkpt>
      <trkpt lat="44.83459" lon="0.69791">
        <ele>77</ele>
        <time>2014-03-29T17:52:41.000Z</time>
      </trkpt>
      <trkpt lat="44.83459" lon="0.69791">
        <ele>77</ele>
        <time>2014-03-29T17:52:43.000Z</time>
      </trkpt>
      <trkpt lat="44.83459" lon="0.69791">
        <ele>77</ele>
        <time>2014-03-29T17:52:45.000Z</time>
      </trkpt>
      <trkpt lat="44.83459" lon="0.69791">
        <ele>77</ele>
        <time>2014-03-29T17:52:47.000Z</time>
      </trkpt>
      <trkpt lat="44.83459" lon="0.69791">
        <ele>77</ele>
        <time>2014-03-29T17:52:53.000Z</time>
      </trkpt>
      <trkpt lat="44.83459" lon="0.69791">
        <ele>77</ele>
        <time>2014-03-29T17:52:55.000Z</time>
      </trkpt>
      <trkpt lat="44.83459" lon="0.69791">
        <ele>77</ele>
        <time>2014-03-29T17:52:57.000Z</time>
      </trkpt>
      <trkpt lat="44.83471" lon="0.69735">
        <ele>75</ele>
        <time>2014-03-29T17:53:01.000Z</time>
      </trkpt>
      <trkpt lat="44.83472" lon="0.69716">
        <ele>75</ele>
        <time>2014-03-29T17:53:07.000Z</time>
      </trkpt>
      <trkpt lat="44.83472" lon="0.69716">
        <ele>75</ele>
        <time>2014-03-29T17:53:09.000Z</time>
      </trkpt>
      <trkpt lat="44.83476" lon="0.69705">
        <ele>79</ele>
        <time>2014-03-29T17:53:11.000Z</time>
      </trkpt>
      <trkpt lat="44.83476" lon="0.69705">
        <ele>79</ele>
        <time>2014-03-29T17:53:13.000Z</time>
      </trkpt>
      <trkpt lat="44.83476" lon="0.69705">
        <ele>79</ele>
        <time>2014-03-29T17:53:17.000Z</time>
      </trkpt>
      <trkpt lat="44.83481" lon="0.6968">
        <ele>79</ele>
        <time>2014-03-29T17:53:19.000Z</time>
      </trkpt>
      <trkpt lat="44.83481" lon="0.6968">
        <ele>79</ele>
        <time>2014-03-29T17:53:21.000Z</time>
      </trkpt>
      <trkpt lat="44.83481" lon="0.6968">
        <ele>79</ele>
        <time>2014-03-29T17:53:23.000Z</time>
      </trkpt>
      <trkpt lat="44.83481" lon="0.6968">
        <ele>79</ele>
        <time>2014-03-29T17:53:25.000Z</time>
      </trkpt>
      <trkpt lat="44.83481" lon="0.6968">
        <ele>79</ele>
        <time>2014-03-29T17:53:27.000Z</time>
      </trkpt>
      <trkpt lat="44.83481" lon="0.6968">
        <ele>79</ele>
        <time>2014-03-29T17:53:29.000Z</time>
      </trkpt>
      <trkpt lat="44.83485" lon="0.69659">
        <ele>82</ele>
        <time>2014-03-29T17:53:35.000Z</time>
      </trkpt>
      <trkpt lat="44.83487" lon="0.69646">
        <ele>82</ele>
        <time>2014-03-29T17:53:37.000Z</time>
      </trkpt>
      <trkpt lat="44.83489" lon="0.69636">
        <ele>81</ele>
        <time>2014-03-29T17:53:39.000Z</time>
      </trkpt>
      <trkpt lat="44.8349" lon="0.69629">
        <ele>81</ele>
        <time>2014-03-29T17:53:41.000Z</time>
      </trkpt>
      <trkpt lat="44.8349" lon="0.69629">
        <ele>81</ele>
        <time>2014-03-29T17:53:43.000Z</time>
      </trkpt>
      <trkpt lat="44.8349" lon="0.69629">
        <ele>81</ele>
        <time>2014-03-29T17:53:45.000Z</time>
      </trkpt>
      <trkpt lat="44.83491" lon="0.69615">
        <ele>79</ele>
        <time>2014-03-29T17:53:49.000Z</time>
      </trkpt>
      <trkpt lat="44.83493" lon="0.69606">
        <ele>80</ele>
        <time>2014-03-29T17:53:51.000Z</time>
      </trkpt>
      <trkpt lat="44.83495" lon="0.69599">
        <ele>82</ele>
        <time>2014-03-29T17:53:53.000Z</time>
      </trkpt>
      <trkpt lat="44.83497" lon="0.69593">
        <ele>83</ele>
        <time>2014-03-29T17:53:55.000Z</time>
      </trkpt>
      <trkpt lat="44.83497" lon="0.69593">
        <ele>83</ele>
        <time>2014-03-29T17:53:57.000Z</time>
      </trkpt>
      <trkpt lat="44.83497" lon="0.69593">
        <ele>83</ele>
        <time>2014-03-29T17:53:59.000Z</time>
      </trkpt>
      <trkpt lat="44.83498" lon="0.69576">
        <ele>75</ele>
        <time>2014-03-29T17:54:03.000Z</time>
      </trkpt>
      <trkpt lat="44.83498" lon="0.69566">
        <ele>74</ele>
        <time>2014-03-29T17:54:05.000Z</time>
      </trkpt>
      <trkpt lat="44.835" lon="0.69559">
        <ele>75</ele>
        <time>2014-03-29T17:54:07.000Z</time>
      </trkpt>
      <trkpt lat="44.835" lon="0.69559">
        <ele>75</ele>
        <time>2014-03-29T17:54:09.000Z</time>
      </trkpt>
      <trkpt lat="44.835" lon="0.69559">
        <ele>75</ele>
        <time>2014-03-29T17:54:11.000Z</time>
      </trkpt>
      <trkpt lat="44.835" lon="0.69559">
        <ele>75</ele>
        <time>2014-03-29T17:54:13.000Z</time>
      </trkpt>
      <trkpt lat="44.83503" lon="0.6954">
        <ele>76</ele>
        <time>2014-03-29T17:54:17.000Z</time>
      </trkpt>
      <trkpt lat="44.83506" lon="0.69528">
        <ele>77</ele>
        <time>2014-03-29T17:54:19.000Z</time>
      </trkpt>
      <trkpt lat="44.83507" lon="0.6952">
        <ele>77</ele>
        <time>2014-03-29T17:54:21.000Z</time>
      </trkpt>
      <trkpt lat="44.83507" lon="0.6952">
        <ele>77</ele>
        <time>2014-03-29T17:54:23.000Z</time>
      </trkpt>
      <trkpt lat="44.83507" lon="0.6952">
        <ele>77</ele>
        <time>2014-03-29T17:54:25.000Z</time>
      </trkpt>
      <trkpt lat="44.83512" lon="0.69503">
        <ele>82</ele>
        <time>2014-03-29T17:54:29.000Z</time>
      </trkpt>
      <trkpt lat="44.83515" lon="0.69492">
        <ele>82</ele>
        <time>2014-03-29T17:54:31.000Z</time>
      </trkpt>
      <trkpt lat="44.83517" lon="0.69483">
        <ele>82</ele>
        <time>2014-03-29T17:54:33.000Z</time>
      </trkpt>
      <trkpt lat="44.83516" lon="0.69475">
        <ele>80</ele>
        <time>2014-03-29T17:54:35.000Z</time>
      </trkpt>
      <trkpt lat="44.83516" lon="0.69475">
        <ele>80</ele>
        <time>2014-03-29T17:54:37.000Z</time>
      </trkpt>
      <trkpt lat="44.83516" lon="0.69475">
        <ele>80</ele>
        <time>2014-03-29T17:54:39.000Z</time>
      </trkpt>
      <trkpt lat="44.83516" lon="0.69475">
        <ele>80</ele>
        <time>2014-03-29T17:54:41.000Z</time>
      </trkpt>
      <trkpt lat="44.83516" lon="0.69475">
        <ele>80</ele>
        <time>2014-03-29T17:54:43.000Z</time>
      </trkpt>
      <trkpt lat="44.83517" lon="0.69451">
        <ele>80</ele>
        <time>2014-03-29T17:54:49.000Z</time>
      </trkpt>
      <trkpt lat="44.83517" lon="0.69436">
        <ele>80</ele>
        <time>2014-03-29T17:54:51.000Z</time>
      </trkpt>
      <trkpt lat="44.83518" lon="0.69425">
        <ele>80</ele>
        <time>2014-03-29T17:54:53.000Z</time>
      </trkpt>
      <trkpt lat="44.83518" lon="0.69417">
        <ele>78</ele>
        <time>2014-03-29T17:54:55.000Z</time>
      </trkpt>
      <trkpt lat="44.83518" lon="0.6941">
        <ele>78</ele>
        <time>2014-03-29T17:54:57.000Z</time>
      </trkpt>
      <trkpt lat="44.83519" lon="0.69393">
        <ele>77</ele>
        <time>2014-03-29T17:55:01.000Z</time>
      </trkpt>
      <trkpt lat="44.83521" lon="0.69379">
        <ele>79</ele>
        <time>2014-03-29T17:55:05.000Z</time>
      </trkpt>
      <trkpt lat="44.83521" lon="0.69366">
        <ele>77</ele>
        <time>2014-03-29T17:55:09.000Z</time>
      </trkpt>
      <trkpt lat="44.83526" lon="0.69349">
        <ele>79</ele>
        <time>2014-03-29T17:55:13.000Z</time>
      </trkpt>
      <trkpt lat="44.83526" lon="0.69349">
        <ele>79</ele>
        <time>2014-03-29T17:55:19.000Z</time>
      </trkpt>
      <trkpt lat="44.83526" lon="0.69349">
        <ele>79</ele>
        <time>2014-03-29T17:55:21.000Z</time>
      </trkpt>
      <trkpt lat="44.83526" lon="0.69349">
        <ele>79</ele>
        <time>2014-03-29T17:55:23.000Z</time>
      </trkpt>
      <trkpt lat="44.83526" lon="0.69349">
        <ele>79</ele>
        <time>2014-03-29T17:55:25.000Z</time>
      </trkpt>
      <trkpt lat="44.83528" lon="0.69306">
        <ele>79</ele>
        <time>2014-03-29T17:55:29.000Z</time>
      </trkpt>
      <trkpt lat="44.83533" lon="0.6929">
        <ele>79</ele>
        <time>2014-03-29T17:55:33.000Z</time>
      </trkpt>
      <trkpt lat="44.83533" lon="0.6929">
        <ele>79</ele>
        <time>2014-03-29T17:55:39.000Z</time>
      </trkpt>
      <trkpt lat="44.83533" lon="0.6929">
        <ele>79</ele>
        <time>2014-03-29T17:55:41.000Z</time>
      </trkpt>
      <trkpt lat="44.83533" lon="0.6929">
        <ele>79</ele>
        <time>2014-03-29T17:55:43.000Z</time>
      </trkpt>
      <trkpt lat="44.83533" lon="0.6929">
        <ele>79</ele>
        <time>2014-03-29T17:55:45.000Z</time>
      </trkpt>
      <trkpt lat="44.83533" lon="0.6929">
        <ele>79</ele>
        <time>2014-03-29T17:55:47.000Z</time>
      </trkpt>
      <trkpt lat="44.83533" lon="0.6929">
        <ele>79</ele>
        <time>2014-03-29T17:55:49.000Z</time>
      </trkpt>
      <trkpt lat="44.83533" lon="0.6929">
        <ele>79</ele>
        <time>2014-03-29T17:55:51.000Z</time>
      </trkpt>
      <trkpt lat="44.83533" lon="0.6929">
        <ele>79</ele>
        <time>2014-03-29T17:55:53.000Z</time>
      </trkpt>
      <trkpt lat="44.83544" lon="0.69232">
        <ele>77</ele>
        <time>2014-03-29T17:55:59.000Z</time>
      </trkpt>
      <trkpt lat="44.83556" lon="0.69216">
        <ele>81</ele>
        <time>2014-03-29T17:56:05.000Z</time>
      </trkpt>
      <trkpt lat="44.83556" lon="0.69216">
        <ele>81</ele>
        <time>2014-03-29T17:56:09.000Z</time>
      </trkpt>
      <trkpt lat="44.83559" lon="0.69205">
        <ele>80</ele>
        <time>2014-03-29T17:56:15.000Z</time>
      </trkpt>
      <trkpt lat="44.83559" lon="0.69205">
        <ele>80</ele>
        <time>2014-03-29T17:56:17.000Z</time>
      </trkpt>
      <trkpt lat="44.83559" lon="0.69205">
        <ele>80</ele>
        <time>2014-03-29T17:56:19.000Z</time>
      </trkpt>
      <trkpt lat="44.83559" lon="0.69205">
        <ele>80</ele>
        <time>2014-03-29T17:56:21.000Z</time>
      </trkpt>
      <trkpt lat="44.83559" lon="0.69188">
        <ele>76</ele>
        <time>2014-03-29T17:56:27.000Z</time>
      </trkpt>
      <trkpt lat="44.8356" lon="0.69177">
        <ele>76</ele>
        <time>2014-03-29T17:56:29.000Z</time>
      </trkpt>
      <trkpt lat="44.83561" lon="0.69168">
        <ele>76</ele>
        <time>2014-03-29T17:56:31.000Z</time>
      </trkpt>
      <trkpt lat="44.83562" lon="0.69161">
        <ele>75</ele>
        <time>2014-03-29T17:56:33.000Z</time>
      </trkpt>
      <trkpt lat="44.83562" lon="0.69155">
        <ele>75</ele>
        <time>2014-03-29T17:56:35.000Z</time>
      </trkpt>
      <trkpt lat="44.83566" lon="0.69141">
        <ele>75</ele>
        <time>2014-03-29T17:56:37.000Z</time>
      </trkpt>
      <trkpt lat="44.83566" lon="0.69141">
        <ele>75</ele>
        <time>2014-03-29T17:56:43.000Z</time>
      </trkpt>
      <trkpt lat="44.83567" lon="0.69112">
        <ele>75</ele>
        <time>2014-03-29T17:56:47.000Z</time>
      </trkpt>
      <trkpt lat="44.8357" lon="0.69095">
        <ele>78</ele>
        <time>2014-03-29T17:56:53.000Z</time>
      </trkpt>
      <trkpt lat="44.8357" lon="0.69095">
        <ele>78</ele>
        <time>2014-03-29T17:56:55.000Z</time>
      </trkpt>
      <trkpt lat="44.8357" lon="0.69095">
        <ele>78</ele>
        <time>2014-03-29T17:56:59.000Z</time>
      </trkpt>
      <trkpt lat="44.8357" lon="0.69095">
        <ele>78</ele>
        <time>2014-03-29T17:57:01.000Z</time>
      </trkpt>
      <trkpt lat="44.8357" lon="0.69095">
        <ele>78</ele>
        <time>2014-03-29T17:57:03.000Z</time>
      </trkpt>
      <trkpt lat="44.83576" lon="0.69056">
        <ele>77</ele>
        <time>2014-03-29T17:57:07.000Z</time>
      </trkpt>
      <trkpt lat="44.83576" lon="0.69056">
        <ele>77</ele>
        <time>2014-03-29T17:57:11.000Z</time>
      </trkpt>
      <trkpt lat="44.83576" lon="0.69056">
        <ele>77</ele>
        <time>2014-03-29T17:57:13.000Z</time>
      </trkpt>
      <trkpt lat="44.83578" lon="0.69024">
        <ele>77</ele>
        <time>2014-03-29T17:57:17.000Z</time>
      </trkpt>
      <trkpt lat="44.83585" lon="0.69006">
        <ele>77</ele>
        <time>2014-03-29T17:57:23.000Z</time>
      </trkpt>
      <trkpt lat="44.83592" lon="0.68987">
        <ele>81</ele>
        <time>2014-03-29T17:57:29.000Z</time>
      </trkpt>
      <trkpt lat="44.83591" lon="0.68972">
        <ele>78</ele>
        <time>2014-03-29T17:57:33.000Z</time>
      </trkpt>
      <trkpt lat="44.83591" lon="0.68972">
        <ele>78</ele>
        <time>2014-03-29T17:57:35.000Z</time>
      </trkpt>
      <trkpt lat="44.83591" lon="0.68972">
        <ele>78</ele>
        <time>2014-03-29T17:57:37.000Z</time>
      </trkpt>
      <trkpt lat="44.83591" lon="0.68972">
        <ele>78</ele>
        <time>2014-03-29T17:57:39.000Z</time>
      </trkpt>
      <trkpt lat="44.83591" lon="0.68972">
        <ele>78</ele>
        <time>2014-03-29T17:57:45.000Z</time>
      </trkpt>
      <trkpt lat="44.83591" lon="0.68972">
        <ele>78</ele>
        <time>2014-03-29T17:57:47.000Z</time>
      </trkpt>
      <trkpt lat="44.83591" lon="0.68972">
        <ele>78</ele>
        <time>2014-03-29T17:57:49.000Z</time>
      </trkpt>
      <trkpt lat="44.83591" lon="0.68972">
        <ele>78</ele>
        <time>2014-03-29T17:57:53.000Z</time>
      </trkpt>
      <trkpt lat="44.83591" lon="0.68972">
        <ele>78</ele>
        <time>2014-03-29T17:57:55.000Z</time>
      </trkpt>
      <trkpt lat="44.83599" lon="0.68931">
        <ele>86</ele>
        <time>2014-03-29T17:57:59.000Z</time>
      </trkpt>
      <trkpt lat="44.83604" lon="0.68907">
        <ele>87</ele>
        <time>2014-03-29T17:58:01.000Z</time>
      </trkpt>
      <trkpt lat="44.83607" lon="0.68891">
        <ele>85</ele>
        <time>2014-03-29T17:58:03.000Z</time>
      </trkpt>
      <trkpt lat="44.8361" lon="0.68879">
        <ele>85</ele>
        <time>2014-03-29T17:58:05.000Z</time>
      </trkpt>
      <trkpt lat="44.83612" lon="0.6887">
        <ele>85</ele>
        <time>2014-03-29T17:58:07.000Z</time>
      </trkpt>
      <trkpt lat="44.83614" lon="0.68854">
        <ele>84</ele>
        <time>2014-03-29T17:58:09.000Z</time>
      </trkpt>
      <trkpt lat="44.83614" lon="0.68854">
        <ele>84</ele>
        <time>2014-03-29T17:58:11.000Z</time>
      </trkpt>
      <trkpt lat="44.83614" lon="0.68854">
        <ele>84</ele>
        <time>2014-03-29T17:58:13.000Z</time>
      </trkpt>
      <trkpt lat="44.83614" lon="0.68854">
        <ele>84</ele>
        <time>2014-03-29T17:58:15.000Z</time>
      </trkpt>
      <trkpt lat="44.83615" lon="0.68815">
        <ele>81</ele>
        <time>2014-03-29T17:58:21.000Z</time>
      </trkpt>
      <trkpt lat="44.83615" lon="0.68815">
        <ele>81</ele>
        <time>2014-03-29T17:58:23.000Z</time>
      </trkpt>
      <trkpt lat="44.83612" lon="0.68803">
        <ele>77</ele>
        <time>2014-03-29T17:58:25.000Z</time>
      </trkpt>
      <trkpt lat="44.83612" lon="0.68803">
        <ele>77</ele>
        <time>2014-03-29T17:58:27.000Z</time>
      </trkpt>
      <trkpt lat="44.83617" lon="0.68785">
        <ele>75</ele>
        <time>2014-03-29T17:58:29.000Z</time>
      </trkpt>
      <trkpt lat="44.83621" lon="0.68771">
        <ele>78</ele>
        <time>2014-03-29T17:58:33.000Z</time>
      </trkpt>
      <trkpt lat="44.83621" lon="0.68771">
        <ele>78</ele>
        <time>2014-03-29T17:58:35.000Z</time>
      </trkpt>
      <trkpt lat="44.83621" lon="0.68771">
        <ele>78</ele>
        <time>2014-03-29T17:58:37.000Z</time>
      </trkpt>
      <trkpt lat="44.83621" lon="0.68771">
        <ele>78</ele>
        <time>2014-03-29T17:58:39.000Z</time>
      </trkpt>
      <trkpt lat="44.83621" lon="0.68771">
        <ele>78</ele>
        <time>2014-03-29T17:58:43.000Z</time>
      </trkpt>
      <trkpt lat="44.83621" lon="0.68771">
        <ele>78</ele>
        <time>2014-03-29T17:58:45.000Z</time>
      </trkpt>
      <trkpt lat="44.83621" lon="0.68771">
        <ele>78</ele>
        <time>2014-03-29T17:58:47.000Z</time>
      </trkpt>
      <trkpt lat="44.83629" lon="0.68722">
        <ele>85</ele>
        <time>2014-03-29T17:58:49.000Z</time>
      </trkpt>
      <trkpt lat="44.8363" lon="0.68706">
        <ele>83</ele>
        <time>2014-03-29T17:58:53.000Z</time>
      </trkpt>
      <trkpt lat="44.83632" lon="0.68691">
        <ele>85</ele>
        <time>2014-03-29T17:58:57.000Z</time>
      </trkpt>
      <trkpt lat="44.83632" lon="0.68691">
        <ele>85</ele>
        <time>2014-03-29T17:58:59.000Z</time>
      </trkpt>
      <trkpt lat="44.83632" lon="0.68676">
        <ele>85</ele>
        <time>2014-03-29T17:59:01.000Z</time>
      </trkpt>
      <trkpt lat="44.83632" lon="0.68676">
        <ele>85</ele>
        <time>2014-03-29T17:59:03.000Z</time>
      </trkpt>
      <trkpt lat="44.83632" lon="0.68676">
        <ele>85</ele>
        <time>2014-03-29T17:59:05.000Z</time>
      </trkpt>
      <trkpt lat="44.83632" lon="0.68676">
        <ele>85</ele>
        <time>2014-03-29T17:59:07.000Z</time>
      </trkpt>
      <trkpt lat="44.83632" lon="0.68676">
        <ele>85</ele>
        <time>2014-03-29T17:59:09.000Z</time>
      </trkpt>
      <trkpt lat="44.83632" lon="0.68676">
        <ele>85</ele>
        <time>2014-03-29T17:59:11.000Z</time>
      </trkpt>
      <trkpt lat="44.83632" lon="0.68676">
        <ele>85</ele>
        <time>2014-03-29T17:59:13.000Z</time>
      </trkpt>
      <trkpt lat="44.83632" lon="0.68676">
        <ele>85</ele>
        <time>2014-03-29T17:59:15.000Z</time>
      </trkpt>
      <trkpt lat="44.83632" lon="0.68676">
        <ele>85</ele>
        <time>2014-03-29T17:59:17.000Z</time>
      </trkpt>
      <trkpt lat="44.83632" lon="0.68676">
        <ele>85</ele>
        <time>2014-03-29T17:59:19.000Z</time>
      </trkpt>
      <trkpt lat="44.83643" lon="0.68625">
        <ele>80</ele>
        <time>2014-03-29T17:59:21.000Z</time>
      </trkpt>
      <trkpt lat="44.83643" lon="0.68625">
        <ele>80</ele>
        <time>2014-03-29T17:59:23.000Z</time>
      </trkpt>
      <trkpt lat="44.83643" lon="0.68625">
        <ele>80</ele>
        <time>2014-03-29T17:59:25.000Z</time>
      </trkpt>
      <trkpt lat="44.83643" lon="0.68625">
        <ele>80</ele>
        <time>2014-03-29T17:59:27.000Z</time>
      </trkpt>
      <trkpt lat="44.83643" lon="0.68625">
        <ele>80</ele>
        <time>2014-03-29T17:59:29.000Z</time>
      </trkpt>
      <trkpt lat="44.83643" lon="0.68625">
        <ele>80</ele>
        <time>2014-03-29T17:59:31.000Z</time>
      </trkpt>
      <trkpt lat="44.83643" lon="0.68625">
        <ele>80</ele>
        <time>2014-03-29T17:59:33.000Z</time>
      </trkpt>
      <trkpt lat="44.83645" lon="0.68609">
        <ele>81</ele>
        <time>2014-03-29T17:59:39.000Z</time>
      </trkpt>
      <trkpt lat="44.83646" lon="0.68599">
        <ele>81</ele>
        <time>2014-03-29T17:59:41.000Z</time>
      </trkpt>
      <trkpt lat="44.83646" lon="0.68592">
        <ele>82</ele>
        <time>2014-03-29T17:59:43.000Z</time>
      </trkpt>
      <trkpt lat="44.83646" lon="0.68592">
        <ele>82</ele>
        <time>2014-03-29T17:59:45.000Z</time>
      </trkpt>
      <trkpt lat="44.83649" lon="0.68583">
        <ele>85</ele>
        <time>2014-03-29T17:59:49.000Z</time>
      </trkpt>
      <trkpt lat="44.83651" lon="0.68575">
        <ele>84</ele>
        <time>2014-03-29T17:59:51.000Z</time>
      </trkpt>
      <trkpt lat="44.83653" lon="0.68568">
        <ele>85</ele>
        <time>2014-03-29T17:59:53.000Z</time>
      </trkpt>
      <trkpt lat="44.83655" lon="0.68561">
        <ele>86</ele>
        <time>2014-03-29T17:59:55.000Z</time>
      </trkpt>
      <trkpt lat="44.83658" lon="0.68554">
        <ele>87</ele>
        <time>2014-03-29T17:59:57.000Z</time>
      </trkpt>
      <trkpt lat="44.83661" lon="0.68542">
        <ele>88</ele>
        <time>2014-03-29T17:59:59.000Z</time>
      </trkpt>
      <trkpt lat="44.83661" lon="0.68542">
        <ele>88</ele>
        <time>2014-03-29T18:00:05.000Z</time>
      </trkpt>
      <trkpt lat="44.83661" lon="0.68542">
        <ele>88</ele>
        <time>2014-03-29T18:00:07.000Z</time>
      </trkpt>
      <trkpt lat="44.83661" lon="0.68508">
        <ele>86</ele>
        <time>2014-03-29T18:00:11.000Z</time>
      </trkpt>
      <trkpt lat="44.83665" lon="0.68487">
        <ele>86</ele>
        <time>2014-03-29T18:00:17.000Z</time>
      </trkpt>
      <trkpt lat="44.83665" lon="0.68487">
        <ele>86</ele>
        <time>2014-03-29T18:00:19.000Z</time>
      </trkpt>
      <trkpt lat="44.83667" lon="0.68472">
        <ele>86</ele>
        <time>2014-03-29T18:00:21.000Z</time>
      </trkpt>
      <trkpt lat="44.83667" lon="0.68472">
        <ele>86</ele>
        <time>2014-03-29T18:00:23.000Z</time>
      </trkpt>
      <trkpt lat="44.83667" lon="0.68472">
        <ele>86</ele>
        <time>2014-03-29T18:00:25.000Z</time>
      </trkpt>
      <trkpt lat="44.83673" lon="0.68443">
        <ele>87</ele>
        <time>2014-03-29T18:00:29.000Z</time>
      </trkpt>
      <trkpt lat="44.83673" lon="0.68443">
        <ele>87</ele>
        <time>2014-03-29T18:00:35.000Z</time>
      </trkpt>
      <trkpt lat="44.8368" lon="0.68418">
        <ele>90</ele>
        <time>2014-03-29T18:00:37.000Z</time>
      </trkpt>
      <trkpt lat="44.83681" lon="0.68404">
        <ele>88</ele>
        <time>2014-03-29T18:00:41.000Z</time>
      </trkpt>
      <trkpt lat="44.83682" lon="0.68389">
        <ele>85</ele>
        <time>2014-03-29T18:00:45.000Z</time>
      </trkpt>
      <trkpt lat="44.83682" lon="0.68389">
        <ele>85</ele>
        <time>2014-03-29T18:00:47.000Z</time>
      </trkpt>
      <trkpt lat="44.83682" lon="0.68389">
        <ele>85</ele>
        <time>2014-03-29T18:00:49.000Z</time>
      </trkpt>
      <trkpt lat="44.83682" lon="0.68389">
        <ele>85</ele>
        <time>2014-03-29T18:00:51.000Z</time>
      </trkpt>
      <trkpt lat="44.83689" lon="0.68349">
        <ele>83</ele>
        <time>2014-03-29T18:00:57.000Z</time>
      </trkpt>
      <trkpt lat="44.83689" lon="0.68349">
        <ele>83</ele>
        <time>2014-03-29T18:00:59.000Z</time>
      </trkpt>
      <trkpt lat="44.83689" lon="0.68349">
        <ele>83</ele>
        <time>2014-03-29T18:01:01.000Z</time>
      </trkpt>
      <trkpt lat="44.83689" lon="0.68349">
        <ele>83</ele>
        <time>2014-03-29T18:01:03.000Z</time>
      </trkpt>
      <trkpt lat="44.83689" lon="0.68349">
        <ele>83</ele>
        <time>2014-03-29T18:01:05.000Z</time>
      </trkpt>
      <trkpt lat="44.83689" lon="0.68349">
        <ele>83</ele>
        <time>2014-03-29T18:01:07.000Z</time>
      </trkpt>
      <trkpt lat="44.83689" lon="0.68349">
        <ele>83</ele>
        <time>2014-03-29T18:01:09.000Z</time>
      </trkpt>
      <trkpt lat="44.83689" lon="0.68349">
        <ele>83</ele>
        <time>2014-03-29T18:01:11.000Z</time>
      </trkpt>
      <trkpt lat="44.83689" lon="0.68349">
        <ele>83</ele>
        <time>2014-03-29T18:01:13.000Z</time>
      </trkpt>
      <trkpt lat="44.83689" lon="0.68349">
        <ele>83</ele>
        <time>2014-03-29T18:01:15.000Z</time>
      </trkpt>
      <trkpt lat="44.83696" lon="0.68314">
        <ele>84</ele>
        <time>2014-03-29T18:01:17.000Z</time>
      </trkpt>
      <trkpt lat="44.83696" lon="0.68314">
        <ele>84</ele>
        <time>2014-03-29T18:01:19.000Z</time>
      </trkpt>
      <trkpt lat="44.83696" lon="0.68314">
        <ele>84</ele>
        <time>2014-03-29T18:01:21.000Z</time>
      </trkpt>
      <trkpt lat="44.83696" lon="0.68314">
        <ele>84</ele>
        <time>2014-03-29T18:01:23.000Z</time>
      </trkpt>
      <trkpt lat="44.83701" lon="0.6828">
        <ele>83</ele>
        <time>2014-03-29T18:01:27.000Z</time>
      </trkpt>
      <trkpt lat="44.83704" lon="0.68258">
        <ele>84</ele>
        <time>2014-03-29T18:01:29.000Z</time>
      </trkpt>
      <trkpt lat="44.83706" lon="0.68243">
        <ele>83</ele>
        <time>2014-03-29T18:01:31.000Z</time>
      </trkpt>
      <trkpt lat="44.83709" lon="0.68232">
        <ele>84</ele>
        <time>2014-03-29T18:01:33.000Z</time>
      </trkpt>
      <trkpt lat="44.83709" lon="0.68224">
        <ele>84</ele>
        <time>2014-03-29T18:01:35.000Z</time>
      </trkpt>
      <trkpt lat="44.83709" lon="0.68224">
        <ele>84</ele>
        <time>2014-03-29T18:01:37.000Z</time>
      </trkpt>
      <trkpt lat="44.83709" lon="0.68224">
        <ele>84</ele>
        <time>2014-03-29T18:01:39.000Z</time>
      </trkpt>
      <trkpt lat="44.83712" lon="0.68179">
        <ele>81</ele>
        <time>2014-03-29T18:01:45.000Z</time>
      </trkpt>
      <trkpt lat="44.83713" lon="0.68165">
        <ele>81</ele>
        <time>2014-03-29T18:01:49.000Z</time>
      </trkpt>
      <trkpt lat="44.83713" lon="0.68165">
        <ele>81</ele>
        <time>2014-03-29T18:01:51.000Z</time>
      </trkpt>
      <trkpt lat="44.83713" lon="0.68165">
        <ele>81</ele>
        <time>2014-03-29T18:01:53.000Z</time>
      </trkpt>
      <trkpt lat="44.83713" lon="0.68165">
        <ele>81</ele>
        <time>2014-03-29T18:01:55.000Z</time>
      </trkpt>
      <trkpt lat="44.83713" lon="0.68165">
        <ele>81</ele>
        <time>2014-03-29T18:01:57.000Z</time>
      </trkpt>
      <trkpt lat="44.83713" lon="0.68165">
        <ele>81</ele>
        <time>2014-03-29T18:01:59.000Z</time>
      </trkpt>
      <trkpt lat="44.83713" lon="0.68165">
        <ele>81</ele>
        <time>2014-03-29T18:02:01.000Z</time>
      </trkpt>
      <trkpt lat="44.83713" lon="0.68165">
        <ele>81</ele>
        <time>2014-03-29T18:02:03.000Z</time>
      </trkpt>
      <trkpt lat="44.83713" lon="0.68165">
        <ele>81</ele>
        <time>2014-03-29T18:02:05.000Z</time>
      </trkpt>
      <trkpt lat="44.83725" lon="0.68127">
        <ele>86</ele>
        <time>2014-03-29T18:02:09.000Z</time>
      </trkpt>
      <trkpt lat="44.83727" lon="0.68111">
        <ele>86</ele>
        <time>2014-03-29T18:02:17.000Z</time>
      </trkpt>
      <trkpt lat="44.83727" lon="0.68092">
        <ele>80</ele>
        <time>2014-03-29T18:02:23.000Z</time>
      </trkpt>
      <trkpt lat="44.83726" lon="0.6808">
        <ele>78</ele>
        <time>2014-03-29T18:02:27.000Z</time>
      </trkpt>
      <trkpt lat="44.83731" lon="0.68067">
        <ele>81</ele>
        <time>2014-03-29T18:02:31.000Z</time>
      </trkpt>
      <trkpt lat="44.83735" lon="0.68053">
        <ele>83</ele>
        <time>2014-03-29T18:02:35.000Z</time>
      </trkpt>
      <trkpt lat="44.83737" lon="0.68041">
        <ele>81</ele>
        <time>2014-03-29T18:02:39.000Z</time>
      </trkpt>
      <trkpt lat="44.83737" lon="0.68041">
        <ele>81</ele>
        <time>2014-03-29T18:02:45.000Z</time>
      </trkpt>
      <trkpt lat="44.83737" lon="0.68041">
        <ele>81</ele>
        <time>2014-03-29T18:02:47.000Z</time>
      </trkpt>
      <trkpt lat="44.83738" lon="0.68003">
        <ele>79</ele>
        <time>2014-03-29T18:02:53.000Z</time>
      </trkpt>
      <trkpt lat="44.83738" lon="0.68003">
        <ele>79</ele>
        <time>2014-03-29T18:02:55.000Z</time>
      </trkpt>
      <trkpt lat="44.83738" lon="0.68003">
        <ele>79</ele>
        <time>2014-03-29T18:02:57.000Z</time>
      </trkpt>
      <trkpt lat="44.83738" lon="0.68003">
        <ele>79</ele>
        <time>2014-03-29T18:02:59.000Z</time>
      </trkpt>
      <trkpt lat="44.83746" lon="0.67996">
        <ele>81</ele>
        <time>2014-03-29T18:03:03.000Z</time>
      </trkpt>
      <trkpt lat="44.83752" lon="0.67994">
        <ele>82</ele>
        <time>2014-03-29T18:03:05.000Z</time>
      </trkpt>
      <trkpt lat="44.83757" lon="0.67994">
        <ele>82</ele>
        <time>2014-03-29T18:03:07.000Z</time>
      </trkpt>
      <trkpt lat="44.83757" lon="0.67994">
        <ele>82</ele>
        <time>2014-03-29T18:03:09.000Z</time>
      </trkpt>
      <trkpt lat="44.83757" lon="0.67994">
        <ele>82</ele>
        <time>2014-03-29T18:03:11.000Z</time>
      </trkpt>
      <trkpt lat="44.83765" lon="0.6799">
        <ele>85</ele>
        <time>2014-03-29T18:03:13.000Z</time>
      </trkpt>
      <trkpt lat="44.8377" lon="0.67984">
        <ele>86</ele>
        <time>2014-03-29T18:03:15.000Z</time>
      </trkpt>
      <trkpt lat="44.83773" lon="0.67979">
        <ele>88</ele>
        <time>2014-03-29T18:03:17.000Z</time>
      </trkpt>
      <trkpt lat="44.83776" lon="0.67972">
        <ele>88</ele>
        <time>2014-03-29T18:03:19.000Z</time>
      </trkpt>
      <trkpt lat="44.83778" lon="0.67965">
        <ele>86</ele>
        <time>2014-03-29T18:03:21.000Z</time>
      </trkpt>
      <trkpt lat="44.83781" lon="0.67951">
        <ele>86</ele>
        <time>2014-03-29T18:03:23.000Z</time>
      </trkpt>
      <trkpt lat="44.83781" lon="0.67951">
        <ele>86</ele>
        <time>2014-03-29T18:03:25.000Z</time>
      </trkpt>
      <trkpt lat="44.83782" lon="0.67937">
        <ele>87</ele>
        <time>2014-03-29T18:03:27.000Z</time>
      </trkpt>
      <trkpt lat="44.83787" lon="0.67919">
        <ele>86</ele>
        <time>2014-03-29T18:03:33.000Z</time>
      </trkpt>
      <trkpt lat="44.83787" lon="0.67919">
        <ele>86</ele>
        <time>2014-03-29T18:03:35.000Z</time>
      </trkpt>
      <trkpt lat="44.83791" lon="0.67908">
        <ele>87</ele>
        <time>2014-03-29T18:03:37.000Z</time>
      </trkpt>
      <trkpt lat="44.83791" lon="0.67908">
        <ele>87</ele>
        <time>2014-03-29T18:03:39.000Z</time>
      </trkpt>
      <trkpt lat="44.83791" lon="0.67908">
        <ele>87</ele>
        <time>2014-03-29T18:03:49.000Z</time>
      </trkpt>
      <trkpt lat="44.83791" lon="0.67908">
        <ele>87</ele>
        <time>2014-03-29T18:03:51.000Z</time>
      </trkpt>
      <trkpt lat="44.83791" lon="0.67908">
        <ele>87</ele>
        <time>2014-03-29T18:03:59.000Z</time>
      </trkpt>
      <trkpt lat="44.83812" lon="0.67832">
        <ele>86</ele>
        <time>2014-03-29T18:04:01.000Z</time>
      </trkpt>
      <trkpt lat="44.83814" lon="0.67819">
        <ele>85</ele>
        <time>2014-03-29T18:04:05.000Z</time>
      </trkpt>
      <trkpt lat="44.83817" lon="0.67806">
        <ele>85</ele>
        <time>2014-03-29T18:04:09.000Z</time>
      </trkpt>
      <trkpt lat="44.83817" lon="0.67806">
        <ele>85</ele>
        <time>2014-03-29T18:04:11.000Z</time>
      </trkpt>
      <trkpt lat="44.83817" lon="0.67806">
        <ele>85</ele>
        <time>2014-03-29T18:04:13.000Z</time>
      </trkpt>
      <trkpt lat="44.83817" lon="0.67806">
        <ele>85</ele>
        <time>2014-03-29T18:04:15.000Z</time>
      </trkpt>
      <trkpt lat="44.83817" lon="0.67806">
        <ele>85</ele>
        <time>2014-03-29T18:04:17.000Z</time>
      </trkpt>
      <trkpt lat="44.83817" lon="0.67806">
        <ele>85</ele>
        <time>2014-03-29T18:04:19.000Z</time>
      </trkpt>
      <trkpt lat="44.83817" lon="0.67806">
        <ele>85</ele>
        <time>2014-03-29T18:04:21.000Z</time>
      </trkpt>
      <trkpt lat="44.83817" lon="0.67806">
        <ele>85</ele>
        <time>2014-03-29T18:04:23.000Z</time>
      </trkpt>
      <trkpt lat="44.83817" lon="0.67806">
        <ele>85</ele>
        <time>2014-03-29T18:04:25.000Z</time>
      </trkpt>
      <trkpt lat="44.83817" lon="0.67806">
        <ele>85</ele>
        <time>2014-03-29T18:04:27.000Z</time>
      </trkpt>
      <trkpt lat="44.83817" lon="0.67806">
        <ele>85</ele>
        <time>2014-03-29T18:04:29.000Z</time>
      </trkpt>
    </trkseg>
  </trk>
</gpx>